Temperatur und Luftfeuchte

Temperatur und Luftfeuchte

Nummer Datum und Zeit Sensor ID Temperatur in Celsius gef├╝hlte Temperatur Luftfeuchte in %
41861 2021-04-12 08:23:08 Terrasse 4.20 3.28 99.90
41860 2021-04-12 07:54:56 Terrasse 4.00 3.06 99.90
41859 2021-04-12 07:26:47 Terrasse 3.90 2.95 99.90
41858 2021-04-12 06:58:54 Terrasse 4.00 3.06 99.90
41857 2021-04-12 06:30:46 Terrasse 4.10 3.17 99.90
41856 2021-04-12 06:03:13 Terrasse 4.20 3.28 99.90
41855 2021-04-12 05:34:51 Terrasse 4.30 3.39 99.90
41854 2021-04-12 05:06:41 Terrasse 4.40 3.50 99.90
41853 2021-04-12 04:38:34 Terrasse 4.50 3.61 99.90
41852 2021-04-12 04:10:25 Terrasse 4.50 3.61 99.90
41851 2021-04-12 03:42:18 Terrasse 4.50 3.61 99.90
41850 2021-04-12 03:14:10 Terrasse 4.60 3.72 99.90
41849 2021-04-12 02:46:01 Terrasse 4.70 3.83 99.90
41848 2021-04-12 02:17:53 Terrasse 4.70 3.83 99.90
41847 2021-04-12 01:49:48 Terrasse 4.80 3.94 99.90
41846 2021-04-12 01:21:40 Terrasse 4.80 3.94 99.90
41845 2021-04-12 00:53:33 Terrasse 4.90 4.05 99.90
41844 2021-04-12 00:25:24 Terrasse 5.00 4.16 99.90
41843 2021-04-11 23:57:15 Terrasse 5.10 4.27 99.90
41842 2021-04-11 23:29:08 Terrasse 5.30 4.49 99.90
41841 2021-04-11 22:00:16 Terrasse 5.50 4.71 99.90
41840 2021-04-11 21:01:29 Terrasse 5.70 4.93 99.90
41839 2021-04-11 20:33:23 Terrasse 5.90 5.15 99.90
41838 2021-04-11 20:05:17 Terrasse 6.30 5.59 99.90
41837 2021-04-11 19:37:10 Terrasse 6.60 5.92 99.90
41836 2021-04-11 19:09:02 Terrasse 6.90 6.25 99.90
41835 2021-04-11 18:40:53 Terrasse 7.00 6.36 99.90
41834 2021-04-11 18:12:48 Terrasse 7.50 6.91 99.90
41833 2021-04-11 17:44:40 Terrasse 8.10 7.57 99.90
41832 2021-04-11 17:16:32 Terrasse 8.40 7.90 99.90
41831 2021-04-11 16:48:33 Terrasse 8.90 8.45 99.90
41830 2021-04-11 16:20:32 Terrasse 9.20 8.78 99.90
41829 2021-04-11 15:52:23 Terrasse 9.60 9.22 99.90
41828 2021-04-11 15:24:13 Terrasse 9.60 9.22 99.90
41827 2021-04-11 14:56:05 Terrasse 9.90 9.55 99.90
41826 2021-04-11 14:27:59 Terrasse 10.30 9.99 99.90
41825 2021-04-11 13:59:54 Terrasse 11.20 10.98 99.90
41824 2021-04-11 13:31:48 Terrasse 12.00 11.86 99.90
41823 2021-04-11 13:03:41 Terrasse 12.40 12.30 99.90
41822 2021-04-11 12:35:35 Terrasse 12.80 12.74 99.90
41821 2021-04-11 12:07:33 Terrasse 13.80 13.84 99.90
41820 2021-04-11 11:39:17 Terrasse 12.80 12.74 99.90
41819 2021-04-11 11:11:06 Terrasse 12.20 12.08 99.90
41818 2021-04-11 10:43:00 Terrasse 12.30 12.19 99.90
41817 2021-04-11 10:14:46 Terrasse 12.10 11.97 99.90
41816 2021-04-11 09:46:27 Terrasse 10.70 10.43 99.90
41815 2021-04-11 09:18:11 Terrasse 9.80 9.44 99.90
41814 2021-04-11 08:49:58 Terrasse 9.30 8.89 99.90
41813 2021-04-11 08:21:50 Terrasse 9.00 8.56 99.90
41812 2021-04-11 07:53:39 Terrasse 8.80 8.34 99.90
41811 2021-04-11 07:25:29 Terrasse 8.60 8.12 99.90
41810 2021-04-11 06:57:20 Terrasse 8.60 8.12 99.90
41809 2021-04-11 06:29:10 Terrasse 8.50 8.01 99.90
41808 2021-04-11 06:00:59 Terrasse 8.30 7.79 99.90
41807 2021-04-11 05:32:50 Terrasse 8.30 7.79 99.90
41806 2021-04-11 05:04:42 Terrasse 8.40 7.90 99.90
41805 2021-04-11 04:36:34 Terrasse 8.60 8.12 99.90
41804 2021-04-11 04:08:25 Terrasse 8.60 8.12 99.90
41803 2021-04-11 03:40:17 Terrasse 8.60 8.12 99.90
41802 2021-04-11 03:12:09 Terrasse 8.80 8.34 99.90
41801 2021-04-11 02:43:59 Terrasse 8.80 8.34 99.90
41800 2021-04-11 02:15:52 Terrasse 9.00 8.56 99.90
41799 2021-04-11 01:47:44 Terrasse 9.10 8.67 99.90
41798 2021-04-11 01:19:35 Terrasse 9.10 8.67 99.90
41797 2021-04-11 00:51:26 Terrasse 9.20 8.78 99.90
41796 2021-04-11 00:23:18 Terrasse 9.20 8.78 99.90
41795 2021-04-10 23:55:10 Terrasse 9.20 8.78 99.90
41794 2021-04-10 23:27:01 Terrasse 9.20 8.78 99.90
41793 2021-04-10 22:58:55 Terrasse 9.20 8.78 99.90
41792 2021-04-10 22:30:45 Terrasse 9.30 8.89 99.90
41791 2021-04-10 22:02:36 Terrasse 9.30 8.89 99.90
41790 2021-04-10 21:34:34 Terrasse 9.40 9.00 99.90
41789 2021-04-10 21:06:25 Terrasse 9.40 9.00 99.90
41788 2021-04-10 20:38:17 Terrasse 9.50 9.11 99.90
41787 2021-04-10 20:10:10 Terrasse 9.70 9.33 99.90
41786 2021-04-10 19:42:03 Terrasse 9.80 9.44 99.90
41785 2021-04-10 19:13:57 Terrasse 9.90 9.55 99.90
41784 2021-04-10 18:15:21 Terrasse 10.20 9.88 99.90
41783 2021-04-10 17:47:14 Terrasse 10.20 9.88 99.90
41782 2021-04-10 17:19:04 Terrasse 10.20 9.88 99.90
41781 2021-04-10 16:50:55 Terrasse 10.10 9.77 99.90
41780 2021-04-10 16:22:48 Terrasse 10.10 9.77 99.90
41779 2021-04-10 15:54:39 Terrasse 9.90 9.55 99.90
41778 2021-04-10 15:26:30 Terrasse 9.70 9.33 99.90
41777 2021-04-10 14:28:15 Terrasse 9.40 9.00 99.90
41776 2021-04-10 14:00:24 Terrasse 9.30 8.89 99.90
41775 2021-04-10 13:32:00 Terrasse 9.20 8.78 99.90
41774 2021-04-10 13:03:52 Terrasse 9.20 8.78 99.90
41773 2021-04-10 12:35:45 Terrasse 9.40 9.00 99.90
41772 2021-04-10 11:37:11 Terrasse 9.10 8.67 99.90
41771 2021-04-10 11:09:07 Terrasse 9.20 8.78 99.90
41770 2021-04-10 10:41:12 Terrasse 9.40 9.00 99.90
41769 2021-04-10 10:13:25 Terrasse 9.40 9.00 99.90
41768 2021-04-10 09:45:13 Terrasse 9.50 9.11 99.90
41767 2021-04-10 09:17:05 Terrasse 9.60 9.22 99.90
41766 2021-04-10 08:49:10 Terrasse 9.20 8.78 99.90
41765 2021-04-10 08:21:08 Terrasse 9.00 8.56 99.90
41764 2021-04-10 07:52:56 Terrasse 9.00 8.56 99.90
41763 2021-04-10 07:24:46 Terrasse 9.00 8.56 99.90
41762 2021-04-10 06:56:37 Terrasse 9.00 8.56 99.90
41761 2021-04-10 06:28:30 Terrasse 9.10 8.67 99.90
41760 2021-04-10 06:00:22 Terrasse 9.20 8.78 99.90
41759 2021-04-10 05:32:15 Terrasse 9.30 8.89 99.90
41758 2021-04-10 05:04:07 Terrasse 9.50 9.11 99.90
41757 2021-04-10 04:35:59 Terrasse 9.60 9.22 99.90
41756 2021-04-10 04:07:52 Terrasse 9.70 9.33 99.90
41755 2021-04-10 03:08:45 Terrasse 10.00 9.66 99.90
41754 2021-04-10 02:09:37 Terrasse 10.40 10.10 99.90
41753 2021-04-10 01:41:29 Terrasse 10.60 10.32 99.90
41752 2021-04-10 01:13:21 Terrasse 10.90 10.65 99.90
41751 2021-04-10 00:45:15 Terrasse 10.90 10.65 99.90
41750 2021-04-10 00:17:12 Terrasse 11.30 10.91 92.70
41749 2021-04-09 23:49:04 Terrasse 11.60 10.38 60.00
41748 2021-04-09 23:20:56 Terrasse 11.90 10.48 51.20
41747 2021-04-09 22:52:58 Terrasse 12.20 10.76 49.10
41746 2021-04-09 22:25:06 Terrasse 12.60 11.11 45.60
41745 2021-04-09 21:56:53 Terrasse 12.70 11.20 45.00
41744 2021-04-09 21:28:47 Terrasse 12.90 11.39 43.80
41743 2021-04-09 21:00:37 Terrasse 12.70 11.13 42.30
41742 2021-04-09 20:32:31 Terrasse 13.00 11.45 42.00
41741 2021-04-09 20:04:29 Terrasse 13.70 12.24 42.70
41740 2021-04-09 19:36:24 Terrasse 14.40 12.87 37.40
41739 2021-04-09 19:08:21 Terrasse 15.10 13.59 35.40
41738 2021-04-09 18:40:15 Terrasse 15.50 14.01 34.50
41737 2021-04-09 18:12:12 Terrasse 16.20 14.76 33.70
41736 2021-04-09 17:44:07 Terrasse 16.70 15.31 33.80
41735 2021-04-09 17:16:01 Terrasse 17.30 15.99 34.80
41734 2021-04-09 16:47:54 Terrasse 17.70 16.42 34.20
41733 2021-04-09 16:19:48 Terrasse 17.90 16.66 35.20
41732 2021-04-09 15:51:44 Terrasse 18.50 17.33 35.50
41731 2021-04-09 15:23:46 Terrasse 19.20 18.11 35.90
41730 2021-04-09 14:55:46 Terrasse 20.20 19.20 35.60
41729 2021-04-09 14:27:34 Terrasse 19.30 18.26 37.20
41728 2021-04-09 13:59:35 Terrasse 19.70 18.68 36.40
41727 2021-04-09 13:31:35 Terrasse 20.30 19.34 36.40
41726 2021-04-09 13:03:22 Terrasse 20.30 19.38 38.00
41725 2021-04-09 12:34:35 Terrasse 16.00 14.75 42.00
41724 2021-04-09 12:06:24 Terrasse 13.10 11.65 45.40
41723 2021-04-09 11:37:59 Terrasse 11.50 9.96 47.90
41722 2021-04-09 11:09:42 Terrasse 9.60 8.05 55.00
41721 2021-04-09 10:41:24 Terrasse 8.00 6.46 61.40
41720 2021-04-09 10:13:10 Terrasse 7.00 5.32 60.00
41719 2021-04-09 09:44:55 Terrasse 5.90 4.14 61.10
41718 2021-04-09 09:16:42 Terrasse 5.00 3.28 65.90
41717 2021-04-09 08:48:29 Terrasse 4.20 2.81 81.60
41716 2021-04-09 08:20:19 Terrasse 3.30 2.29 99.90
41715 2021-04-09 07:52:09 Terrasse 2.70 1.63 99.90
41714 2021-04-09 07:24:02 Terrasse 2.40 1.30 99.90
41713 2021-04-09 06:55:56 Terrasse 2.20 1.08 99.90
41712 2021-04-09 06:27:50 Terrasse 2.30 1.19 99.80
41711 2021-04-09 05:59:44 Terrasse 2.50 1.34 96.90
41710 2021-04-09 05:31:40 Terrasse 2.50 1.29 95.30
41709 2021-04-09 05:03:35 Terrasse 2.50 1.28 94.90
41708 2021-04-09 04:35:32 Terrasse 2.80 1.59 94.00
41707 2021-04-09 04:07:26 Terrasse 2.90 1.60 90.20
41706 2021-04-09 03:39:22 Terrasse 3.00 1.68 88.90
41705 2021-04-09 03:11:28 Terrasse 3.30 1.81 81.50
41704 2021-04-09 02:43:19 Terrasse 3.40 1.81 77.00
41703 2021-04-09 02:15:13 Terrasse 3.60 2.01 76.20
41702 2021-04-09 01:47:08 Terrasse 3.70 1.98 71.00
41701 2021-04-09 01:19:03 Terrasse 3.80 1.95 65.80
41700 2021-04-09 00:50:59 Terrasse 4.00 2.08 62.40
41699 2021-04-09 00:22:55 Terrasse 4.20 2.26 60.50
41698 2021-04-08 23:54:50 Terrasse 4.20 2.25 60.40
41697 2021-04-08 23:26:46 Terrasse 4.30 2.34 59.50
41696 2021-04-08 22:27:30 Terrasse 4.80 2.83 57.30
41695 2021-04-08 21:59:25 Terrasse 5.10 3.13 56.20
41694 2021-04-08 21:31:22 Terrasse 5.50 3.53 54.70
41693 2021-04-08 21:03:18 Terrasse 6.10 4.14 52.80
41692 2021-04-08 20:35:16 Terrasse 6.80 4.79 48.10
41691 2021-04-08 20:07:12 Terrasse 7.50 5.53 46.90
41690 2021-04-08 19:39:09 Terrasse 7.90 5.90 44.40
41689 2021-04-08 19:11:04 Terrasse 8.40 6.44 43.90
41688 2021-04-08 18:42:59 Terrasse 9.00 7.07 42.70
41687 2021-04-08 18:14:56 Terrasse 9.50 7.62 42.50
41686 2021-04-08 17:46:51 Terrasse 9.80 7.98 43.70
41685 2021-04-08 17:18:48 Terrasse 10.40 8.58 41.60
41684 2021-04-08 16:50:41 Terrasse 10.40 8.62 42.90
41683 2021-04-08 16:22:31 Terrasse 10.10 8.27 42.40
41682 2021-04-08 15:54:24 Terrasse 9.90 8.08 43.50
41681 2021-04-08 15:26:10 Terrasse 9.40 7.58 45.30
41680 2021-04-08 14:58:08 Terrasse 9.70 7.92 45.60
41679 2021-04-08 14:30:02 Terrasse 11.50 9.85 43.90
41678 2021-04-08 14:02:01 Terrasse 11.50 9.81 42.40
41677 2021-04-08 13:33:53 Terrasse 9.70 7.89 44.70
41676 2021-04-08 13:05:48 Terrasse 7.40 5.55 51.80
41675 2021-04-08 12:37:27 Terrasse 7.00 5.08 50.60
41674 2021-04-08 12:09:14 Terrasse 6.10 4.27 57.80
41673 2021-04-08 11:41:08 Terrasse 6.20 4.47 60.90
41672 2021-04-08 11:13:00 Terrasse 5.90 4.14 61.10
41671 2021-04-08 10:44:54 Terrasse 6.00 4.49 70.30
41670 2021-04-08 10:16:40 Terrasse 4.80 3.52 83.50
41669 2021-04-08 09:48:27 Terrasse 3.40 2.40 99.90
41668 2021-04-08 09:20:17 Terrasse 2.60 1.52 99.90
41667 2021-04-08 08:52:10 Terrasse 2.00 0.86 99.90
41666 2021-04-08 08:24:03 Terrasse 1.70 0.53 99.90
41665 2021-04-08 07:55:57 Terrasse 1.70 0.53 99.90
41664 2021-04-08 07:27:51 Terrasse 1.60 0.42 99.90
41663 2021-04-08 06:59:46 Terrasse 1.60 0.42 99.90
41662 2021-04-08 06:31:40 Terrasse 1.60 0.42 99.90
41661 2021-04-08 06:03:38 Terrasse 1.50 0.31 99.90
41660 2021-04-08 05:35:32 Terrasse 1.40 0.20 99.90
41659 2021-04-08 05:07:26 Terrasse 1.30 0.09 99.90
41658 2021-04-08 04:39:22 Terrasse 1.40 0.20 99.90
41657 2021-04-08 04:11:18 Terrasse 1.60 0.42 99.90
41656 2021-04-08 03:43:13 Terrasse 1.70 0.46 97.10
41655 2021-04-08 03:15:08 Terrasse 1.80 0.47 93.30
41654 2021-04-08 02:47:04 Terrasse 1.90 0.56 92.30
41653 2021-04-08 02:18:58 Terrasse 1.90 0.36 84.80
41652 2021-04-08 01:50:54 Terrasse 2.00 0.35 80.20
41651 2021-04-08 01:22:49 Terrasse 2.10 0.47 80.70
41650 2021-04-08 00:54:45 Terrasse 2.10 0.39 77.50
41649 2021-04-08 00:26:40 Terrasse 2.10 0.37 76.90
41648 2021-04-07 23:58:34 Terrasse 2.10 0.29 73.60
41647 2021-04-07 23:30:30 Terrasse 2.10 0.26 72.40
41646 2021-04-07 23:02:27 Terrasse 2.20 0.50 77.50
41645 2021-04-07 22:34:22 Terrasse 2.40 1.30 99.90
41644 2021-04-07 22:06:18 Terrasse 2.50 1.41 99.90
41643 2021-04-07 21:38:14 Terrasse 2.60 1.52 99.90
41642 2021-04-07 21:10:09 Terrasse 2.80 1.74 99.90
41641 2021-04-07 20:42:04 Terrasse 2.80 1.74 99.90
41640 2021-04-07 20:14:00 Terrasse 2.90 1.85 99.90
41639 2021-04-07 19:45:55 Terrasse 3.00 1.96 99.90
41638 2021-04-07 19:17:50 Terrasse 3.00 1.96 99.90
41637 2021-04-07 18:49:45 Terrasse 3.00 1.96 99.90
41636 2021-04-07 18:21:40 Terrasse 3.10 2.07 99.90
41635 2021-04-07 17:53:36 Terrasse 3.10 2.07 99.90
41634 2021-04-07 17:25:31 Terrasse 3.00 1.96 99.90
41633 2021-04-07 16:57:23 Terrasse 2.80 1.74 99.90
41632 2021-04-07 16:29:15 Terrasse 2.60 1.52 99.90
41631 2021-04-07 16:01:10 Terrasse 2.60 1.52 99.90
41630 2021-04-07 15:33:04 Terrasse 2.80 1.74 99.90
41629 2021-04-07 15:04:58 Terrasse 2.80 1.74 99.90
41628 2021-04-07 14:36:52 Terrasse 2.70 1.63 99.90
41627 2021-04-07 14:08:47 Terrasse 2.60 1.52 99.90
41626 2021-04-07 13:40:41 Terrasse 2.40 1.30 99.90
41625 2021-04-07 13:12:35 Terrasse 2.30 1.19 99.90
41624 2021-04-07 12:44:31 Terrasse 2.40 1.30 99.90
41623 2021-04-07 12:16:27 Terrasse 2.60 1.52 99.90
41622 2021-04-07 11:48:21 Terrasse 2.40 1.30 99.90
41621 2021-04-07 11:20:18 Terrasse 2.40 1.30 99.90
41620 2021-04-07 10:52:10 Terrasse 2.00 0.86 99.90
41619 2021-04-07 10:24:09 Terrasse 1.90 0.75 99.90
41618 2021-04-07 09:56:00 Terrasse 1.40 0.20 99.90
41617 2021-04-07 09:27:56 Terrasse 1.20 -0.02 99.90
41616 2021-04-07 08:59:52 Terrasse 1.20 -0.02 99.90
41615 2021-04-07 08:31:46 Terrasse 1.10 -0.13 99.90
41614 2021-04-07 08:03:41 Terrasse 1.00 -0.24 99.90
41613 2021-04-07 07:35:35 Terrasse 0.80 -0.46 99.90
41612 2021-04-07 07:07:30 Terrasse 0.80 -0.46 99.90
41611 2021-04-07 06:39:27 Terrasse 0.80 -0.46 99.90
41610 2021-04-07 06:11:23 Terrasse 0.90 -0.35 99.90
41609 2021-04-07 05:43:18 Terrasse 0.90 -0.35 99.90
41608 2021-04-07 05:15:16 Terrasse 1.10 -0.13 99.90
41607 2021-04-07 04:47:12 Terrasse 1.20 -0.02 99.90
41606 2021-04-07 04:19:09 Terrasse 1.30 0.09 99.90
41605 2021-04-07 03:51:05 Terrasse 1.60 0.42 99.90
41604 2021-04-07 03:23:00 Terrasse 1.50 0.31 99.90
41603 2021-04-07 02:54:56 Terrasse 1.50 0.31 99.90
41602 2021-04-07 02:26:51 Terrasse 1.30 0.09 99.90
41601 2021-04-07 01:58:45 Terrasse 1.50 0.31 99.90
41600 2021-04-07 01:30:41 Terrasse 1.50 0.31 99.90
41599 2021-04-07 01:02:38 Terrasse 1.70 0.53 99.90
41598 2021-04-07 00:34:34 Terrasse 1.80 0.64 99.90
41597 2021-04-07 00:06:30 Terrasse 1.80 0.64 99.90
41596 2021-04-06 23:38:26 Terrasse 1.80 0.64 99.90
41595 2021-04-06 23:10:22 Terrasse 2.00 0.86 99.90
41594 2021-04-06 22:42:19 Terrasse 2.10 0.97 99.90
41593 2021-04-06 22:14:17 Terrasse 2.30 0.86 87.10
41592 2021-04-06 21:46:14 Terrasse 2.50 0.96 82.60
41591 2021-04-06 21:18:10 Terrasse 2.80 1.37 85.60
41590 2021-04-06 20:50:07 Terrasse 3.10 1.87 92.10
41589 2021-04-06 20:22:04 Terrasse 3.40 2.15 90.00
41588 2021-04-06 19:54:03 Terrasse 3.90 2.53 83.60
41587 2021-04-06 19:26:01 Terrasse 4.50 2.51 57.70
41586 2021-04-06 18:58:00 Terrasse 5.20 3.29 58.10
41585 2021-04-06 18:29:56 Terrasse 5.50 3.51 53.60
41584 2021-04-06 18:01:52 Terrasse 5.90 4.11 60.10
41583 2021-04-06 17:33:49 Terrasse 6.20 4.45 60.40
41582 2021-04-06 17:05:53 Terrasse 7.40 5.38 45.50
41581 2021-04-06 16:37:46 Terrasse 7.30 5.39 49.80
41580 2021-04-06 16:09:44 Terrasse 7.30 5.38 49.50
41579 2021-04-06 15:41:43 Terrasse 7.70 5.70 45.10
41578 2021-04-06 15:13:39 Terrasse 8.90 7.01 44.60
41577 2021-04-06 14:45:49 Terrasse 10.50 8.66 40.20
41576 2021-04-06 14:17:44 Terrasse 10.60 8.95 47.40
41575 2021-04-06 13:49:30 Terrasse 9.20 7.51 51.10
41574 2021-04-06 13:21:24 Terrasse 9.80 8.22 53.20
41573 2021-04-06 12:52:59 Terrasse 7.90 6.23 56.70
41572 2021-04-06 12:24:46 Terrasse 7.30 5.56 56.40
41571 2021-04-06 11:56:41 Terrasse 6.60 4.97 63.40
41570 2021-04-06 11:28:27 Terrasse 5.30 3.86 75.70
41569 2021-04-06 11:00:18 Terrasse 4.90 3.48 78.10
41568 2021-04-06 10:32:06 Terrasse 3.80 2.39 82.50
41567 2021-04-06 10:03:55 Terrasse 2.90 1.85 99.90
41566 2021-04-06 09:35:47 Terrasse 2.30 1.19 99.90
41565 2021-04-06 09:07:40 Terrasse 1.90 0.75 99.90
41564 2021-04-06 08:39:33 Terrasse 1.60 0.42 99.90
41563 2021-04-06 08:11:28 Terrasse 1.20 -0.02 99.90
41562 2021-04-06 07:43:22 Terrasse 0.90 -0.35 99.90
41561 2021-04-06 07:15:18 Terrasse 0.90 -0.35 99.90
41560 2021-04-06 06:47:14 Terrasse 0.80 -0.46 99.90
41559 2021-04-06 06:19:09 Terrasse 0.70 -0.57 99.90
41558 2021-04-06 05:51:04 Terrasse 0.80 -0.46 99.90
41557 2021-04-06 05:23:00 Terrasse 0.70 -0.57 99.90
41556 2021-04-06 04:54:55 Terrasse 0.60 -0.68 99.90
41555 2021-04-06 04:26:50 Terrasse 0.60 -0.68 99.90
41554 2021-04-06 03:58:46 Terrasse 0.60 -0.68 99.90
41553 2021-04-06 03:30:42 Terrasse 0.50 -0.79 99.90
41552 2021-04-06 03:02:39 Terrasse 0.50 -0.79 99.90
41551 2021-04-06 02:34:35 Terrasse 0.60 -0.93 90.30
41550 2021-04-06 01:36:33 Terrasse 0.70 -0.71 94.30
41549 2021-04-06 01:08:26 Terrasse 0.80 -0.58 95.30
41548 2021-04-06 00:40:24 Terrasse 1.00 -0.25 99.40
41547 2021-04-06 00:12:20 Terrasse 1.10 -0.14 99.50
41546 2021-04-05 23:44:17 Terrasse 1.30 0.09 99.90
41545 2021-04-05 23:16:21 Terrasse 1.50 0.31 99.90
41544 2021-04-05 22:48:19 Terrasse 1.70 0.53 99.90
41543 2021-04-05 22:20:21 Terrasse 1.80 -0.08 72.20
41542 2021-04-05 21:52:36 Terrasse 2.00 0.12 71.30
41541 2021-04-05 21:24:20 Terrasse 2.20 0.23 67.20
41540 2021-04-05 20:56:18 Terrasse 2.30 0.39 69.10
41539 2021-04-05 20:28:15 Terrasse 2.60 0.67 67.20
41538 2021-04-05 20:00:14 Terrasse 2.90 0.87 62.10
41537 2021-04-05 19:32:13 Terrasse 3.30 1.27 60.80
41536 2021-04-05 19:04:12 Terrasse 4.00 2.01 59.50
41535 2021-04-05 18:36:12 Terrasse 4.40 2.42 58.30
41534 2021-04-05 18:08:09 Terrasse 4.70 2.99 67.50
41533 2021-04-05 17:40:07 Terrasse 4.90 3.32 71.80
41532 2021-04-05 17:12:01 Terrasse 4.50 2.98 75.70
41531 2021-04-05 16:44:04 Terrasse 6.00 4.51 71.00
41530 2021-04-05 16:15:58 Terrasse 6.00 4.94 87.50
41529 2021-04-05 15:47:52 Terrasse 5.50 4.71 99.90
41528 2021-04-05 15:19:49 Terrasse 5.70 4.93 99.90
41527 2021-04-05 14:51:44 Terrasse 5.70 4.93 99.90
41526 2021-04-05 14:23:41 Terrasse 6.00 5.26 99.90
41525 2021-04-05 13:55:38 Terrasse 6.30 5.59 99.90
41524 2021-04-05 13:27:35 Terrasse 6.60 5.92 99.90
41523 2021-04-05 12:59:31 Terrasse 6.70 6.03 99.90
41522 2021-04-05 12:31:29 Terrasse 6.90 6.25 99.90
41521 2021-04-05 12:03:24 Terrasse 7.10 6.47 99.90
41520 2021-04-05 11:35:22 Terrasse 6.90 6.25 99.90
41519 2021-04-05 11:07:18 Terrasse 7.10 6.47 99.90
41518 2021-04-05 10:39:12 Terrasse 7.10 6.47 99.90
41517 2021-04-05 09:40:50 Terrasse 6.30 5.59 99.90
41516 2021-04-05 09:12:46 Terrasse 6.10 5.37 99.90
41515 2021-04-05 08:44:42 Terrasse 6.20 5.44 98.20
41514 2021-04-05 08:16:49 Terrasse 5.90 5.10 98.00
41513 2021-04-05 07:48:40 Terrasse 5.70 4.91 99.00
41512 2021-04-05 07:20:42 Terrasse 5.70 4.86 97.10
41511 2021-04-05 06:52:36 Terrasse 5.80 4.95 96.40
41510 2021-04-05 06:24:32 Terrasse 5.80 4.94 95.90
41509 2021-04-05 05:56:29 Terrasse 5.90 5.06 96.30
41508 2021-04-05 05:28:27 Terrasse 5.80 4.91 94.60
41507 2021-04-05 05:00:22 Terrasse 5.60 4.69 94.70
41506 2021-04-05 04:32:18 Terrasse 5.60 4.68 94.40
41505 2021-04-05 04:04:19 Terrasse 5.60 4.63 92.30
41504 2021-04-05 03:36:16 Terrasse 5.90 4.90 90.00
41503 2021-04-05 03:08:13 Terrasse 6.20 5.03 82.60
41502 2021-04-05 02:40:11 Terrasse 6.30 5.07 80.00
41501 2021-04-05 02:12:06 Terrasse 6.20 4.97 80.10
41500 2021-04-05 01:44:07 Terrasse 6.10 4.76 76.40
41499 2021-04-05 01:16:05 Terrasse 6.10 4.58 69.40
41498 2021-04-05 00:48:02 Terrasse 6.40 4.74 62.80
41497 2021-04-05 00:20:02 Terrasse 6.60 4.88 60.00
41496 2021-04-04 23:52:01 Terrasse 7.10 5.40 58.60
41495 2021-04-04 23:23:58 Terrasse 7.40 5.70 57.50
41494 2021-04-04 22:55:55 Terrasse 7.60 5.89 56.60
41493 2021-04-04 22:27:52 Terrasse 7.80 6.08 55.30
41492 2021-04-04 21:59:50 Terrasse 8.20 6.50 54.50
41491 2021-04-04 21:31:49 Terrasse 8.50 6.80 53.50
41490 2021-04-04 21:03:46 Terrasse 9.00 7.31 51.90
41489 2021-04-04 20:05:29 Terrasse 10.20 8.55 49.00
41488 2021-04-04 19:37:29 Terrasse 10.90 9.28 47.30
41487 2021-04-04 19:09:31 Terrasse 11.80 10.23 45.80
41486 2021-04-04 18:41:32 Terrasse 12.50 10.95 44.00
41485 2021-04-04 18:13:32 Terrasse 13.30 11.81 43.00
41484 2021-04-04 17:45:34 Terrasse 14.50 13.09 41.60
41483 2021-04-04 17:17:33 Terrasse 14.90 13.51 40.80
41482 2021-04-04 16:49:31 Terrasse 15.40 14.04 39.90
41481 2021-04-04 16:21:30 Terrasse 16.10 14.79 39.30
41480 2021-04-04 15:53:27 Terrasse 16.10 14.79 39.30
41479 2021-04-04 15:25:27 Terrasse 16.60 15.34 39.40
41478 2021-04-04 14:57:33 Terrasse 17.50 16.33 39.10
41477 2021-04-04 14:29:22 Terrasse 17.10 15.91 40.10
41476 2021-04-04 14:01:09 Terrasse 16.00 14.74 41.70
41475 2021-04-04 13:33:16 Terrasse 17.50 16.38 41.30
41474 2021-04-04 13:04:59 Terrasse 17.40 16.29 42.00
41473 2021-04-04 12:36:56 Terrasse 15.80 14.63 45.70
41472 2021-04-04 12:08:49 Terrasse 13.30 11.94 48.00
41471 2021-04-04 11:40:30 Terrasse 12.30 10.93 51.60
41470 2021-04-04 11:12:53 Terrasse 11.30 9.85 52.40
41469 2021-04-04 10:44:26 Terrasse 9.90 8.40 55.80
41468 2021-04-04 10:16:16 Terrasse 8.50 6.94 58.70
41467 2021-04-04 09:48:08 Terrasse 8.20 6.69 61.70
41466 2021-04-04 09:20:01 Terrasse 7.50 6.10 68.60
41465 2021-04-04 08:51:53 Terrasse 6.80 5.49 74.70
41464 2021-04-04 08:23:47 Terrasse 5.80 4.43 76.50
41463 2021-04-04 07:55:44 Terrasse 5.50 4.20 80.10
41462 2021-04-04 07:27:41 Terrasse 5.30 3.96 79.50
41461 2021-04-04 06:59:39 Terrasse 5.20 3.74 75.30
41460 2021-04-04 06:31:38 Terrasse 5.30 3.88 76.50
41459 2021-04-04 06:03:37 Terrasse 5.70 4.14 69.60
41458 2021-04-04 05:35:34 Terrasse 5.80 4.10 63.70
41457 2021-04-04 05:07:33 Terrasse 6.20 4.43 59.70
41456 2021-04-04 04:39:32 Terrasse 6.30 4.50 57.90
41455 2021-04-04 04:11:30 Terrasse 6.40 4.58 56.80
41454 2021-04-04 03:43:29 Terrasse 6.80 4.97 54.80
41453 2021-04-04 03:15:26 Terrasse 6.70 4.82 53.30
41452 2021-04-04 02:47:24 Terrasse 6.80 4.91 52.80
41451 2021-04-04 02:19:22 Terrasse 7.00 5.12 52.40
41450 2021-04-04 01:51:18 Terrasse 7.00 5.13 52.50
41449 2021-04-04 01:23:16 Terrasse 7.20 5.33 51.70
41448 2021-04-04 00:55:14 Terrasse 7.10 5.20 51.10
41447 2021-04-04 00:27:12 Terrasse 7.20 5.27 49.60
41446 2021-04-03 23:59:11 Terrasse 7.20 5.26 49.20
41445 2021-04-03 23:31:12 Terrasse 7.80 5.88 47.50
41444 2021-04-03 23:03:12 Terrasse 8.10 6.17 46.20
41443 2021-04-03 22:35:12 Terrasse 8.50 6.60 45.60
41442 2021-04-03 22:07:13 Terrasse 9.10 7.21 44.00
41441 2021-04-03 21:39:12 Terrasse 9.60 7.73 42.50
41440 2021-04-03 21:11:12 Terrasse 9.90 8.05 42.20
41439 2021-04-03 20:43:12 Terrasse 10.40 8.54 40.10
41438 2021-04-03 20:15:13 Terrasse 10.90 9.06 39.00
41437 2021-04-03 19:47:16 Terrasse 11.70 9.93 38.30
41436 2021-04-03 19:19:17 Terrasse 12.60 10.86 36.10
41435 2021-04-03 18:51:19 Terrasse 13.50 11.85 36.10
41434 2021-04-03 18:23:19 Terrasse 14.00 12.39 35.80
41433 2021-04-03 17:55:19 Terrasse 14.20 12.63 36.50
41432 2021-04-03 17:27:24 Terrasse 15.50 14.05 36.00
41431 2021-04-03 16:59:24 Terrasse 16.20 14.80 35.60
41430 2021-04-03 16:31:29 Terrasse 16.00 14.59 35.70
41429 2021-04-03 16:03:26 Terrasse 16.00 14.56 34.80
41428 2021-04-03 15:35:25 Terrasse 16.70 15.35 35.30
41427 2021-04-03 15:07:37 Terrasse 18.10 16.84 33.40
41426 2021-04-03 14:39:40 Terrasse 20.60 19.57 32.80
41425 2021-04-03 14:11:08 Terrasse 15.50 13.99 34.00
41424 2021-04-03 13:43:39 Terrasse 18.90 17.71 33.00
41423 2021-04-03 13:15:23 Terrasse 19.60 18.52 34.60
41422 2021-04-03 12:47:44 Terrasse 19.40 18.31 34.90
41421 2021-04-03 12:19:32 Terrasse 15.80 14.44 38.60
41420 2021-04-03 11:51:14 Terrasse 14.50 13.09 41.50
41419 2021-04-03 11:23:01 Terrasse 12.50 10.93 43.10
41418 2021-04-03 10:54:50 Terrasse 11.00 9.40 47.60
41417 2021-04-03 10:26:41 Terrasse 9.50 7.82 50.20
41416 2021-04-03 09:58:34 Terrasse 8.50 6.79 53.10
41415 2021-04-03 09:30:28 Terrasse 7.80 6.03 53.40
41414 2021-04-03 09:02:24 Terrasse 7.10 5.32 55.60
41413 2021-04-03 08:34:20 Terrasse 6.50 4.70 57.20
41412 2021-04-03 08:06:18 Terrasse 6.00 4.21 59.50
41411 2021-04-03 07:38:18 Terrasse 6.00 4.30 63.00
41410 2021-04-03 07:10:19 Terrasse 6.20 4.52 63.00
41409 2021-04-03 06:42:18 Terrasse 6.20 4.66 68.40
41408 2021-04-03 06:14:18 Terrasse 6.30 4.69 65.20
41407 2021-04-03 05:46:19 Terrasse 6.40 4.76 63.80
41406 2021-04-03 05:18:19 Terrasse 6.60 4.90 60.50
41405 2021-04-03 04:50:21 Terrasse 7.10 5.37 57.70
41404 2021-04-03 04:22:23 Terrasse 7.40 5.68 57.00
41403 2021-04-03 03:54:24 Terrasse 7.50 5.77 55.90
41402 2021-04-03 03:26:24 Terrasse 7.60 5.83 54.10
41401 2021-04-03 02:58:27 Terrasse 7.70 5.90 52.80
41400 2021-04-03 02:30:28 Terrasse 7.90 6.09 51.50
41399 2021-04-03 02:02:30 Terrasse 8.00 6.17 50.30
41398 2021-04-03 01:34:30 Terrasse 8.20 6.37 49.70
41397 2021-04-03 01:06:30 Terrasse 8.40 6.58 49.30
41396 2021-04-03 00:38:31 Terrasse 8.50 6.69 49.20
41395 2021-04-03 00:10:31 Terrasse 8.70 6.90 48.90
41394 2021-04-02 23:42:34 Terrasse 8.90 7.12 49.00
41393 2021-04-02 23:14:36 Terrasse 9.10 7.37 49.90
41392 2021-04-02 22:46:39 Terrasse 9.30 7.56 48.70
41391 2021-04-02 22:18:40 Terrasse 9.30 7.56 48.70
41390 2021-04-02 21:50:46 Terrasse 9.90 8.20 48.10
41389 2021-04-02 21:22:59 Terrasse 10.80 9.16 46.90
41388 2021-04-02 20:55:14 Terrasse 12.50 10.97 44.50
41387 2021-04-02 20:27:27 Terrasse 19.80 19.14 49.80
41386 2021-04-02 00:13:03 Terrasse 14.50 13.27 48.60
41385 2021-04-01 23:44:40 Terrasse 15.30 14.21 50.90
41384 2021-04-01 23:16:30 Terrasse 16.00 14.98 50.90
41383 2021-04-01 22:16:48 Terrasse 17.40 16.46 48.60
41382 2021-04-01 21:48:39 Terrasse 18.10 17.19 46.90
41381 2021-04-01 21:20:28 Terrasse 18.90 18.07 46.90
41380 2021-04-01 20:52:11 Terrasse 19.60 18.84 47.00
41379 2021-04-01 20:23:55 Terrasse 20.30 19.55 44.50
41378 2021-04-01 19:55:39 Terrasse 21.10 20.38 42.60
41377 2021-04-01 19:27:25 Terrasse 22.00 21.31 40.30
41376 2021-04-01 18:59:10 Terrasse 22.80 22.15 38.80
41375 2021-04-01 18:30:56 Terrasse 23.70 23.10 37.20
41374 2021-04-01 18:02:47 Terrasse 24.90 24.39 36.20
41373 2021-04-01 17:34:17 Terrasse 26.00 25.54 33.70
41372 2021-04-01 17:06:15 Terrasse 26.60 26.34 34.10
41371 2021-04-01 16:37:52 Terrasse 27.40 26.79 32.70
41370 2021-04-01 16:09:33 Terrasse 28.10 27.24 31.40
41369 2021-04-01 15:41:13 Terrasse 28.50 27.47 30.00
41368 2021-04-01 15:12:57 Terrasse 28.90 27.92 32.20
41367 2021-04-01 14:44:46 Terrasse 30.30 29.11 30.90
41366 2021-04-01 14:16:28 Terrasse 30.70 29.53 31.10
41365 2021-04-01 13:48:13 Terrasse 30.20 28.98 30.50
41364 2021-04-01 13:19:58 Terrasse 32.10 31.11 31.50
41363 2021-04-01 12:51:03 Terrasse 29.40 28.37 32.40
41362 2021-04-01 12:22:15 Terrasse 23.90 23.33 37.90
41361 2021-04-01 11:53:36 Terrasse 21.70 21.14 46.40
41360 2021-04-01 11:25:20 Terrasse 19.70 18.95 46.90
41359 2021-04-01 10:56:47 Terrasse 17.80 17.00 52.30
41358 2021-04-01 10:28:15 Terrasse 16.20 15.39 57.90
41357 2021-04-01 09:59:52 Terrasse 15.60 14.72 57.80
41356 2021-04-01 09:31:33 Terrasse 15.50 14.59 57.00
41355 2021-04-01 09:03:07 Terrasse 14.70 13.75 58.30
41354 2021-04-01 08:34:42 Terrasse 13.80 12.79 59.60
41353 2021-04-01 08:06:21 Terrasse 13.60 12.52 57.70
41352 2021-04-01 07:38:05 Terrasse 13.90 12.79 55.40
41351 2021-04-01 07:09:45 Terrasse 13.90 12.74 53.50
41350 2021-04-01 06:41:24 Terrasse 13.90 12.71 52.40
41349 2021-04-01 06:13:03 Terrasse 13.80 12.59 51.70
41348 2021-04-01 05:44:43 Terrasse 13.80 12.57 51.30
41347 2021-04-01 05:16:24 Terrasse 13.80 12.60 52.20
41346 2021-04-01 04:48:06 Terrasse 14.10 12.90 51.20
41345 2021-04-01 04:19:47 Terrasse 14.30 13.10 50.40
41344 2021-04-01 03:51:28 Terrasse 14.50 13.33 50.60
41343 2021-04-01 03:23:09 Terrasse 14.70 13.52 49.60
41342 2021-04-01 02:54:51 Terrasse 15.00 13.86 49.80
41341 2021-04-01 02:26:33 Terrasse 15.30 14.19 49.80
41340 2021-04-01 01:58:14 Terrasse 15.60 14.51 49.40
41339 2021-04-01 01:29:55 Terrasse 15.90 14.83 49.10
41338 2021-04-01 01:01:36 Terrasse 16.20 15.19 50.40
41337 2021-04-01 00:33:18 Terrasse 16.40 15.40 49.80
41336 2021-04-01 00:05:00 Terrasse 16.70 15.72 49.40
41335 2021-03-31 23:36:43 Terrasse 17.00 16.03 48.70
41334 2021-03-31 23:08:26 Terrasse 17.40 16.47 48.90
41333 2021-03-31 22:40:10 Terrasse 17.70 16.79 48.50
41332 2021-03-31 22:11:52 Terrasse 18.20 17.32 47.60
41331 2021-03-31 21:43:36 Terrasse 18.50 17.64 47.30
41330 2021-03-31 21:15:20 Terrasse 19.10 18.27 46.20
41329 2021-03-31 20:47:03 Terrasse 19.80 19.05 46.40
41328 2021-03-31 20:18:47 Terrasse 20.50 19.85 47.80
41327 2021-03-31 19:50:35 Terrasse 21.70 21.11 45.50
41326 2021-03-31 19:22:19 Terrasse 22.70 22.06 39.50
41325 2021-03-31 18:54:04 Terrasse 23.60 22.95 35.80
41324 2021-03-31 18:25:48 Terrasse 24.40 23.78 33.90
41323 2021-03-31 17:57:38 Terrasse 25.30 24.77 33.80
41322 2021-03-31 17:29:25 Terrasse 26.30 25.85 33.10
41321 2021-03-31 17:01:14 Terrasse 26.50 26.07 33.00
41320 2021-03-31 16:32:59 Terrasse 26.90 26.46 32.60
41319 2021-03-31 16:04:39 Terrasse 28.30 27.38 31.20
41318 2021-03-31 15:36:16 Terrasse 27.90 27.09 31.40
41317 2021-03-31 15:07:59 Terrasse 28.30 27.32 30.00
41316 2021-03-31 14:39:49 Terrasse 29.50 28.31 30.10
41315 2021-03-31 14:11:34 Terrasse 29.90 28.81 32.00
41314 2021-03-31 13:43:29 Terrasse 29.70 28.66 32.50
41313 2021-03-31 13:15:06 Terrasse 30.60 29.50 31.90
41312 2021-03-31 12:45:59 Terrasse 26.50 26.36 36.20
41311 2021-03-31 12:17:13 Terrasse 21.70 20.96 39.80
41310 2021-03-31 11:48:35 Terrasse 20.10 19.23 40.80
41309 2021-03-31 11:20:05 Terrasse 18.50 17.50 41.80
41308 2021-03-31 10:51:37 Terrasse 17.10 15.95 41.40
41307 2021-03-31 10:23:09 Terrasse 15.80 14.71 48.70
41306 2021-03-31 09:54:49 Terrasse 14.50 13.28 48.90
41305 2021-03-31 09:26:21 Terrasse 13.50 12.24 51.10
41304 2021-03-31 08:57:53 Terrasse 12.40 11.12 54.50
41303 2021-03-31 08:29:29 Terrasse 11.70 10.32 53.30
41302 2021-03-31 08:01:06 Terrasse 11.30 9.85 52.40
41301 2021-03-31 07:32:46 Terrasse 11.20 9.71 51.10
41300 2021-03-31 07:04:27 Terrasse 11.30 9.79 50.00
41299 2021-03-31 06:36:07 Terrasse 11.60 10.12 49.80
41298 2021-03-31 06:07:49 Terrasse 11.70 10.22 49.60
41297 2021-03-31 05:39:33 Terrasse 12.00 10.54 49.10
41296 2021-03-31 05:11:15 Terrasse 12.40 10.96 48.50
41295 2021-03-31 04:42:57 Terrasse 12.70 11.26 47.20
41294 2021-03-31 04:14:39 Terrasse 13.00 11.59 47.10
41293 2021-03-31 03:46:19 Terrasse 13.20 11.77 45.70
41292 2021-03-31 03:18:01 Terrasse 13.40 11.99 45.80
41291 2021-03-31 02:49:42 Terrasse 13.70 12.28 44.20
41290 2021-03-31 02:21:24 Terrasse 13.80 12.38 43.90
41289 2021-03-31 01:53:07 Terrasse 14.10 12.70 43.30
41288 2021-03-31 01:24:50 Terrasse 14.50 13.10 41.90
41287 2021-03-31 00:56:32 Terrasse 14.70 13.30 41.10
41286 2021-03-31 00:28:13 Terrasse 15.00 13.58 39.40
41285 2021-03-30 23:59:55 Terrasse 15.20 13.80 39.20
41284 2021-03-30 23:31:37 Terrasse 15.50 14.13 39.40
41283 2021-03-30 23:03:20 Terrasse 15.70 14.30 37.50
41282 2021-03-30 22:35:03 Terrasse 16.10 14.70 35.70
41281 2021-03-30 22:06:46 Terrasse 16.50 15.13 35.30
41280 2021-03-30 21:38:29 Terrasse 17.10 15.77 34.60
41279 2021-03-30 21:10:16 Terrasse 17.80 16.61 37.30
41278 2021-03-30 20:41:59 Terrasse 18.50 17.39 37.60
41277 2021-03-30 20:13:46 Terrasse 19.50 18.54 39.60
41276 2021-03-30 19:45:33 Terrasse 20.60 19.70 37.70
41275 2021-03-30 19:17:20 Terrasse 21.70 20.84 35.20
41274 2021-03-30 18:49:05 Terrasse 22.60 21.79 33.40
41273 2021-03-30 18:20:51 Terrasse 23.60 22.78 29.30
41272 2021-03-30 17:52:37 Terrasse 24.80 24.06 27.60
41271 2021-03-30 17:24:19 Terrasse 25.80 25.21 29.70
41270 2021-03-30 16:55:59 Terrasse 25.90 25.40 32.80
41269 2021-03-30 16:27:40 Terrasse 26.60 26.20 30.60
41268 2021-03-30 15:59:22 Terrasse 27.40 26.66 29.50
41267 2021-03-30 15:31:02 Terrasse 27.30 26.68 31.60
41266 2021-03-30 15:02:49 Terrasse 28.20 27.23 29.80
41265 2021-03-30 14:34:34 Terrasse 28.70 27.68 30.90
41264 2021-03-30 14:06:18 Terrasse 29.00 27.78 28.30
41263 2021-03-30 13:38:35 Terrasse 29.60 28.49 31.50
41262 2021-03-30 13:10:11 Terrasse 30.50 29.54 33.50
41261 2021-03-30 12:40:59 Terrasse 25.20 24.69 35.00
41260 2021-03-30 12:12:29 Terrasse 21.10 20.32 40.20
41259 2021-03-30 11:43:49 Terrasse 19.00 18.14 45.30
41258 2021-03-30 11:15:18 Terrasse 17.10 16.15 49.30
41257 2021-03-30 10:46:47 Terrasse 15.10 14.10 54.80
41256 2021-03-30 10:18:18 Terrasse 13.60 12.44 54.70
41255 2021-03-30 09:49:51 Terrasse 12.50 11.20 53.60
41254 2021-03-30 09:21:25 Terrasse 11.50 10.15 55.20
41253 2021-03-30 08:52:59 Terrasse 10.60 9.22 57.70
41252 2021-03-30 08:24:34 Terrasse 9.90 8.46 58.00
41251 2021-03-30 07:56:17 Terrasse 9.50 7.98 56.40
41250 2021-03-30 07:27:59 Terrasse 9.50 7.93 54.60
41249 2021-03-30 06:59:40 Terrasse 9.60 8.04 54.70
41248 2021-03-30 06:31:23 Terrasse 10.00 8.45 53.40
41247 2021-03-30 05:34:55 Terrasse 10.50 8.95 51.50
41246 2021-03-30 05:06:37 Terrasse 10.80 9.29 51.70
41245 2021-03-30 04:38:19 Terrasse 11.10 9.61 51.50
41244 2021-03-30 04:10:02 Terrasse 11.40 9.92 50.90
41243 2021-03-30 03:41:44 Terrasse 11.70 10.24 50.30
41242 2021-03-30 03:13:25 Terrasse 11.80 10.36 50.70
41241 2021-03-30 02:45:06 Terrasse 12.10 10.67 50.10
41240 2021-03-30 02:16:48 Terrasse 12.30 10.88 49.40
41239 2021-03-30 01:48:29 Terrasse 12.50 11.12 50.20
41238 2021-03-30 01:20:10 Terrasse 12.80 11.44 50.00
41237 2021-03-30 00:51:52 Terrasse 13.10 11.74 49.00
41236 2021-03-30 00:23:35 Terrasse 13.60 12.28 48.60
41235 2021-03-29 23:55:17 Terrasse 13.90 12.58 47.10
41234 2021-03-29 23:26:58 Terrasse 14.20 12.90 47.00
41233 2021-03-29 22:58:41 Terrasse 14.60 13.31 45.70
41232 2021-03-29 22:30:23 Terrasse 14.90 13.61 44.60
41231 2021-03-29 22:02:04 Terrasse 15.30 14.04 44.30
41230 2021-03-29 21:33:46 Terrasse 15.60 14.39 45.10
41229 2021-03-29 21:05:28 Terrasse 15.90 14.69 44.00
41228 2021-03-29 20:37:13 Terrasse 16.80 15.68 44.00
41227 2021-03-29 20:09:00 Terrasse 17.80 16.72 41.70
41226 2021-03-29 19:40:48 Terrasse 19.10 18.09 39.40
41225 2021-03-29 19:12:32 Terrasse 19.80 18.80 36.80
41224 2021-03-29 18:44:15 Terrasse 20.60 19.68 36.90
41223 2021-03-29 18:16:01 Terrasse 21.40 20.47 33.60
41222 2021-03-29 17:47:47 Terrasse 22.80 22.04 34.80
41221 2021-03-29 17:19:30 Terrasse 23.40 22.66 33.10
41220 2021-03-29 16:51:11 Terrasse 23.70 23.06 35.80
41219 2021-03-29 16:22:50 Terrasse 24.10 23.51 36.10
41218 2021-03-29 15:54:36 Terrasse 24.10 23.49 35.60
41217 2021-03-29 15:26:14 Terrasse 24.00 23.39 35.70
41216 2021-03-29 14:58:06 Terrasse 24.70 24.21 37.60
41215 2021-03-29 14:29:41 Terrasse 25.40 25.03 39.50
41214 2021-03-29 14:02:02 Terrasse 24.50 24.05 40.10
41213 2021-03-29 13:30:52 Terrasse 24.70 24.31 41.70
41212 2021-03-29 13:02:44 Terrasse 24.30 23.93 43.70
41211 2021-03-29 12:33:22 Terrasse 19.00 18.23 49.00
41210 2021-03-29 12:05:03 Terrasse 16.60 15.66 51.40
41209 2021-03-29 11:36:30 Terrasse 15.10 14.10 55.00
41208 2021-03-29 11:08:01 Terrasse 13.70 12.63 57.60
41207 2021-03-29 10:39:34 Terrasse 12.30 11.14 59.60
41206 2021-03-29 10:11:10 Terrasse 11.20 10.02 62.90
41205 2021-03-29 09:42:46 Terrasse 10.20 9.01 66.40
41204 2021-03-29 09:14:19 Terrasse 9.20 8.05 71.70
41203 2021-03-29 08:45:56 Terrasse 8.50 7.51 80.50
41202 2021-03-29 08:17:32 Terrasse 7.70 7.06 97.20
41201 2021-03-29 07:49:12 Terrasse 7.50 6.91 99.90
41200 2021-03-29 07:20:52 Terrasse 7.40 6.74 97.30
41199 2021-03-29 06:52:33 Terrasse 7.50 6.74 93.20
41198 2021-03-29 06:24:14 Terrasse 7.90 7.04 88.00
41197 2021-03-29 05:56:03 Terrasse 8.10 7.27 88.20
41196 2021-03-29 05:27:41 Terrasse 8.30 7.31 81.40
41195 2021-03-29 04:59:21 Terrasse 8.10 7.14 83.10
41194 2021-03-29 04:31:03 Terrasse 8.10 6.82 71.20
41193 2021-03-29 04:02:45 Terrasse 8.40 7.05 67.10
41192 2021-03-29 03:34:27 Terrasse 8.60 7.20 64.70
41191 2021-03-29 03:06:09 Terrasse 8.90 7.50 63.40
41190 2021-03-29 02:37:51 Terrasse 9.10 7.70 62.60
41189 2021-03-29 02:09:34 Terrasse 9.60 8.22 61.40
41188 2021-03-29 01:41:17 Terrasse 9.90 8.50 59.40
41187 2021-03-29 01:12:59 Terrasse 10.20 8.77 57.40
41186 2021-03-29 00:44:40 Terrasse 10.40 8.93 54.80
41185 2021-03-29 00:16:20 Terrasse 10.50 9.03 54.50
41184 2021-03-28 23:48:01 Terrasse 10.60 9.14 54.40
41183 2021-03-28 23:19:42 Terrasse 10.70 9.29 56.20
41182 2021-03-28 22:51:22 Terrasse 10.80 9.38 55.20
41181 2021-03-28 22:23:03 Terrasse 11.00 9.63 56.40
41180 2021-03-28 21:54:45 Terrasse 11.40 10.10 57.50
41179 2021-03-28 21:26:29 Terrasse 11.80 10.50 56.20
41178 2021-03-28 20:58:12 Terrasse 12.60 11.29 52.70
41177 2021-03-28 20:29:54 Terrasse 13.00 11.69 51.10
41176 2021-03-28 20:01:36 Terrasse 13.40 12.11 50.20
41175 2021-03-28 19:33:19 Terrasse 13.80 12.50 48.60
41174 2021-03-28 19:05:01 Terrasse 14.30 13.06 48.70
41173 2021-03-28 18:36:44 Terrasse 14.80 13.57 47.20
41172 2021-03-28 18:08:27 Terrasse 15.40 14.21 46.60
41171 2021-03-28 17:40:14 Terrasse 16.60 15.49 44.90
41170 2021-03-28 17:11:57 Terrasse 17.40 16.37 45.10
41169 2021-03-28 16:43:38 Terrasse 17.60 16.57 44.20
41168 2021-03-28 16:15:20 Terrasse 17.80 16.77 43.40
41167 2021-03-28 15:47:00 Terrasse 18.40 17.44 44.00
41166 2021-03-28 15:18:43 Terrasse 18.60 17.68 44.50
41165 2021-03-28 14:50:32 Terrasse 18.10 17.16 45.80
41164 2021-03-28 14:21:59 Terrasse 17.20 16.25 48.90
41163 2021-03-28 13:53:19 Terrasse 14.00 12.88 54.50
41162 2021-03-28 13:24:54 Terrasse 12.70 11.45 54.50
41161 2021-03-28 12:56:38 Terrasse 13.10 11.87 53.80
41160 2021-03-28 12:28:32 Terrasse 15.00 13.94 53.10
41159 2021-03-28 12:00:07 Terrasse 13.30 12.34 63.40
41158 2021-03-28 11:31:38 Terrasse 12.10 11.21 70.80
41157 2021-03-28 11:03:10 Terrasse 10.90 10.27 85.30
41156 2021-03-28 10:34:50 Terrasse 9.60 9.19 98.60
41155 2021-03-28 10:06:20 Terrasse 8.30 7.79 99.90
41154 2021-03-28 09:37:55 Terrasse 7.10 6.47 99.90
41153 2021-03-28 09:09:28 Terrasse 6.10 5.37 99.90
41152 2021-03-28 08:41:04 Terrasse 5.50 4.71 99.90
41151 2021-03-28 08:12:43 Terrasse 5.10 4.27 99.90
41150 2021-03-28 07:44:23 Terrasse 4.70 3.83 99.90
41149 2021-03-28 07:16:04 Terrasse 4.50 3.61 99.90
41148 2021-03-28 06:47:46 Terrasse 4.60 3.72 99.90
41147 2021-03-28 06:19:28 Terrasse 4.70 3.83 99.90
41146 2021-03-28 05:51:10 Terrasse 4.80 3.94 99.90
41145 2021-03-28 05:22:51 Terrasse 4.80 3.94 99.90
41144 2021-03-28 04:54:32 Terrasse 5.00 4.16 99.90
41143 2021-03-28 04:26:13 Terrasse 4.90 4.05 99.90
41142 2021-03-28 03:57:52 Terrasse 4.80 3.94 99.90
41141 2021-03-28 03:29:34 Terrasse 4.60 3.72 99.90
41140 2021-03-28 03:01:16 Terrasse 4.80 3.94 99.90
41139 2021-03-28 01:32:58 Terrasse 5.00 4.16 99.90
41138 2021-03-28 01:04:39 Terrasse 4.90 4.05 99.90
41137 2021-03-28 00:36:21 Terrasse 4.90 4.05 99.90
41136 2021-03-28 00:08:03 Terrasse 5.00 4.16 99.90
41135 2021-03-27 23:39:45 Terrasse 5.20 4.38 99.90
41134 2021-03-27 23:11:27 Terrasse 5.40 4.60 99.90
41133 2021-03-27 22:43:10 Terrasse 5.50 4.71 99.90
41132 2021-03-27 22:14:51 Terrasse 5.70 4.93 99.90
41131 2021-03-27 21:46:34 Terrasse 5.90 5.15 99.90
41130 2021-03-27 21:18:17 Terrasse 6.30 5.59 99.80
41129 2021-03-27 20:49:59 Terrasse 6.60 5.75 93.40
41128 2021-03-27 20:21:40 Terrasse 6.80 5.59 78.50
41127 2021-03-27 19:53:24 Terrasse 7.10 5.69 69.80
41126 2021-03-27 19:25:06 Terrasse 7.40 5.92 65.90
41125 2021-03-27 18:56:50 Terrasse 7.90 6.37 62.10
41124 2021-03-27 18:28:34 Terrasse 8.40 6.87 60.40
41123 2021-03-27 18:00:17 Terrasse 8.90 7.40 59.60
41122 2021-03-27 17:31:59 Terrasse 9.30 7.80 58.00
41121 2021-03-27 17:03:45 Terrasse 10.00 8.46 53.60
41120 2021-03-27 16:35:28 Terrasse 10.80 9.36 54.40
41119 2021-03-27 16:07:10 Terrasse 10.70 9.32 57.20
41118 2021-03-27 15:38:47 Terrasse 9.90 8.65 65.10
41117 2021-03-27 15:10:21 Terrasse 8.50 7.75 89.90
41116 2021-03-27 14:42:03 Terrasse 8.70 8.13 96.00
41115 2021-03-27 14:13:52 Terrasse 9.50 8.00 57.30
41114 2021-03-27 13:45:35 Terrasse 10.00 8.44 53.10
41113 2021-03-27 13:17:12 Terrasse 10.40 8.86 52.10
41112 2021-03-27 12:48:54 Terrasse 10.00 8.36 49.80
41111 2021-03-27 12:20:38 Terrasse 10.40 8.90 53.80
41110 2021-03-27 11:52:19 Terrasse 10.80 9.48 59.10
41109 2021-03-27 11:23:57 Terrasse 10.90 9.57 58.30
41108 2021-03-27 10:55:48 Terrasse 10.60 9.17 55.80
41107 2021-03-27 10:27:20 Terrasse 9.90 8.46 57.90
41106 2021-03-27 09:58:56 Terrasse 8.80 7.19 55.70
41105 2021-03-27 09:30:33 Terrasse 8.50 6.93 58.40
41104 2021-03-27 09:02:11 Terrasse 8.40 6.98 64.60
41103 2021-03-27 08:33:49 Terrasse 7.90 6.47 65.90
41102 2021-03-27 08:05:28 Terrasse 7.50 6.13 70.00
41101 2021-03-27 07:37:06 Terrasse 7.10 6.11 86.10
41100 2021-03-27 07:08:47 Terrasse 6.80 5.95 92.60
41099 2021-03-27 06:40:30 Terrasse 7.30 6.32 85.60
41098 2021-03-27 06:12:12 Terrasse 7.40 6.50 88.30
41097 2021-03-27 05:43:55 Terrasse 7.60 6.78 90.60
41096 2021-03-27 05:15:40 Terrasse 7.90 7.13 91.30
41095 2021-03-27 04:47:23 Terrasse 8.40 7.80 96.00
41094 2021-03-27 04:19:09 Terrasse 9.20 8.78 99.90
41093 2021-03-27 03:50:53 Terrasse 9.70 9.33 99.90
41092 2021-03-27 03:22:36 Terrasse 9.80 9.44 99.90
41091 2021-03-27 02:54:20 Terrasse 9.90 9.55 99.90
41090 2021-03-27 02:26:00 Terrasse 9.80 9.41 98.70
41089 2021-03-27 01:57:43 Terrasse 9.80 9.44 99.90
41088 2021-03-27 01:29:28 Terrasse 9.70 9.32 99.20
41087 2021-03-27 01:01:08 Terrasse 9.90 9.34 91.80
41086 2021-03-27 00:32:50 Terrasse 10.00 9.27 85.00
41085 2021-03-27 00:04:35 Terrasse 10.60 9.61 72.40
41084 2021-03-26 23:36:18 Terrasse 11.00 9.90 66.80
41083 2021-03-26 23:08:01 Terrasse 11.40 10.30 65.20
41082 2021-03-26 22:40:12 Terrasse 11.70 10.56 62.50
41081 2021-03-26 22:11:40 Terrasse 11.80 10.65 61.80
41080 2021-03-26 21:43:29 Terrasse 12.00 10.86 61.60
41079 2021-03-26 21:15:10 Terrasse 12.50 11.37 60.00
41078 2021-03-26 20:18:46 Terrasse 13.50 12.39 56.90
41077 2021-03-26 19:50:28 Terrasse 13.90 12.77 54.60
41076 2021-03-26 19:22:12 Terrasse 14.30 13.18 53.30
41075 2021-03-26 18:53:57 Terrasse 14.80 13.70 52.10
41074 2021-03-26 18:25:41 Terrasse 15.20 14.10 50.90
41073 2021-03-26 17:57:30 Terrasse 15.70 14.63 50.00
41072 2021-03-26 17:29:17 Terrasse 16.50 15.49 49.20
41071 2021-03-26 17:01:06 Terrasse 17.80 16.88 47.70
41070 2021-03-26 16:32:48 Terrasse 18.50 17.62 46.40
41069 2021-03-26 16:04:28 Terrasse 18.80 17.95 46.60
41068 2021-03-26 15:36:13 Terrasse 19.30 18.47 45.20
41067 2021-03-26 15:07:53 Terrasse 18.70 17.86 47.30
41066 2021-03-26 14:39:41 Terrasse 18.60 17.75 47.30
41065 2021-03-26 14:11:19 Terrasse 18.40 17.57 48.80
41064 2021-03-26 13:43:03 Terrasse 18.80 17.99 48.10
41063 2021-03-26 13:14:35 Terrasse 17.80 16.98 51.40
41062 2021-03-26 12:46:09 Terrasse 18.60 17.86 51.40
41061 2021-03-26 12:17:48 Terrasse 17.30 16.43 51.60
41060 2021-03-26 11:49:40 Terrasse 18.30 17.56 52.60
41059 2021-03-26 11:21:18 Terrasse 17.50 16.68 52.70
41058 2021-03-26 10:52:36 Terrasse 17.80 17.12 56.90
41057 2021-03-26 10:24:16 Terrasse 18.40 17.84 59.20
41056 2021-03-26 09:55:24 Terrasse 13.90 13.36 77.20
41055 2021-03-26 09:26:54 Terrasse 12.80 12.43 87.80
41054 2021-03-26 08:58:20 Terrasse 11.50 11.31 99.90
41053 2021-03-26 08:29:53 Terrasse 9.90 9.55 99.90
41052 2021-03-26 08:01:30 Terrasse 9.20 8.78 99.90
41051 2021-03-26 07:33:08 Terrasse 8.90 8.45 99.90
41050 2021-03-26 07:04:47 Terrasse 8.50 8.01 99.90
41049 2021-03-26 06:36:28 Terrasse 8.40 7.90 99.90
41048 2021-03-26 06:08:10 Terrasse 8.80 8.34 99.90
41047 2021-03-26 05:39:51 Terrasse 9.00 8.56 99.90
41046 2021-03-26 05:11:31 Terrasse 9.30 8.89 99.90
41045 2021-03-26 04:43:12 Terrasse 9.40 9.00 99.90
41044 2021-03-26 04:14:54 Terrasse 9.70 9.33 99.90
41043 2021-03-26 03:46:43 Terrasse 9.80 9.44 99.90
41042 2021-03-26 03:18:20 Terrasse 9.90 9.55 99.90
41041 2021-03-26 02:50:00 Terrasse 9.70 9.33 99.90
41040 2021-03-26 02:21:42 Terrasse 9.80 9.44 99.90
41039 2021-03-26 01:53:25 Terrasse 9.90 9.55 99.90
41038 2021-03-26 01:25:06 Terrasse 10.00 9.66 99.90
41037 2021-03-26 00:56:47 Terrasse 10.00 9.66 99.90
41036 2021-03-26 00:28:28 Terrasse 9.90 9.55 99.90
41035 2021-03-26 00:00:10 Terrasse 9.90 9.55 99.90
41034 2021-03-25 23:31:52 Terrasse 10.10 9.59 92.90
41033 2021-03-25 23:03:34 Terrasse 10.50 9.73 81.40
41032 2021-03-25 22:35:17 Terrasse 10.70 9.65 69.90
41031 2021-03-25 22:07:01 Terrasse 11.20 10.06 64.40
41030 2021-03-25 21:38:43 Terrasse 11.70 10.55 62.20
41029 2021-03-25 21:10:24 Terrasse 12.20 11.06 60.60
41028 2021-03-25 20:42:06 Terrasse 12.40 11.24 59.30
41027 2021-03-25 20:13:49 Terrasse 12.80 11.67 58.70
41026 2021-03-25 19:45:31 Terrasse 13.10 11.97 57.70
41025 2021-03-25 19:17:14 Terrasse 13.50 12.34 55.00
41024 2021-03-25 18:48:59 Terrasse 14.20 13.12 55.50
41023 2021-03-25 18:20:41 Terrasse 14.80 13.75 54.30
41022 2021-03-25 17:52:25 Terrasse 15.30 14.27 53.20
41021 2021-03-25 17:24:05 Terrasse 15.60 14.58 52.10
41020 2021-03-25 16:55:48 Terrasse 15.90 14.90 51.70
41019 2021-03-25 16:27:30 Terrasse 16.40 15.42 50.90
41018 2021-03-25 15:59:15 Terrasse 17.10 16.16 49.50
41017 2021-03-25 15:31:02 Terrasse 18.80 17.99 48.20
41016 2021-03-25 15:02:53 Terrasse 20.30 19.61 46.90
41015 2021-03-25 14:34:34 Terrasse 20.30 19.61 47.00
41014 2021-03-25 14:06:20 Terrasse 21.30 20.67 45.30
41013 2021-03-25 13:37:52 Terrasse 19.80 19.08 47.60
41012 2021-03-25 13:09:31 Terrasse 18.20 17.40 50.60
41011 2021-03-25 12:41:01 Terrasse 16.90 16.01 52.40
41010 2021-03-25 12:12:35 Terrasse 15.50 14.51 53.70
41009 2021-03-25 11:44:24 Terrasse 16.70 15.79 52.20
41008 2021-03-25 10:47:35 Terrasse 15.60 14.66 55.30
41007 2021-03-25 09:47:00 Terrasse 12.60 11.58 63.90
41006 2021-03-25 09:18:21 Terrasse 11.30 10.36 71.80
41005 2021-03-25 08:49:49 Terrasse 9.10 8.41 89.90
41004 2021-03-25 08:21:29 Terrasse 8.50 7.88 94.90
41003 2021-03-25 07:53:05 Terrasse 7.40 6.80 99.90
41002 2021-03-25 07:24:49 Terrasse 7.00 6.36 99.90
41001 2021-03-25 06:56:31 Terrasse 6.70 6.03 99.90
41000 2021-03-25 06:29:09 Terrasse 6.50 5.81 99.90
40999 2021-03-25 06:00:17 Terrasse 6.70 6.03 99.90
40998 2021-03-25 04:58:49 Terrasse 7.00 6.36 99.90
40997 2021-03-25 03:57:16 Terrasse 7.20 6.58 99.90
40996 2021-03-25 02:25:53 Terrasse 7.80 7.13 95.50
40995 2021-03-24 22:21:06 Terrasse 9.50 8.15 63.10
40994 2021-03-24 21:53:05 Terrasse 9.80 8.46 62.40
40993 2021-03-24 20:22:11 Terrasse 10.90 9.57 58.50
40992 2021-03-24 19:54:10 Terrasse 11.30 9.99 57.50
40991 2021-03-24 19:25:46 Terrasse 12.10 10.83 56.20
40990 2021-03-24 18:58:00 Terrasse 12.90 11.66 54.30
40989 2021-03-24 18:29:31 Terrasse 13.90 12.66 50.20
40988 2021-03-24 18:01:16 Terrasse 14.80 13.62 49.10
40987 2021-03-24 17:33:02 Terrasse 15.60 14.46 47.50
40986 2021-03-24 17:04:51 Terrasse 16.70 15.63 46.10
40985 2021-03-24 16:36:37 Terrasse 18.20 17.23 44.20
40984 2021-03-24 16:08:20 Terrasse 18.60 17.66 44.00
40983 2021-03-24 15:40:13 Terrasse 19.80 18.94 42.30
40982 2021-03-24 15:11:50 Terrasse 20.70 19.91 41.50
40981 2021-03-24 14:43:32 Terrasse 21.10 20.35 41.60
40980 2021-03-24 14:15:14 Terrasse 21.80 21.17 43.30
40979 2021-03-24 13:46:57 Terrasse 22.50 21.90 41.80
40978 2021-03-24 13:18:18 Terrasse 18.30 17.43 47.70
40977 2021-03-24 12:50:03 Terrasse 17.60 16.71 49.40
40976 2021-03-24 12:21:41 Terrasse 17.30 16.37 49.20
40975 2021-03-24 11:53:34 Terrasse 18.20 17.38 49.80
40974 2021-03-24 11:25:08 Terrasse 18.50 17.75 51.50
40973 2021-03-24 10:56:11 Terrasse 14.50 13.58 60.30
40972 2021-03-24 10:27:33 Terrasse 10.50 9.60 76.20
40971 2021-03-24 09:59:08 Terrasse 9.70 8.92 84.20
40970 2021-03-24 09:30:44 Terrasse 8.80 8.24 95.90
40969 2021-03-24 09:02:12 Terrasse 7.20 6.58 99.90
40968 2021-03-24 08:33:45 Terrasse 6.10 5.37 99.90
40967 2021-03-24 08:05:18 Terrasse 4.80 3.94 99.90
40966 2021-03-24 07:36:56 Terrasse 4.00 3.06 99.90
40965 2021-03-24 07:08:36 Terrasse 3.50 2.51 99.90
40964 2021-03-24 06:40:19 Terrasse 3.30 2.29 99.90
40963 2021-03-24 06:12:02 Terrasse 3.40 2.40 99.90
40962 2021-03-24 05:12:42 Terrasse 3.50 2.51 99.90
40961 2021-03-24 04:44:24 Terrasse 3.60 2.62 99.90
40960 2021-03-24 04:16:05 Terrasse 3.70 2.73 99.90
40959 2021-03-24 03:47:48 Terrasse 3.80 2.84 99.90
40958 2021-03-24 03:19:29 Terrasse 3.90 2.95 99.90
40957 2021-03-24 02:51:12 Terrasse 4.00 3.06 99.90
40956 2021-03-24 02:22:56 Terrasse 4.10 3.17 99.90
40955 2021-03-24 01:23:15 Terrasse 4.50 3.61 99.90
40954 2021-03-24 00:54:57 Terrasse 4.60 3.72 99.90
40953 2021-03-23 22:54:19 Terrasse 4.90 4.05 99.90
40952 2021-03-23 22:26:17 Terrasse 5.10 4.27 99.90
40951 2021-03-23 21:57:54 Terrasse 5.50 4.71 99.90
40950 2021-03-23 21:29:37 Terrasse 5.60 4.82 99.90
40949 2021-03-23 21:01:22 Terrasse 5.90 5.15 99.90
40948 2021-03-23 20:33:06 Terrasse 6.10 5.37 99.90
40947 2021-03-23 20:04:50 Terrasse 6.60 5.81 95.50
40946 2021-03-23 19:36:35 Terrasse 7.20 6.25 87.10
40945 2021-03-23 19:08:20 Terrasse 7.80 6.57 74.20
40944 2021-03-23 18:40:04 Terrasse 8.60 7.32 69.20
40943 2021-03-23 18:11:48 Terrasse 9.20 7.86 64.70
40942 2021-03-23 17:43:32 Terrasse 9.80 8.46 62.40
40941 2021-03-23 17:15:15 Terrasse 10.20 8.84 60.00
40940 2021-03-23 16:47:00 Terrasse 10.50 9.17 59.90
40939 2021-03-23 16:18:46 Terrasse 11.50 10.21 57.80
40938 2021-03-23 15:50:26 Terrasse 11.20 9.97 61.20
40937 2021-03-23 15:22:07 Terrasse 11.00 9.73 60.30
40936 2021-03-23 14:53:49 Terrasse 10.90 9.62 60.20
40935 2021-03-23 14:25:32 Terrasse 11.00 9.71 59.60
40934 2021-03-23 13:57:26 Terrasse 13.00 11.85 57.30
40933 2021-03-23 13:28:45 Terrasse 10.10 9.01 70.70
40932 2021-03-23 13:00:18 Terrasse 8.70 7.72 80.40
40931 2021-03-23 12:31:58 Terrasse 8.30 7.40 84.90
40930 2021-03-23 12:03:37 Terrasse 7.70 6.77 86.00
40929 2021-03-23 11:35:16 Terrasse 7.50 6.43 81.40
40928 2021-03-23 11:06:56 Terrasse 7.70 6.63 80.50
40927 2021-03-23 10:38:38 Terrasse 7.60 6.55 81.90
40926 2021-03-23 10:10:17 Terrasse 7.10 6.47 99.90
40925 2021-03-23 09:41:54 Terrasse 6.40 5.70 99.90
40924 2021-03-23 09:13:36 Terrasse 6.00 5.26 99.90
40923 2021-03-23 08:45:21 Terrasse 5.90 5.15 99.90
40922 2021-03-23 07:48:17 Terrasse 5.60 4.82 99.90
40921 2021-03-23 07:19:59 Terrasse 5.50 4.71 99.90
40920 2021-03-23 06:51:40 Terrasse 5.40 4.60 99.90
40919 2021-03-23 06:23:21 Terrasse 5.40 4.60 99.90
40918 2021-03-23 05:55:04 Terrasse 5.50 4.71 99.90
40917 2021-03-23 05:26:46 Terrasse 5.50 4.71 99.90
40916 2021-03-23 04:58:28 Terrasse 5.50 4.71 99.90
40915 2021-03-23 04:30:11 Terrasse 5.60 4.82 99.90
40914 2021-03-23 04:01:54 Terrasse 5.70 4.93 99.90
40913 2021-03-23 03:33:35 Terrasse 5.60 4.82 99.90
40912 2021-03-23 03:05:18 Terrasse 5.70 4.93 99.90
40911 2021-03-23 02:37:00 Terrasse 5.70 4.93 99.90
40910 2021-03-23 02:08:42 Terrasse 5.70 4.93 99.90
40909 2021-03-23 01:40:23 Terrasse 5.80 5.04 99.90
40908 2021-03-23 01:12:06 Terrasse 5.80 5.04 99.90
40907 2021-03-23 00:43:48 Terrasse 5.80 5.04 99.90
40906 2021-03-23 00:15:29 Terrasse 5.80 5.04 99.90
40905 2021-03-22 23:47:10 Terrasse 5.90 5.15 99.90
40904 2021-03-22 23:18:51 Terrasse 5.90 5.15 99.90
40903 2021-03-22 22:50:33 Terrasse 6.00 5.26 99.90
40902 2021-03-22 22:22:14 Terrasse 6.00 5.26 99.90
40901 2021-03-22 21:53:57 Terrasse 6.10 5.37 99.90
40900 2021-03-22 21:25:38 Terrasse 6.20 5.48 99.90
40899 2021-03-22 20:57:19 Terrasse 6.20 5.48 99.90
40898 2021-03-22 20:29:04 Terrasse 6.30 5.59 99.90
40897 2021-03-22 19:29:58 Terrasse 6.40 5.70 99.90
40896 2021-03-22 19:01:42 Terrasse 6.50 5.81 99.90
40895 2021-03-22 18:33:26 Terrasse 6.60 5.92 99.90
40894 2021-03-22 18:05:07 Terrasse 6.90 6.25 99.90
40893 2021-03-22 17:36:52 Terrasse 7.20 6.58 99.90
40892 2021-03-22 17:08:35 Terrasse 7.60 7.02 99.90
40891 2021-03-22 16:40:23 Terrasse 8.90 8.45 99.90
40890 2021-03-22 16:11:55 Terrasse 7.70 7.13 99.90
40889 2021-03-22 15:12:09 Terrasse 7.70 7.13 99.90
40888 2021-03-22 14:12:36 Terrasse 7.70 7.13 99.90
40887 2021-03-22 13:44:23 Terrasse 8.40 7.90 99.90
40886 2021-03-22 13:15:57 Terrasse 7.00 6.36 99.90
40885 2021-03-22 12:47:37 Terrasse 6.90 6.25 99.90
40884 2021-03-22 12:19:24 Terrasse 7.60 6.95 97.10
40883 2021-03-22 11:51:06 Terrasse 7.40 6.67 94.90
40882 2021-03-22 11:22:46 Terrasse 7.10 6.47 99.90
40881 2021-03-22 10:54:25 Terrasse 6.60 5.92 99.90
40880 2021-03-22 10:26:05 Terrasse 6.20 5.48 99.90
40879 2021-03-22 09:57:46 Terrasse 5.90 5.15 99.90
40878 2021-03-22 09:29:26 Terrasse 5.50 4.71 99.90
40877 2021-03-22 09:01:04 Terrasse 5.20 4.38 99.90
40876 2021-03-22 08:32:45 Terrasse 4.80 3.94 99.90
40875 2021-03-22 08:04:26 Terrasse 4.70 3.83 99.90
40874 2021-03-22 07:36:06 Terrasse 4.50 3.61 99.90
40873 2021-03-22 07:07:48 Terrasse 4.30 3.39 99.90
40872 2021-03-22 06:39:32 Terrasse 5.30 4.49 99.90
40871 2021-03-22 06:11:14 Terrasse 4.50 3.61 99.90
40870 2021-03-22 05:42:56 Terrasse 4.50 3.61 99.90
40869 2021-03-22 05:14:39 Terrasse 4.60 3.72 99.90
40868 2021-03-22 04:46:21 Terrasse 4.60 3.66 97.30
40867 2021-03-22 04:18:05 Terrasse 4.70 3.51 87.30
40866 2021-03-22 03:49:48 Terrasse 4.80 3.54 84.30
40865 2021-03-22 03:21:29 Terrasse 4.90 3.61 82.90
40864 2021-03-22 02:53:12 Terrasse 4.90 3.60 82.70
40863 2021-03-22 02:24:54 Terrasse 5.00 3.88 89.00
40862 2021-03-22 01:56:35 Terrasse 5.10 3.94 87.10
40861 2021-03-22 01:28:16 Terrasse 5.10 3.86 84.20
40860 2021-03-22 00:59:59 Terrasse 5.20 3.99 84.70
40859 2021-03-22 00:31:40 Terrasse 5.10 3.76 80.30
40858 2021-03-22 00:03:22 Terrasse 5.10 3.55 72.20
40857 2021-03-21 23:35:03 Terrasse 5.20 3.53 67.30
40856 2021-03-21 23:06:49 Terrasse 5.50 3.81 65.20
40855 2021-03-21 22:38:40 Terrasse 5.80 4.10 63.60
40854 2021-03-21 22:10:21 Terrasse 5.80 4.07 62.70
40853 2021-03-21 21:42:04 Terrasse 6.10 4.37 61.60
40852 2021-03-21 21:13:53 Terrasse 6.30 4.56 60.20
40851 2021-03-21 20:45:37 Terrasse 6.50 4.75 59.10
40850 2021-03-21 19:46:40 Terrasse 7.10 5.40 58.80
40849 2021-03-21 19:18:23 Terrasse 7.50 5.82 58.10
40848 2021-03-21 18:50:08 Terrasse 8.00 6.33 56.60
40847 2021-03-21 18:21:53 Terrasse 8.80 7.17 55.00
40846 2021-03-21 17:53:37 Terrasse 9.10 7.49 54.40
40845 2021-03-21 17:25:27 Terrasse 10.10 8.53 52.40
40844 2021-03-21 16:57:14 Terrasse 11.20 9.69 50.50
40843 2021-03-21 16:28:54 Terrasse 12.40 11.08 52.90
40842 2021-03-21 16:00:37 Terrasse 11.70 10.34 54.10
40841 2021-03-21 15:32:30 Terrasse 13.00 11.68 50.60
40840 2021-03-21 15:04:10 Terrasse 15.10 13.92 48.00
40839 2021-03-21 14:35:50 Terrasse 15.50 14.42 50.50
40838 2021-03-21 14:07:34 Terrasse 14.70 13.61 53.00
40837 2021-03-21 13:38:58 Terrasse 12.30 11.29 65.30
40836 2021-03-21 13:10:37 Terrasse 10.70 9.81 76.10
40835 2021-03-21 12:42:06 Terrasse 9.20 8.78 99.90
40834 2021-03-21 12:13:44 Terrasse 8.40 7.90 99.90
40833 2021-03-21 11:45:21 Terrasse 7.70 7.13 99.90
40832 2021-03-21 11:17:02 Terrasse 7.30 6.69 99.90
40831 2021-03-21 10:48:38 Terrasse 6.40 5.70 99.90
40830 2021-03-21 10:20:21 Terrasse 6.30 5.59 99.90
40829 2021-03-21 09:51:57 Terrasse 5.60 4.82 99.90
40828 2021-03-21 09:23:39 Terrasse 5.40 4.60 99.90
40827 2021-03-21 08:55:22 Terrasse 5.50 4.71 99.90
40826 2021-03-21 08:27:00 Terrasse 4.90 4.05 99.90
40825 2021-03-21 07:58:40 Terrasse 4.60 3.72 99.90
40824 2021-03-21 07:30:22 Terrasse 4.40 3.50 99.90
40823 2021-03-21 07:02:04 Terrasse 4.40 3.50 99.90
40822 2021-03-21 06:33:46 Terrasse 4.40 3.50 99.90
40821 2021-03-21 06:05:28 Terrasse 4.70 3.83 99.90
40820 2021-03-21 05:37:10 Terrasse 4.80 3.34 76.60
40819 2021-03-21 05:08:55 Terrasse 5.00 3.11 59.40
40818 2021-03-21 04:40:37 Terrasse 5.10 3.08 54.20
40817 2021-03-21 04:12:20 Terrasse 5.20 3.13 51.80
40816 2021-03-21 03:44:02 Terrasse 5.20 3.08 49.90
40815 2021-03-21 03:15:44 Terrasse 5.30 3.15 48.40
40814 2021-03-21 02:47:26 Terrasse 5.30 3.14 48.20
40813 2021-03-21 02:19:09 Terrasse 5.20 3.03 48.00
40812 2021-03-21 01:50:53 Terrasse 5.20 3.02 47.80
40811 2021-03-21 01:22:35 Terrasse 5.30 3.08 45.80
40810 2021-03-21 00:54:20 Terrasse 5.40 3.18 45.20
40809 2021-03-21 00:26:02 Terrasse 5.50 3.26 44.40
40808 2021-03-20 23:57:46 Terrasse 5.60 3.36 43.90
40807 2021-03-20 23:29:28 Terrasse 5.70 3.47 43.80
40806 2021-03-20 23:01:12 Terrasse 5.70 3.54 46.40
40805 2021-03-20 22:32:53 Terrasse 5.80 3.65 46.70
40804 2021-03-20 22:04:37 Terrasse 5.90 3.66 42.50
40803 2021-03-20 21:36:21 Terrasse 5.90 3.74 45.80
40802 2021-03-20 21:08:04 Terrasse 6.00 3.87 46.50
40801 2021-03-20 20:39:46 Terrasse 6.20 4.08 46.00
40800 2021-03-20 20:11:31 Terrasse 6.50 4.39 45.50
40799 2021-03-20 19:43:14 Terrasse 6.70 4.46 39.70
40798 2021-03-20 19:14:59 Terrasse 7.00 4.80 40.00
40797 2021-03-20 18:46:45 Terrasse 7.70 5.54 39.00
40796 2021-03-20 18:18:31 Terrasse 8.20 6.09 39.00
40795 2021-03-20 17:50:17 Terrasse 8.70 6.61 37.70
40794 2021-03-20 17:22:04 Terrasse 9.60 7.59 37.40
40793 2021-03-20 16:53:56 Terrasse 11.50 9.62 35.10
40792 2021-03-20 15:54:42 Terrasse 13.00 11.21 32.70
40791 2021-03-20 15:26:28 Terrasse 14.40 12.79 34.40
40790 2021-03-20 14:58:09 Terrasse 13.90 12.21 33.30
40789 2021-03-20 14:29:48 Terrasse 14.20 12.52 32.20
40788 2021-03-20 14:01:26 Terrasse 11.70 9.79 33.30
40787 2021-03-20 13:33:11 Terrasse 13.00 11.19 32.00
40786 2021-03-20 13:05:08 Terrasse 15.00 13.41 32.80
40785 2021-03-20 12:36:47 Terrasse 16.60 15.10 30.10
40784 2021-03-20 12:08:03 Terrasse 14.10 12.50 35.80
40783 2021-03-20 11:39:32 Terrasse 11.30 9.52 39.60
40782 2021-03-20 11:10:59 Terrasse 8.40 6.35 40.50
40781 2021-03-20 10:42:37 Terrasse 6.90 4.83 45.30
40780 2021-03-20 10:14:12 Terrasse 5.50 3.42 50.50
40779 2021-03-20 09:45:50 Terrasse 4.60 2.49 52.70
40778 2021-03-20 09:17:28 Terrasse 4.20 2.12 55.20
40777 2021-03-20 08:49:07 Terrasse 3.70 1.61 56.80
40776 2021-03-20 08:20:40 Terrasse 2.50 0.46 63.30
40775 2021-03-20 07:52:22 Terrasse 1.90 -0.19 63.60
40774 2021-03-20 07:24:08 Terrasse 1.60 -0.40 68.20
40773 2021-03-20 06:55:49 Terrasse 1.40 -0.07 89.30
40772 2021-03-20 06:27:33 Terrasse 1.60 0.03 85.00
40771 2021-03-20 05:59:16 Terrasse 1.80 0.07 77.90
40770 2021-03-20 05:30:59 Terrasse 1.80 0.57 97.10
40769 2021-03-20 05:02:41 Terrasse 1.80 0.52 95.00
40768 2021-03-20 04:34:25 Terrasse 2.10 0.61 86.10
40767 2021-03-20 04:06:09 Terrasse 2.10 0.70 89.40
40766 2021-03-20 03:37:52 Terrasse 2.10 0.97 99.90
40765 2021-03-20 03:09:35 Terrasse 2.30 1.19 99.90
40764 2021-03-20 02:41:18 Terrasse 2.30 1.19 99.90
40763 2021-03-20 02:13:01 Terrasse 2.30 1.11 96.50
40762 2021-03-20 01:44:45 Terrasse 2.40 1.10 92.10
40761 2021-03-20 01:16:29 Terrasse 2.60 1.12 84.60
40760 2021-03-20 00:48:12 Terrasse 2.90 1.31 78.90
40759 2021-03-20 00:19:55 Terrasse 2.90 1.32 79.40
40758 2021-03-19 23:51:38 Terrasse 3.00 1.41 78.60
40757 2021-03-19 23:23:20 Terrasse 3.10 1.48 77.00
40756 2021-03-19 22:55:04 Terrasse 3.30 1.77 79.70
40755 2021-03-19 22:26:48 Terrasse 3.40 1.81 77.20
40754 2021-03-19 21:58:32 Terrasse 3.50 1.96 78.60
40753 2021-03-19 21:30:15 Terrasse 3.60 2.12 80.60
40752 2021-03-19 21:02:02 Terrasse 3.70 2.31 83.50
40751 2021-03-19 20:33:44 Terrasse 3.60 2.37 90.20
40750 2021-03-19 20:05:29 Terrasse 3.80 2.52 87.60
40749 2021-03-19 19:37:12 Terrasse 4.10 2.73 83.00
40748 2021-03-19 19:08:56 Terrasse 4.10 3.04 94.70
40747 2021-03-19 18:40:40 Terrasse 4.70 3.59 90.50
40746 2021-03-19 18:12:24 Terrasse 5.00 3.90 89.70
40745 2021-03-19 17:44:09 Terrasse 5.30 3.97 80.00
40744 2021-03-19 17:15:57 Terrasse 6.10 4.50 66.60
40743 2021-03-19 16:47:51 Terrasse 8.20 6.59 58.00
40742 2021-03-19 16:19:40 Terrasse 8.40 6.74 55.20
40741 2021-03-19 15:51:16 Terrasse 8.60 7.03 58.00
40740 2021-03-19 15:22:50 Terrasse 7.90 6.34 61.20
40739 2021-03-19 14:54:49 Terrasse 10.20 8.55 49.00
40738 2021-03-19 14:26:41 Terrasse 10.90 9.41 52.20
40737 2021-03-19 13:58:42 Terrasse 15.10 13.88 46.40
40736 2021-03-19 13:29:53 Terrasse 10.50 9.04 55.00
40735 2021-03-19 13:01:15 Terrasse 7.70 6.21 64.70
40734 2021-03-19 12:33:11 Terrasse 8.60 7.05 58.60
40733 2021-03-19 12:04:35 Terrasse 10.90 9.60 59.40
40732 2021-03-19 11:35:51 Terrasse 6.60 5.74 92.90
40731 2021-03-19 11:07:43 Terrasse 7.10 5.89 77.50
40730 2021-03-19 10:39:17 Terrasse 6.70 5.78 90.00
40729 2021-03-19 10:10:52 Terrasse 5.00 4.16 99.90
40728 2021-03-19 09:42:28 Terrasse 4.40 3.50 99.90
40727 2021-03-19 09:14:05 Terrasse 4.10 3.17 99.90
40726 2021-03-19 08:45:44 Terrasse 3.50 2.51 99.90
40725 2021-03-19 08:17:21 Terrasse 2.70 1.63 99.90
40724 2021-03-19 07:49:05 Terrasse 2.60 1.52 99.90
40723 2021-03-19 07:20:46 Terrasse 2.50 1.41 99.90
40722 2021-03-19 06:52:29 Terrasse 2.40 1.30 99.90
40721 2021-03-19 06:24:12 Terrasse 2.60 1.52 99.90
40720 2021-03-19 05:55:56 Terrasse 2.80 1.74 99.90
40719 2021-03-19 05:27:41 Terrasse 2.80 1.74 99.90
40718 2021-03-19 04:59:26 Terrasse 3.00 1.96 99.90
40717 2021-03-19 04:31:10 Terrasse 3.10 2.07 99.90
40716 2021-03-19 04:02:54 Terrasse 3.10 2.07 99.90
40715 2021-03-19 03:34:39 Terrasse 3.40 2.40 99.90
40714 2021-03-19 03:06:21 Terrasse 3.40 2.40 99.90
40713 2021-03-19 02:38:04 Terrasse 3.30 2.29 99.90
40712 2021-03-19 02:09:46 Terrasse 3.40 2.40 99.90
40711 2021-03-19 01:41:28 Terrasse 3.40 2.40 99.90
40710 2021-03-19 01:13:11 Terrasse 3.40 2.40 99.90
40709 2021-03-19 00:44:54 Terrasse 3.50 2.51 99.90
40708 2021-03-19 00:16:39 Terrasse 3.60 2.62 99.90
40707 2021-03-18 23:48:23 Terrasse 3.90 2.95 99.90
40706 2021-03-18 23:20:05 Terrasse 4.30 3.39 99.90
40705 2021-03-18 22:51:49 Terrasse 4.60 3.72 99.90
40704 2021-03-18 22:23:32 Terrasse 4.70 3.83 99.90
40703 2021-03-18 21:55:17 Terrasse 4.70 3.83 99.90
40702 2021-03-18 21:27:03 Terrasse 5.10 4.27 99.90
40701 2021-03-18 20:58:46 Terrasse 5.30 4.39 95.90
40700 2021-03-18 20:30:28 Terrasse 5.40 4.37 90.80
40699 2021-03-18 20:02:10 Terrasse 5.60 4.45 85.50
40698 2021-03-18 19:33:55 Terrasse 5.80 4.63 84.10
40697 2021-03-18 19:05:38 Terrasse 5.90 4.38 70.40
40696 2021-03-18 18:37:20 Terrasse 6.10 4.48 65.70
40695 2021-03-18 18:09:09 Terrasse 6.80 5.03 57.40
40694 2021-03-18 17:40:54 Terrasse 7.50 5.79 56.80
40693 2021-03-18 17:12:43 Terrasse 8.80 7.03 49.70
40692 2021-03-18 16:44:38 Terrasse 11.10 9.50 47.10
40691 2021-03-18 16:16:12 Terrasse 9.90 8.25 49.80
40690 2021-03-18 15:47:55 Terrasse 8.90 7.18 51.30
40689 2021-03-18 15:19:42 Terrasse 9.30 7.78 57.40
40688 2021-03-18 14:51:24 Terrasse 10.10 8.61 55.20
40687 2021-03-18 14:23:05 Terrasse 9.50 7.96 55.70
40686 2021-03-18 13:55:19 Terrasse 14.10 12.82 48.10
40685 2021-03-18 13:26:44 Terrasse 13.10 11.85 52.90
40684 2021-03-18 12:58:16 Terrasse 8.60 7.09 60.40
40683 2021-03-18 12:30:13 Terrasse 10.50 9.10 57.30
40682 2021-03-18 12:01:36 Terrasse 8.00 6.57 65.70
40681 2021-03-18 11:33:17 Terrasse 9.10 7.83 67.50
40680 2021-03-18 11:04:51 Terrasse 6.50 5.32 80.90
40679 2021-03-18 10:36:37 Terrasse 6.90 5.64 76.50
40678 2021-03-18 10:08:16 Terrasse 6.90 5.56 73.30
40677 2021-03-18 09:39:47 Terrasse 5.00 3.51 74.70
40676 2021-03-18 09:11:22 Terrasse 3.70 2.20 79.50
40675 2021-03-18 08:43:03 Terrasse 3.50 2.09 83.50
40674 2021-03-18 08:14:42 Terrasse 3.10 2.03 98.30
40673 2021-03-18 07:46:22 Terrasse 2.60 1.52 99.90
40672 2021-03-18 07:18:03 Terrasse 2.20 1.08 99.90
40671 2021-03-18 06:49:44 Terrasse 1.90 0.75 99.90
40670 2021-03-18 06:21:26 Terrasse 1.70 0.53 99.90
40669 2021-03-18 05:53:08 Terrasse 1.60 0.42 99.90
40668 2021-03-18 05:24:51 Terrasse 1.30 0.09 99.90
40667 2021-03-18 04:56:34 Terrasse 1.10 -0.13 99.90
40666 2021-03-18 04:28:17 Terrasse 1.20 -0.02 99.90
40665 2021-03-18 04:00:01 Terrasse 1.10 -0.13 99.90
40664 2021-03-18 03:31:45 Terrasse 1.30 0.09 99.90
40663 2021-03-18 03:03:30 Terrasse 1.50 0.31 99.90
40662 2021-03-18 02:35:13 Terrasse 1.50 0.31 99.90
40661 2021-03-18 02:06:57 Terrasse 1.60 0.42 99.90
40660 2021-03-18 01:38:42 Terrasse 1.80 0.64 99.90
40659 2021-03-18 01:10:26 Terrasse 2.10 0.97 99.80
40658 2021-03-18 00:42:10 Terrasse 2.20 0.99 96.40
40657 2021-03-18 00:13:55 Terrasse 2.50 1.19 91.30
40656 2021-03-17 23:45:37 Terrasse 2.80 1.30 82.80
40655 2021-03-17 23:17:22 Terrasse 2.80 1.16 77.70
40654 2021-03-17 22:49:05 Terrasse 2.70 1.30 87.20
40653 2021-03-17 22:20:49 Terrasse 2.30 1.19 99.90
40652 2021-03-17 21:52:34 Terrasse 2.60 1.52 99.90
40651 2021-03-17 21:24:19 Terrasse 3.10 1.58 81.00
40650 2021-03-17 20:56:03 Terrasse 3.70 2.08 74.70
40649 2021-03-17 20:27:48 Terrasse 3.80 2.23 76.30
40648 2021-03-17 19:59:35 Terrasse 4.10 2.57 76.60
40647 2021-03-17 19:31:21 Terrasse 4.60 3.00 72.10
40646 2021-03-17 19:03:05 Terrasse 5.00 3.53 75.50
40645 2021-03-17 18:34:49 Terrasse 5.30 3.98 80.10
40644 2021-03-17 18:06:34 Terrasse 5.60 4.27 78.60
40643 2021-03-17 17:38:17 Terrasse 5.80 4.53 80.40
40642 2021-03-17 17:10:03 Terrasse 6.30 5.36 91.10
40641 2021-03-17 16:13:39 Terrasse 7.00 6.22 94.40
40640 2021-03-17 15:45:21 Terrasse 6.70 5.80 91.10
40639 2021-03-17 15:17:06 Terrasse 7.10 6.19 89.00
40638 2021-03-17 14:48:48 Terrasse 6.70 6.03 99.90
40637 2021-03-17 14:20:32 Terrasse 7.50 6.78 94.80
40636 2021-03-17 13:52:25 Terrasse 8.70 7.62 76.20
40635 2021-03-17 13:24:05 Terrasse 8.40 7.73 93.10
40634 2021-03-17 12:55:49 Terrasse 7.80 7.24 99.90
40633 2021-03-17 12:27:08 Terrasse 4.90 4.05 99.90
40632 2021-03-17 11:58:53 Terrasse 5.50 4.71 99.90
40631 2021-03-17 11:30:38 Terrasse 6.30 5.59 99.90
40630 2021-03-17 11:02:25 Terrasse 7.10 6.47 99.90
40629 2021-03-17 10:34:06 Terrasse 6.80 6.14 99.90
40628 2021-03-17 10:05:40 Terrasse 5.50 4.71 99.90
40627 2021-03-17 09:37:20 Terrasse 5.50 4.71 99.90
40626 2021-03-17 09:09:02 Terrasse 5.20 4.38 99.90
40625 2021-03-17 08:40:43 Terrasse 5.00 4.16 99.90
40624 2021-03-17 08:12:24 Terrasse 4.70 3.83 99.90
40623 2021-03-17 07:44:07 Terrasse 4.40 3.50 99.90
40622 2021-03-17 07:15:48 Terrasse 4.20 3.28 99.90
40621 2021-03-17 06:47:30 Terrasse 3.90 2.95 99.90
40620 2021-03-17 05:48:34 Terrasse 4.10 3.17 99.90
40619 2021-03-17 05:20:19 Terrasse 4.40 3.50 99.90
40618 2021-03-17 04:52:01 Terrasse 4.70 3.83 99.90
40617 2021-03-17 04:23:44 Terrasse 4.80 3.94 99.90
40616 2021-03-17 03:55:27 Terrasse 4.80 3.94 99.90
40615 2021-03-17 03:27:09 Terrasse 4.90 4.05 99.90
40614 2021-03-17 02:58:52 Terrasse 5.00 4.16 99.90
40613 2021-03-17 02:30:35 Terrasse 5.10 4.27 99.90
40612 2021-03-17 02:02:18 Terrasse 5.30 4.49 99.90
40611 2021-03-17 01:34:02 Terrasse 5.30 4.49 99.90
40610 2021-03-17 01:05:42 Terrasse 5.30 4.49 99.90
40609 2021-03-17 00:37:23 Terrasse 5.30 4.49 99.90
40608 2021-03-17 00:09:04 Terrasse 5.20 4.38 99.90
40607 2021-03-16 23:40:46 Terrasse 5.20 4.38 99.90
40606 2021-03-16 23:12:30 Terrasse 5.20 4.38 99.90
40605 2021-03-16 22:44:16 Terrasse 5.20 4.38 99.90
40604 2021-03-16 22:15:59 Terrasse 5.30 4.49 99.90
40603 2021-03-16 21:47:41 Terrasse 5.40 4.60 99.90
40602 2021-03-16 21:19:22 Terrasse 5.40 4.60 99.90
40601 2021-03-16 20:51:07 Terrasse 5.50 4.71 99.90
40600 2021-03-16 20:22:49 Terrasse 5.60 4.82 99.90
40599 2021-03-16 19:54:37 Terrasse 5.70 4.93 99.90
40598 2021-03-16 19:26:19 Terrasse 5.90 5.15 99.90
40597 2021-03-16 18:58:04 Terrasse 6.10 5.37 99.90
40596 2021-03-16 18:29:53 Terrasse 6.70 6.03 99.90
40595 2021-03-16 18:01:37 Terrasse 7.10 6.47 99.90
40594 2021-03-16 17:33:24 Terrasse 7.90 6.77 77.60
40593 2021-03-16 17:05:16 Terrasse 8.70 7.45 69.80
40592 2021-03-16 16:36:59 Terrasse 9.40 8.08 64.40
40591 2021-03-16 16:08:42 Terrasse 9.70 8.32 61.20
40590 2021-03-16 15:40:24 Terrasse 9.30 7.86 60.30
40589 2021-03-16 15:12:21 Terrasse 10.00 8.54 56.90
40588 2021-03-16 14:44:10 Terrasse 11.50 10.14 55.10
40587 2021-03-16 14:15:37 Terrasse 9.90 8.56 61.70
40586 2021-03-16 13:47:33 Terrasse 11.00 9.52 52.20
40585 2021-03-16 12:48:52 Terrasse 13.60 12.49 56.30
40584 2021-03-16 11:49:29 Terrasse 10.60 9.46 66.80
40583 2021-03-16 11:21:06 Terrasse 9.30 8.35 79.10
40582 2021-03-16 10:52:43 Terrasse 8.50 7.37 75.10
40581 2021-03-16 10:24:24 Terrasse 8.10 7.26 87.70
40580 2021-03-16 09:56:08 Terrasse 6.80 6.14 99.90
40579 2021-03-16 09:27:38 Terrasse 5.70 4.93 99.90
40578 2021-03-16 08:59:17 Terrasse 5.40 4.60 99.90
40577 2021-03-16 08:30:57 Terrasse 4.80 3.94 99.90
40576 2021-03-16 08:02:38 Terrasse 4.20 3.28 99.90
40575 2021-03-16 07:34:20 Terrasse 4.10 3.17 99.90
40574 2021-03-16 07:06:02 Terrasse 4.10 3.17 99.90
40573 2021-03-16 06:37:45 Terrasse 3.90 2.95 99.90
40572 2021-03-16 06:09:27 Terrasse 3.80 2.84 99.90
40571 2021-03-16 05:41:09 Terrasse 3.80 2.84 99.90
40570 2021-03-16 05:12:53 Terrasse 3.90 2.95 99.90
40569 2021-03-16 04:13:57 Terrasse 4.10 3.17 99.90
40568 2021-03-16 03:15:04 Terrasse 4.30 3.39 99.90
40567 2021-03-16 02:46:46 Terrasse 4.40 3.50 99.90
40566 2021-03-16 02:18:30 Terrasse 4.40 3.50 99.90
40565 2021-03-16 01:50:15 Terrasse 4.50 3.61 99.90
40564 2021-03-16 01:21:59 Terrasse 4.50 3.61 99.90
40563 2021-03-16 00:53:41 Terrasse 4.40 3.50 99.90
40562 2021-03-16 00:25:25 Terrasse 4.60 3.72 99.90
40561 2021-03-15 23:57:09 Terrasse 4.70 3.83 99.90
40560 2021-03-15 23:28:51 Terrasse 4.70 3.83 99.90
40559 2021-03-15 23:00:34 Terrasse 4.80 3.94 99.90
40558 2021-03-15 22:32:18 Terrasse 5.00 4.16 99.90
40557 2021-03-15 22:04:02 Terrasse 5.30 4.49 99.90
40556 2021-03-15 21:05:01 Terrasse 5.40 4.60 99.90
40555 2021-03-15 20:36:44 Terrasse 5.50 4.71 99.90
40554 2021-03-15 20:08:28 Terrasse 6.00 5.26 99.90
40553 2021-03-15 19:40:12 Terrasse 6.00 5.26 99.90
40552 2021-03-15 19:11:57 Terrasse 6.30 5.59 99.90
40551 2021-03-15 18:43:43 Terrasse 6.70 6.03 99.90
40550 2021-03-15 18:15:29 Terrasse 7.30 6.69 99.90
40549 2021-03-15 17:47:20 Terrasse 8.80 7.92 83.50
40548 2021-03-15 17:19:05 Terrasse 9.20 7.95 67.90
40547 2021-03-15 16:50:57 Terrasse 10.60 9.32 61.50
40546 2021-03-15 16:22:48 Terrasse 13.20 12.05 56.60
40545 2021-03-15 15:54:28 Terrasse 12.50 11.55 66.80
40544 2021-03-15 15:26:02 Terrasse 11.90 10.97 69.80
40543 2021-03-15 14:57:56 Terrasse 11.50 10.34 62.60
40542 2021-03-15 14:29:47 Terrasse 16.20 15.24 52.10
40541 2021-03-15 14:01:46 Terrasse 15.60 14.73 58.10
40540 2021-03-15 13:33:42 Terrasse 18.00 17.36 57.80
40539 2021-03-15 13:05:00 Terrasse 11.20 10.85 94.70
40538 2021-03-15 12:37:10 Terrasse 17.00 16.24 57.00
40537 2021-03-15 12:08:26 Terrasse 14.20 13.30 62.30
40536 2021-03-15 11:39:55 Terrasse 10.20 9.72 93.70
40535 2021-03-15 11:11:28 Terrasse 8.40 7.90 99.90
40534 2021-03-15 10:43:08 Terrasse 7.60 7.02 99.90
40533 2021-03-15 10:14:45 Terrasse 6.30 5.59 99.90
40532 2021-03-15 09:46:22 Terrasse 5.30 4.49 99.90
40531 2021-03-15 09:18:04 Terrasse 4.90 4.05 99.90
40530 2021-03-15 08:49:45 Terrasse 4.30 3.39 99.90
40529 2021-03-15 08:21:26 Terrasse 4.10 3.17 99.90
40528 2021-03-15 07:53:08 Terrasse 3.90 2.95 99.90
40527 2021-03-15 07:24:51 Terrasse 3.80 2.84 99.90
40526 2021-03-15 06:56:36 Terrasse 3.90 2.95 99.90
40525 2021-03-15 06:28:18 Terrasse 3.80 2.84 99.90
40524 2021-03-15 06:00:10 Terrasse 3.70 2.73 99.90
40523 2021-03-15 05:31:50 Terrasse 3.60 2.62 99.90
40522 2021-03-15 05:03:33 Terrasse 3.70 2.73 99.90
40521 2021-03-15 04:35:15 Terrasse 3.80 2.84 99.90
40520 2021-03-15 04:06:59 Terrasse 3.70 2.73 99.90
40519 2021-03-15 03:38:42 Terrasse 3.80 2.84 99.90
40518 2021-03-15 03:10:27 Terrasse 3.60 2.62 99.90
40517 2021-03-15 02:42:09 Terrasse 3.70 2.73 99.90
40516 2021-03-15 02:13:53 Terrasse 3.80 2.84 99.90
40515 2021-03-15 01:45:37 Terrasse 3.80 2.84 99.90
40514 2021-03-15 01:17:21 Terrasse 3.90 2.95 99.90
40513 2021-03-15 00:49:03 Terrasse 3.90 2.95 99.90
40512 2021-03-15 00:20:47 Terrasse 3.90 2.95 99.90
40511 2021-03-14 23:52:32 Terrasse 4.10 3.17 99.90
40510 2021-03-14 23:24:17 Terrasse 4.10 3.17 99.90
40509 2021-03-14 22:56:00 Terrasse 4.30 3.39 99.90
40508 2021-03-14 22:27:43 Terrasse 4.50 3.61 99.90
40507 2021-03-14 21:59:29 Terrasse 4.70 3.83 99.90
40506 2021-03-14 21:31:13 Terrasse 4.80 3.94 99.90
40505 2021-03-14 21:02:57 Terrasse 4.80 3.94 99.90
40504 2021-03-14 20:34:40 Terrasse 5.00 4.16 99.90
40503 2021-03-14 20:06:24 Terrasse 5.10 4.27 99.90
40502 2021-03-14 19:38:10 Terrasse 5.50 4.71 99.90
40501 2021-03-14 19:09:54 Terrasse 5.80 5.04 99.90
40500 2021-03-14 18:41:39 Terrasse 6.20 5.48 99.90
40499 2021-03-14 18:13:24 Terrasse 6.60 5.92 99.90
40498 2021-03-14 17:45:08 Terrasse 6.90 6.25 99.90
40497 2021-03-14 17:16:55 Terrasse 7.70 7.13 99.90
40496 2021-03-14 16:48:42 Terrasse 7.50 6.66 90.30
40495 2021-03-14 16:20:30 Terrasse 11.00 10.19 78.00
40494 2021-03-14 15:51:55 Terrasse 8.40 7.90 99.90
40493 2021-03-14 15:23:36 Terrasse 7.50 6.91 99.90
40492 2021-03-14 14:27:11 Terrasse 8.30 7.79 99.90
40491 2021-03-14 13:58:51 Terrasse 6.20 5.48 99.90
40490 2021-03-14 13:30:33 Terrasse 6.20 5.48 99.90
40489 2021-03-14 13:02:16 Terrasse 6.30 5.59 99.90
40488 2021-03-14 12:34:00 Terrasse 6.50 5.81 99.90
40487 2021-03-14 12:05:40 Terrasse 6.30 5.59 99.90
40486 2021-03-14 11:37:24 Terrasse 6.60 5.92 99.90
40485 2021-03-14 11:09:07 Terrasse 6.60 5.83 96.20
40484 2021-03-14 10:40:49 Terrasse 6.60 5.92 99.90
40483 2021-03-14 10:12:27 Terrasse 5.70 4.93 99.90
40482 2021-03-14 09:44:09 Terrasse 5.20 4.38 99.90
40481 2021-03-14 09:15:51 Terrasse 4.90 4.05 99.90
40480 2021-03-14 08:47:31 Terrasse 4.60 3.72 99.90
40479 2021-03-14 08:19:13 Terrasse 4.30 3.39 99.90
40478 2021-03-14 07:50:56 Terrasse 4.00 3.06 99.90
40477 2021-03-14 07:22:40 Terrasse 3.90 2.95 99.90
40476 2021-03-14 06:54:24 Terrasse 4.00 3.06 99.90
40475 2021-03-14 06:26:07 Terrasse 4.20 3.28 99.90
40474 2021-03-14 05:57:50 Terrasse 4.20 3.28 99.90
40473 2021-03-14 05:29:34 Terrasse 4.20 3.28 99.90
40472 2021-03-14 05:01:16 Terrasse 4.10 3.17 99.90
40471 2021-03-14 04:32:58 Terrasse 3.90 2.95 99.90
40470 2021-03-14 04:04:43 Terrasse 3.80 2.84 99.90
40469 2021-03-14 03:36:29 Terrasse 4.00 3.06 99.90
40468 2021-03-14 03:08:12 Terrasse 4.10 3.17 99.90
40467 2021-03-14 02:39:57 Terrasse 4.30 3.39 99.90
40466 2021-03-14 02:11:41 Terrasse 4.60 3.72 99.90
40465 2021-03-14 01:43:23 Terrasse 4.60 3.72 99.90
40464 2021-03-14 01:15:06 Terrasse 4.60 3.72 99.90
40463 2021-03-14 00:46:50 Terrasse 4.70 3.83 99.90
40462 2021-03-14 00:18:33 Terrasse 4.90 4.05 99.90
40461 2021-03-13 23:50:17 Terrasse 5.00 4.16 99.90
40460 2021-03-13 23:22:31 Terrasse 5.20 4.38 99.90
40459 2021-03-13 22:26:47 Terrasse 5.50 4.71 99.90
40458 2021-03-13 21:56:25 Terrasse 5.60 4.82 99.90
40457 2021-03-13 21:28:09 Terrasse 5.50 4.71 99.90
40456 2021-03-13 20:59:53 Terrasse 5.60 4.82 99.90
40455 2021-03-13 20:31:36 Terrasse 5.60 4.82 99.90
40454 2021-03-13 20:03:21 Terrasse 5.60 4.82 99.90
40453 2021-03-13 19:35:09 Terrasse 5.90 5.15 99.90
40452 2021-03-13 19:06:53 Terrasse 6.00 5.26 99.90
40451 2021-03-13 18:38:37 Terrasse 6.20 5.48 99.90
40450 2021-03-13 18:10:21 Terrasse 6.30 5.59 99.90
40449 2021-03-13 17:42:07 Terrasse 6.70 6.03 99.90
40448 2021-03-13 17:13:57 Terrasse 8.00 7.46 99.90
40447 2021-03-13 16:45:44 Terrasse 9.30 8.89 99.90
40446 2021-03-13 16:17:22 Terrasse 8.20 7.68 99.90
40445 2021-03-13 15:49:03 Terrasse 8.40 7.90 99.90
40444 2021-03-13 15:20:47 Terrasse 8.30 7.79 99.90
40443 2021-03-13 14:52:24 Terrasse 7.30 6.69 99.90
40442 2021-03-13 14:24:02 Terrasse 6.60 5.92 99.90
40441 2021-03-13 13:55:44 Terrasse 6.00 5.26 99.90
40440 2021-03-13 13:27:23 Terrasse 6.00 5.26 99.90
40439 2021-03-13 12:59:08 Terrasse 6.00 5.26 99.90
40438 2021-03-13 12:30:51 Terrasse 6.00 5.26 99.90
40437 2021-03-13 12:02:36 Terrasse 6.50 5.81 99.90
40436 2021-03-13 11:34:19 Terrasse 6.70 6.03 99.90
40435 2021-03-13 11:06:02 Terrasse 7.00 6.36 99.90
40434 2021-03-13 10:37:44 Terrasse 6.70 6.03 99.90
40433 2021-03-13 10:09:25 Terrasse 6.60 5.92 99.90
40432 2021-03-13 09:41:07 Terrasse 6.50 5.81 99.90
40431 2021-03-13 09:12:49 Terrasse 6.30 5.59 99.90
40430 2021-03-13 08:44:31 Terrasse 6.20 5.48 99.90
40429 2021-03-13 08:16:13 Terrasse 6.10 5.37 99.90
40428 2021-03-13 07:47:56 Terrasse 6.00 5.26 99.90
40427 2021-03-13 07:19:37 Terrasse 6.00 5.26 99.90
40426 2021-03-13 06:51:20 Terrasse 5.90 5.15 99.90
40425 2021-03-13 06:23:01 Terrasse 5.70 4.93 99.90
40424 2021-03-13 05:54:43 Terrasse 5.10 4.27 99.90
40423 2021-03-13 05:26:26 Terrasse 5.60 4.82 99.90
40422 2021-03-13 04:58:09 Terrasse 5.50 4.71 99.90
40421 2021-03-13 04:29:53 Terrasse 5.60 4.82 99.90
40420 2021-03-13 04:01:36 Terrasse 5.50 4.71 99.90
40419 2021-03-13 03:33:18 Terrasse 5.40 4.60 99.90
40418 2021-03-13 03:05:00 Terrasse 5.40 4.60 99.90
40417 2021-03-13 02:36:43 Terrasse 5.30 4.49 99.90
40416 2021-03-13 02:08:25 Terrasse 5.10 4.27 99.90
40415 2021-03-13 01:40:07 Terrasse 4.90 4.05 99.90
40414 2021-03-13 01:11:49 Terrasse 4.80 3.94 99.90
40413 2021-03-13 00:43:30 Terrasse 4.70 3.83 99.90
40412 2021-03-13 00:15:15 Terrasse 4.80 3.94 99.90
40411 2021-03-12 23:46:59 Terrasse 4.70 3.83 99.90
40410 2021-03-12 23:18:44 Terrasse 4.70 3.83 99.90
40409 2021-03-12 22:50:28 Terrasse 4.80 3.94 99.90
40408 2021-03-12 22:22:11 Terrasse 4.90 4.05 99.90
40407 2021-03-12 21:53:57 Terrasse 5.10 4.27 99.90
40406 2021-03-12 21:25:43 Terrasse 5.50 4.71 99.90
40405 2021-03-12 20:57:30 Terrasse 6.00 5.26 99.90
40404 2021-03-12 20:29:16 Terrasse 6.40 5.70 99.90
40403 2021-03-12 20:01:03 Terrasse 7.30 6.69 99.90
40402 2021-03-12 19:32:48 Terrasse 7.60 7.02 99.90
40401 2021-03-12 19:04:33 Terrasse 8.10 7.37 92.10
40400 2021-03-12 18:36:17 Terrasse 8.60 7.17 63.50
40399 2021-03-12 18:08:02 Terrasse 8.80 7.34 61.40
40398 2021-03-12 17:39:46 Terrasse 9.10 7.66 61.00
40397 2021-03-12 17:11:29 Terrasse 9.30 7.85 59.90
40396 2021-03-12 16:43:13 Terrasse 9.30 7.83 59.00
40395 2021-03-12 16:15:02 Terrasse 10.20 8.75 56.50
40394 2021-03-12 15:46:47 Terrasse 10.30 8.90 58.00
40393 2021-03-12 15:18:24 Terrasse 9.90 8.60 63.30
40392 2021-03-12 14:50:07 Terrasse 9.90 8.64 64.80
40391 2021-03-12 14:22:04 Terrasse 12.50 11.48 64.20
40390 2021-03-12 13:53:39 Terrasse 10.90 9.86 69.60
40389 2021-03-12 13:25:14 Terrasse 11.60 10.36 59.30
40388 2021-03-12 12:56:48 Terrasse 9.60 8.31 64.80
40387 2021-03-12 12:28:31 Terrasse 9.80 8.55 65.60
40386 2021-03-12 12:00:05 Terrasse 9.00 8.34 91.40
40385 2021-03-12 11:31:43 Terrasse 7.30 6.69 99.90
40384 2021-03-12 11:03:28 Terrasse 7.40 6.80 99.90
40383 2021-03-12 10:35:14 Terrasse 7.80 7.16 96.70
40382 2021-03-12 10:06:56 Terrasse 7.30 6.69 99.90
40381 2021-03-12 09:38:34 Terrasse 7.30 6.69 99.90
40380 2021-03-12 09:10:12 Terrasse 6.70 6.03 99.90
40379 2021-03-12 08:41:54 Terrasse 6.30 5.59 99.90
40378 2021-03-12 08:13:32 Terrasse 5.50 4.71 99.90
40377 2021-03-12 07:45:14 Terrasse 4.90 4.05 99.90
40376 2021-03-12 07:16:54 Terrasse 4.60 3.72 99.90
40375 2021-03-12 06:48:38 Terrasse 4.50 3.61 99.90
40374 2021-03-12 06:20:20 Terrasse 4.50 3.61 99.90
40373 2021-03-12 05:52:03 Terrasse 4.50 3.61 99.90
40372 2021-03-12 05:23:46 Terrasse 4.30 3.39 99.90
40371 2021-03-12 04:55:30 Terrasse 4.50 3.61 99.90
40370 2021-03-12 04:27:16 Terrasse 4.80 3.94 99.90
40369 2021-03-12 03:58:59 Terrasse 4.60 3.72 99.90
40368 2021-03-12 03:30:44 Terrasse 4.80 3.94 99.90
40367 2021-03-12 03:02:33 Terrasse 5.50 4.71 99.90
40366 2021-03-12 02:34:16 Terrasse 5.50 4.71 99.90
40365 2021-03-12 02:06:00 Terrasse 5.40 4.60 99.90
40364 2021-03-12 01:37:45 Terrasse 5.70 4.93 99.90
40363 2021-03-12 01:09:27 Terrasse 5.80 5.04 99.90
40362 2021-03-12 00:41:18 Terrasse 6.60 5.92 99.90
40361 2021-03-12 00:13:01 Terrasse 7.00 6.36 99.90
40360 2021-03-11 23:44:56 Terrasse 7.00 6.36 99.90
40359 2021-03-11 23:16:39 Terrasse 7.00 6.36 99.90
40358 2021-03-11 22:48:23 Terrasse 7.10 6.47 99.90
40357 2021-03-11 22:20:06 Terrasse 7.10 6.47 99.90
40356 2021-03-11 21:51:49 Terrasse 7.10 6.47 99.90
40355 2021-03-11 21:23:32 Terrasse 7.20 6.58 99.90
40354 2021-03-11 20:55:16 Terrasse 7.40 6.80 99.90
40353 2021-03-11 20:27:03 Terrasse 7.70 7.13 99.90
40352 2021-03-11 19:58:49 Terrasse 8.10 7.57 99.90
40351 2021-03-11 19:30:36 Terrasse 9.10 8.67 99.90
40350 2021-03-11 19:02:19 Terrasse 9.30 8.89 99.90
40349 2021-03-11 18:34:03 Terrasse 9.40 9.00 99.90
40348 2021-03-11 18:05:50 Terrasse 10.10 9.77 99.90
40347 2021-03-11 17:37:42 Terrasse 11.60 10.76 74.40
40346 2021-03-11 17:09:31 Terrasse 12.70 11.67 62.80
40345 2021-03-11 16:41:25 Terrasse 15.80 15.08 63.00
40344 2021-03-11 16:12:45 Terrasse 11.90 11.75 99.90
40343 2021-03-11 15:44:37 Terrasse 12.90 12.46 84.90
40342 2021-03-11 15:16:29 Terrasse 14.60 13.85 66.50
40341 2021-03-11 14:48:33 Terrasse 16.60 15.84 58.30
40340 2021-03-11 14:19:51 Terrasse 15.70 15.33 76.70
40339 2021-03-11 13:51:13 Terrasse 11.80 11.64 99.90
40338 2021-03-11 13:22:52 Terrasse 10.80 10.54 99.90
40337 2021-03-11 12:54:26 Terrasse 9.60 9.22 99.90
40336 2021-03-11 12:26:06 Terrasse 8.60 8.12 99.90
40335 2021-03-11 11:57:46 Terrasse 8.20 7.68 99.90
40334 2021-03-11 11:29:27 Terrasse 7.90 7.35 99.90
40333 2021-03-11 11:01:09 Terrasse 7.70 7.13 99.90
40332 2021-03-11 10:32:52 Terrasse 7.50 6.91 99.90
40331 2021-03-11 10:04:34 Terrasse 7.40 6.80 99.90
40330 2021-03-11 09:36:15 Terrasse 7.10 6.47 99.90
40329 2021-03-11 09:07:58 Terrasse 7.10 6.47 99.90
40328 2021-03-11 08:39:40 Terrasse 7.10 6.47 99.90
40327 2021-03-11 08:11:22 Terrasse 7.10 6.47 99.90
40326 2021-03-11 07:43:03 Terrasse 7.00 6.36 99.90
40325 2021-03-11 07:14:46 Terrasse 7.00 6.36 99.90
40324 2021-03-11 06:46:29 Terrasse 7.00 6.36 99.90
40323 2021-03-11 05:47:31 Terrasse 7.00 6.36 99.90
40322 2021-03-11 05:19:16 Terrasse 7.00 6.36 99.90
40321 2021-03-11 04:18:27 Terrasse 6.60 5.92 99.90
40320 2021-03-11 03:51:37 Terrasse 6.40 5.70 99.90
40319 2021-03-11 03:21:17 Terrasse 6.20 5.48 99.90
40318 2021-03-11 02:52:59 Terrasse 6.20 5.48 99.90
40317 2021-03-11 02:24:42 Terrasse 6.20 5.48 99.90
40316 2021-03-11 01:56:26 Terrasse 6.30 5.59 99.90
40315 2021-03-11 01:28:08 Terrasse 6.40 5.70 99.90
40314 2021-03-11 01:00:03 Terrasse 6.40 5.70 99.90
40313 2021-03-11 00:31:45 Terrasse 6.70 6.03 99.90
40312 2021-03-11 00:03:38 Terrasse 7.00 6.36 99.90
40311 2021-03-10 23:07:02 Terrasse 7.30 6.20 81.10
40310 2021-03-10 22:38:45 Terrasse 7.30 6.16 79.40
40309 2021-03-10 22:10:29 Terrasse 7.40 6.28 79.90
40308 2021-03-10 21:42:13 Terrasse 7.40 6.35 82.70
40307 2021-03-10 21:13:56 Terrasse 7.50 6.62 88.70
40306 2021-03-10 20:45:41 Terrasse 7.70 6.87 89.80
40305 2021-03-10 20:17:24 Terrasse 7.70 6.90 91.00
40304 2021-03-10 19:49:08 Terrasse 8.90 8.20 90.10
40303 2021-03-10 19:20:51 Terrasse 8.00 7.02 82.80
40302 2021-03-10 18:52:36 Terrasse 8.10 7.01 78.20
40301 2021-03-10 18:24:21 Terrasse 8.40 7.25 75.00
40300 2021-03-10 17:56:04 Terrasse 8.60 7.42 72.90
40299 2021-03-10 17:27:47 Terrasse 8.80 7.71 75.70
40298 2021-03-10 16:59:32 Terrasse 8.90 7.84 76.30
40297 2021-03-10 16:31:16 Terrasse 9.00 8.00 78.40
40296 2021-03-10 16:03:00 Terrasse 9.20 8.40 85.10
40295 2021-03-10 15:34:45 Terrasse 9.40 8.81 92.60
40294 2021-03-10 15:06:26 Terrasse 9.10 8.67 99.90
40293 2021-03-10 14:38:09 Terrasse 9.00 8.49 97.20
40292 2021-03-10 14:09:52 Terrasse 9.30 8.71 92.90
40291 2021-03-10 13:41:33 Terrasse 9.10 8.58 96.30
40290 2021-03-10 13:13:16 Terrasse 9.00 8.42 94.50
40289 2021-03-10 12:44:56 Terrasse 8.90 8.40 98.00
40288 2021-03-10 12:16:39 Terrasse 9.10 8.56 95.50
40287 2021-03-10 11:48:19 Terrasse 8.20 7.68 99.90
40286 2021-03-10 11:19:59 Terrasse 7.70 7.13 99.90
40285 2021-03-10 10:51:42 Terrasse 7.60 7.02 99.90
40284 2021-03-10 10:23:27 Terrasse 7.80 7.24 99.90
40283 2021-03-10 09:55:04 Terrasse 7.00 6.36 99.90
40282 2021-03-10 09:26:43 Terrasse 6.10 5.37 99.90
40281 2021-03-10 08:58:24 Terrasse 5.70 4.93 99.90
40280 2021-03-10 08:30:06 Terrasse 5.40 4.60 99.90
40279 2021-03-10 08:01:48 Terrasse 5.10 4.27 99.90
40278 2021-03-10 07:33:32 Terrasse 4.90 4.05 99.90
40277 2021-03-10 07:05:13 Terrasse 4.70 3.83 99.90
40276 2021-03-10 06:36:57 Terrasse 4.70 3.83 99.90
40275 2021-03-10 06:08:41 Terrasse 4.80 3.94 99.90
40274 2021-03-10 05:40:25 Terrasse 4.80 3.94 99.90
40273 2021-03-10 05:12:07 Terrasse 4.80 3.94 99.90
40272 2021-03-10 04:43:51 Terrasse 4.80 3.94 99.90
40271 2021-03-10 04:15:35 Terrasse 4.90 4.05 99.90
40270 2021-03-10 03:47:17 Terrasse 4.80 3.94 99.90
40269 2021-03-10 03:19:03 Terrasse 4.80 3.94 99.90
40268 2021-03-10 02:50:48 Terrasse 4.90 4.05 99.90
40267 2021-03-10 02:22:31 Terrasse 5.00 4.16 99.90
40266 2021-03-10 01:54:15 Terrasse 5.10 4.27 99.90
40265 2021-03-10 01:26:01 Terrasse 5.10 4.27 99.90
40264 2021-03-10 00:57:45 Terrasse 5.20 4.38 99.90
40263 2021-03-10 00:29:28 Terrasse 5.20 4.38 99.90
40262 2021-03-10 00:01:12 Terrasse 5.30 4.49 99.90
40261 2021-03-09 23:32:56 Terrasse 5.30 4.49 99.90
40260 2021-03-09 23:04:39 Terrasse 5.40 4.60 99.90
40259 2021-03-09 22:36:21 Terrasse 5.30 4.49 99.90
40258 2021-03-09 22:08:03 Terrasse 5.10 4.27 99.90
40257 2021-03-09 21:39:48 Terrasse 5.20 4.38 99.90
40256 2021-03-09 21:11:33 Terrasse 5.20 4.38 99.90
40255 2021-03-09 20:43:17 Terrasse 5.40 4.60 99.90
40254 2021-03-09 20:15:02 Terrasse 5.30 4.49 99.90
40253 2021-03-09 19:46:49 Terrasse 5.40 4.60 99.90
40252 2021-03-09 19:18:41 Terrasse 5.40 4.60 99.90
40251 2021-03-09 18:50:40 Terrasse 5.50 4.71 99.90
40250 2021-03-09 18:22:23 Terrasse 5.60 4.82 99.90
40249 2021-03-09 17:54:09 Terrasse 5.90 5.15 99.90
40248 2021-03-09 17:25:53 Terrasse 6.30 5.59 99.90
40247 2021-03-09 16:57:37 Terrasse 6.30 5.51 96.50
40246 2021-03-09 16:29:20 Terrasse 6.50 5.61 91.90
40245 2021-03-09 16:01:40 Terrasse 6.70 5.50 79.30
40244 2021-03-09 15:33:19 Terrasse 7.00 5.63 71.60
40243 2021-03-09 15:05:00 Terrasse 7.10 5.64 68.00
40242 2021-03-09 14:36:45 Terrasse 7.20 5.74 67.70
40241 2021-03-09 14:08:28 Terrasse 7.30 5.81 66.10
40240 2021-03-09 13:40:14 Terrasse 7.90 6.41 63.80
40239 2021-03-09 13:11:58 Terrasse 8.60 7.25 66.30
40238 2021-03-09 12:43:37 Terrasse 7.00 5.82 79.10
40237 2021-03-09 12:15:28 Terrasse 7.90 6.64 72.70
40236 2021-03-09 11:47:04 Terrasse 6.40 5.27 83.20
40235 2021-03-09 11:18:47 Terrasse 6.40 5.27 83.30
40234 2021-03-09 10:50:32 Terrasse 6.70 5.37 74.60
40233 2021-03-09 10:22:17 Terrasse 7.40 6.00 69.20
40232 2021-03-09 09:53:52 Terrasse 6.30 5.02 77.80
40231 2021-03-09 09:25:31 Terrasse 5.50 4.31 84.40
40230 2021-03-09 08:57:11 Terrasse 4.90 3.83 91.20
40229 2021-03-09 08:28:50 Terrasse 4.20 3.14 94.40
40228 2021-03-09 08:00:32 Terrasse 3.80 2.77 97.20
40227 2021-03-09 07:32:13 Terrasse 3.60 2.60 98.90
40226 2021-03-09 07:03:56 Terrasse 3.60 2.58 98.20
40225 2021-03-09 06:35:40 Terrasse 3.70 2.67 97.60
40224 2021-03-09 06:07:36 Terrasse 3.80 2.73 95.40
40223 2021-03-09 05:39:16 Terrasse 3.80 2.64 92.00
40222 2021-03-09 05:11:00 Terrasse 3.90 2.65 88.20
40221 2021-03-09 04:42:57 Terrasse 4.10 3.00 93.10
40220 2021-03-09 04:14:38 Terrasse 4.40 3.31 92.60
40219 2021-03-09 03:46:33 Terrasse 4.50 3.38 91.00
40218 2021-03-09 03:18:32 Terrasse 4.70 3.77 97.30
40217 2021-03-09 02:50:08 Terrasse 4.70 3.77 97.30
40216 2021-03-09 02:22:05 Terrasse 4.70 3.67 93.80
40215 2021-03-09 01:53:46 Terrasse 4.90 3.76 88.80
40214 2021-03-09 01:25:30 Terrasse 4.90 3.80 90.20
40213 2021-03-09 00:57:13 Terrasse 5.00 3.96 92.00
40212 2021-03-09 00:28:57 Terrasse 5.10 3.97 88.10
40211 2021-03-09 00:00:41 Terrasse 5.40 4.08 79.90
40210 2021-03-08 23:32:24 Terrasse 5.40 4.08 79.70
40209 2021-03-08 23:04:07 Terrasse 5.40 4.09 80.40
40208 2021-03-08 22:35:50 Terrasse 5.50 4.23 81.40
40207 2021-03-08 22:07:32 Terrasse 5.40 4.17 83.40
40206 2021-03-08 21:39:14 Terrasse 5.40 4.29 87.70
40205 2021-03-08 21:10:58 Terrasse 5.50 4.34 85.40
40204 2021-03-08 20:42:45 Terrasse 6.10 4.73 75.30
40203 2021-03-08 20:16:21 Terrasse 5.70 4.93 99.90
40202 2021-03-08 13:56:00 Terrasse 7.40 5.59 53.50
40201 2021-03-08 13:27:50 Terrasse 7.30 5.51 54.50
40200 2021-03-08 12:59:50 Terrasse 7.30 5.51 54.50
40199 2021-03-08 10:13:44 Terrasse 4.20 2.30 62.30
40198 2021-03-08 09:38:20 Terrasse 3.70 1.77 62.80
40197 2021-03-08 09:10:20 Terrasse 3.10 1.17 65.10
40196 2021-03-08 08:41:48 Terrasse 2.20 0.30 70.00
40195 2021-03-08 08:13:36 Terrasse 1.50 -0.57 66.10
40194 2021-03-08 07:45:24 Terrasse 1.00 -1.23 61.90
40193 2021-03-08 07:17:14 Terrasse 0.90 -1.39 59.80
40192 2021-03-08 06:49:04 Terrasse 1.10 -1.20 58.80
40191 2021-03-08 06:20:52 Terrasse 1.10 -1.22 58.10
40190 2021-03-08 05:53:31 Terrasse 1.20 -1.12 57.60
40189 2021-03-08 05:24:47 Terrasse 1.60 -0.70 56.70
40188 2021-03-08 04:56:45 Terrasse 1.60 -0.71 56.50
40187 2021-03-08 04:29:16 Terrasse 2.00 -0.29 55.60
40186 2021-03-08 04:01:51 Terrasse 2.10 -0.17 56.10
40185 2021-03-08 03:33:12 Terrasse 2.30 0.03 55.20
40184 2021-03-08 03:05:29 Terrasse 2.30 0.01 54.60
40183 2021-03-08 02:37:05 Terrasse 2.30 -0.01 53.80
40182 2021-03-08 02:09:17 Terrasse 2.40 0.11 54.10
40181 2021-03-08 01:41:26 Terrasse 2.70 0.41 53.00
40180 2021-03-08 01:13:19 Terrasse 3.00 0.71 52.00
40179 2021-03-08 00:45:20 Terrasse 3.30 1.01 50.80
40178 2021-03-08 00:17:28 Terrasse 3.40 1.11 50.40
40177 2021-03-07 23:48:41 Terrasse 3.70 1.42 49.50
40176 2021-03-07 23:20:29 Terrasse 3.90 1.64 49.60
40175 2021-03-07 22:52:18 Terrasse 4.40 2.17 48.80
40174 2021-03-07 22:24:06 Terrasse 4.90 2.69 47.70
40173 2021-03-07 21:55:55 Terrasse 5.20 3.04 48.40
40172 2021-03-07 21:27:43 Terrasse 5.50 3.36 48.00
40171 2021-03-07 20:59:31 Terrasse 6.00 3.89 47.30
40170 2021-03-07 20:31:19 Terrasse 6.40 4.32 47.00
40169 2021-03-07 20:03:08 Terrasse 7.00 4.94 45.40
40168 2021-03-07 19:34:56 Terrasse 7.80 5.64 38.30
40167 2021-03-07 19:06:46 Terrasse 8.30 6.18 37.90
40166 2021-03-07 18:38:36 Terrasse 9.20 7.11 35.90
40165 2021-03-07 18:10:27 Terrasse 10.20 8.15 33.40
40164 2021-03-07 17:42:18 Terrasse 11.20 9.19 31.20
40163 2021-03-07 17:14:18 Terrasse 13.20 11.31 28.00
40162 2021-03-07 16:46:47 Terrasse 22.10 21.04 25.90
40161 2021-03-07 16:18:32 Terrasse 19.00 17.66 26.90
40160 2021-03-07 15:51:02 Terrasse 26.80 26.15 25.90
40159 2021-03-07 15:21:38 Terrasse 19.70 18.49 29.20
40158 2021-03-07 14:53:32 Terrasse 20.90 19.79 28.70
40157 2021-03-07 14:25:39 Terrasse 19.20 17.94 29.40
40156 2021-03-07 13:57:08 Terrasse 20.30 19.15 29.10
40155 2021-03-07 13:29:28 Terrasse 18.40 17.06 29.10
40154 2021-03-07 13:01:08 Terrasse 18.80 17.49 28.90
40153 2021-03-07 12:32:34 Terrasse 16.30 14.89 34.60
40152 2021-03-07 12:04:19 Terrasse 16.30 14.97 37.80
40151 2021-03-07 11:35:01 Terrasse 10.90 9.04 37.90
40150 2021-03-07 11:06:37 Terrasse 7.70 5.67 43.80
40149 2021-03-07 10:38:17 Terrasse 6.70 4.59 44.70
40148 2021-03-07 10:09:44 Terrasse 5.20 3.02 47.70
40147 2021-03-07 09:41:20 Terrasse 3.80 1.48 47.50
40146 2021-03-07 09:12:56 Terrasse 2.50 0.08 48.80
40145 2021-03-07 08:44:36 Terrasse 1.70 -0.71 52.40
40144 2021-03-07 08:16:18 Terrasse 1.00 -1.47 52.60
40143 2021-03-07 07:48:03 Terrasse 0.80 -1.74 50.80
40142 2021-03-07 07:19:49 Terrasse 0.80 -1.73 51.10
40141 2021-03-07 06:51:35 Terrasse 0.90 -1.63 50.80
40140 2021-03-07 06:23:24 Terrasse 1.00 -1.50 51.30
40139 2021-03-07 05:55:11 Terrasse 1.20 -1.32 49.90
40138 2021-03-07 05:26:58 Terrasse 1.40 -1.12 49.10
40137 2021-03-07 04:58:45 Terrasse 1.40 -1.12 49.10
40136 2021-03-07 04:30:33 Terrasse 1.70 -0.81 48.50
40135 2021-03-07 04:02:21 Terrasse 1.80 -0.70 48.40
40134 2021-03-07 03:34:07 Terrasse 2.00 -0.49 48.20
40133 2021-03-07 03:05:54 Terrasse 2.20 -0.28 47.80
40132 2021-03-07 02:37:40 Terrasse 2.30 -0.17 47.50
40131 2021-03-07 02:09:26 Terrasse 2.40 -0.07 47.20
40130 2021-03-07 01:41:14 Terrasse 2.60 0.15 47.40
40129 2021-03-07 01:13:01 Terrasse 2.70 0.26 47.10
40128 2021-03-07 00:44:46 Terrasse 2.80 0.38 47.50
40127 2021-03-07 00:16:34 Terrasse 3.00 0.60 47.50
40126 2021-03-06 21:14:21 Terrasse 4.70 2.38 44.20
40125 2021-03-06 20:46:08 Terrasse 4.90 2.61 44.60
40124 2021-03-06 20:17:58 Terrasse 5.10 2.82 44.40
40123 2021-03-06 19:50:08 Terrasse 5.40 3.14 43.80
40122 2021-03-06 19:22:03 Terrasse 6.10 3.89 43.00
40121 2021-03-06 18:54:07 Terrasse 7.00 4.81 40.30
40120 2021-03-06 18:26:04 Terrasse 8.10 5.92 36.50
40119 2021-03-06 17:58:25 Terrasse 9.20 7.08 34.80
40118 2021-03-06 17:30:36 Terrasse 10.90 8.88 31.80
40117 2021-03-06 17:02:56 Terrasse 14.10 12.34 29.60
40116 2021-03-06 16:34:44 Terrasse 19.10 17.77 27.10
40115 2021-03-06 16:07:01 Terrasse 22.40 21.40 27.00
40114 2021-03-06 15:38:44 Terrasse 26.40 25.80 27.10
40113 2021-03-06 15:10:03 Terrasse 18.30 16.98 30.50
40112 2021-03-06 14:41:23 Terrasse 17.80 16.42 30.20
40111 2021-03-06 14:13:33 Terrasse 20.40 19.26 29.30
40110 2021-03-06 13:45:10 Terrasse 17.60 16.22 30.70
40109 2021-03-06 13:18:29 Terrasse 19.00 17.76 31.00
40108 2021-03-06 12:48:00 Terrasse 16.80 15.47 35.70
40107 2021-03-06 12:20:15 Terrasse 15.80 14.36 35.50
40106 2021-03-06 11:18:03 Terrasse 7.40 5.38 45.40
40105 2021-03-06 10:49:47 Terrasse 6.50 4.37 44.70
40104 2021-03-06 09:51:31 Terrasse 3.90 1.75 53.60
40103 2021-03-06 09:22:47 Terrasse 2.80 0.62 56.70
40102 2021-03-06 08:54:32 Terrasse 1.90 -0.31 59.00
40101 2021-03-06 08:26:15 Terrasse 1.10 -1.15 60.50
40100 2021-03-06 07:58:01 Terrasse 0.70 -1.58 61.00
40099 2021-03-06 07:29:48 Terrasse 0.60 -1.71 60.40
40098 2021-03-06 07:01:35 Terrasse 0.70 -1.61 59.90
40097 2021-03-06 06:33:26 Terrasse 0.70 -1.63 59.20
40096 2021-03-06 06:05:15 Terrasse 0.80 -1.52 59.00
40095 2021-03-06 05:37:04 Terrasse 1.00 -1.31 58.70
40094 2021-03-06 05:09:07 Terrasse 1.10 -1.22 57.90
40093 2021-03-06 04:41:42 Terrasse 1.30 -1.00 58.10
40092 2021-03-06 04:12:57 Terrasse 1.40 -0.89 58.10
40091 2021-03-06 03:44:47 Terrasse 1.50 -0.78 58.00
40090 2021-03-06 03:16:43 Terrasse 1.60 -0.69 57.40
40089 2021-03-06 02:48:36 Terrasse 1.80 -0.46 57.80
40088 2021-03-06 02:20:35 Terrasse 1.90 -0.35 57.60
40087 2021-03-06 01:52:28 Terrasse 2.10 -0.11 58.30
40086 2021-03-06 01:25:02 Terrasse 2.20 -0.01 58.10
40085 2021-03-06 00:56:27 Terrasse 2.50 0.30 57.40
40084 2021-03-06 00:28:24 Terrasse 2.60 0.41 57.10
40083 2021-03-06 00:00:10 Terrasse 2.80 0.60 56.20
40082 2021-03-05 23:31:58 Terrasse 2.90 0.69 55.50
40081 2021-03-05 23:03:45 Terrasse 3.10 0.89 54.40
40080 2021-03-05 22:35:32 Terrasse 3.20 0.99 54.00
40079 2021-03-05 22:07:19 Terrasse 3.40 1.19 53.50
40078 2021-03-05 21:39:05 Terrasse 3.50 1.29 53.20
40077 2021-03-05 21:10:53 Terrasse 3.60 1.44 54.40
40076 2021-03-05 20:42:48 Terrasse 3.80 1.73 57.40
40075 2021-03-05 20:14:33 Terrasse 4.10 2.09 58.20
40074 2021-03-05 19:46:22 Terrasse 4.60 2.59 56.50
40073 2021-03-05 19:18:10 Terrasse 5.10 3.09 54.60
40072 2021-03-05 18:49:58 Terrasse 5.40 3.35 51.90
40071 2021-03-05 18:21:46 Terrasse 6.00 4.00 51.50
40070 2021-03-05 17:53:37 Terrasse 6.80 4.87 51.20
40069 2021-03-05 17:25:28 Terrasse 8.00 6.15 49.50
40068 2021-03-05 16:57:44 Terrasse 10.80 9.12 45.50
40067 2021-03-05 16:28:51 Terrasse 10.60 8.95 47.10
40066 2021-03-05 15:59:59 Terrasse 7.50 5.72 54.00
40065 2021-03-05 15:31:52 Terrasse 7.70 5.93 53.70
40064 2021-03-05 15:03:34 Terrasse 7.90 6.16 54.20
40063 2021-03-05 14:35:24 Terrasse 8.30 6.60 54.30
40062 2021-03-05 14:07:16 Terrasse 9.40 7.80 53.80
40061 2021-03-05 13:39:15 Terrasse 11.10 9.58 50.30
40060 2021-03-05 13:11:08 Terrasse 10.70 9.20 52.80
40059 2021-03-05 12:43:06 Terrasse 11.50 9.98 48.80
40058 2021-03-05 12:15:04 Terrasse 12.10 10.78 54.00
40057 2021-03-05 11:45:59 Terrasse 6.20 4.81 74.00
40056 2021-03-05 11:17:45 Terrasse 6.10 4.92 82.40
40055 2021-03-05 10:49:34 Terrasse 6.70 5.55 81.40
40054 2021-03-05 10:21:16 Terrasse 6.10 5.14 90.80
40053 2021-03-05 09:52:55 Terrasse 5.30 4.49 99.90
40052 2021-03-05 09:24:37 Terrasse 4.90 4.05 99.90
40051 2021-03-05 08:56:22 Terrasse 4.80 3.94 99.90
40050 2021-03-05 08:28:08 Terrasse 4.60 3.72 99.90
40049 2021-03-05 07:59:53 Terrasse 4.40 3.50 99.90
40048 2021-03-05 07:31:40 Terrasse 4.40 3.50 99.90
40047 2021-03-05 07:03:26 Terrasse 4.40 3.50 99.90
40046 2021-03-05 06:35:13 Terrasse 4.50 3.61 99.90
40045 2021-03-05 06:07:00 Terrasse 4.60 3.72 99.90
40044 2021-03-05 05:38:47 Terrasse 4.70 3.83 99.90
40043 2021-03-05 05:10:36 Terrasse 4.70 3.83 99.90
40042 2021-03-05 04:42:21 Terrasse 4.90 4.05 99.90
40041 2021-03-05 04:14:07 Terrasse 5.00 4.16 99.90
40040 2021-03-05 03:45:53 Terrasse 5.00 4.16 99.90
40039 2021-03-05 03:17:38 Terrasse 4.90 4.05 99.90
40038 2021-03-05 02:49:26 Terrasse 5.00 4.16 99.90
40037 2021-03-05 02:21:10 Terrasse 5.10 4.27 99.90
40036 2021-03-05 01:52:56 Terrasse 5.30 4.49 99.90
40035 2021-03-05 01:24:43 Terrasse 5.40 4.60 99.90
40034 2021-03-05 00:56:31 Terrasse 5.60 4.82 99.90
40033 2021-03-05 00:28:18 Terrasse 5.70 4.93 99.90
40032 2021-03-05 00:00:04 Terrasse 5.70 4.93 99.90
40031 2021-03-04 23:31:51 Terrasse 5.80 5.04 99.90
40030 2021-03-04 23:03:39 Terrasse 6.20 5.48 99.90
40029 2021-03-04 22:35:28 Terrasse 6.60 5.92 99.90
40028 2021-03-04 22:07:17 Terrasse 6.90 6.25 99.90
40027 2021-03-04 21:39:07 Terrasse 7.30 6.69 99.90
40026 2021-03-04 21:10:56 Terrasse 7.80 7.24 99.90
40025 2021-03-04 20:42:43 Terrasse 8.30 7.79 99.90
40024 2021-03-04 20:14:31 Terrasse 8.80 8.34 99.90
40023 2021-03-04 19:46:17 Terrasse 8.90 8.45 99.90
40022 2021-03-04 19:18:04 Terrasse 9.10 8.67 99.90
40021 2021-03-04 18:49:53 Terrasse 9.50 9.11 99.90
40020 2021-03-04 18:21:39 Terrasse 9.80 9.44 99.90
40019 2021-03-04 17:53:31 Terrasse 10.20 9.88 99.90
40018 2021-03-04 17:25:35 Terrasse 11.50 11.31 99.90
40017 2021-03-04 16:57:21 Terrasse 12.50 11.65 70.60
40016 2021-03-04 16:29:11 Terrasse 13.70 12.83 65.10
40015 2021-03-04 16:01:01 Terrasse 14.20 13.32 62.90
40014 2021-03-04 15:32:47 Terrasse 16.00 15.21 59.70
40013 2021-03-04 15:04:49 Terrasse 15.80 15.02 60.50
40012 2021-03-04 14:36:34 Terrasse 15.70 14.88 59.40
40011 2021-03-04 14:08:20 Terrasse 16.10 15.30 58.70
40010 2021-03-04 13:39:44 Terrasse 15.20 14.39 61.80
40009 2021-03-04 13:11:12 Terrasse 14.20 13.44 67.40
40008 2021-03-04 12:43:05 Terrasse 14.70 13.83 61.60
40007 2021-03-04 12:15:24 Terrasse 16.90 16.22 60.40
40006 2021-03-04 11:46:31 Terrasse 13.80 13.17 74.10
40005 2021-03-04 11:18:01 Terrasse 11.00 10.62 94.50
40004 2021-03-04 10:49:43 Terrasse 10.50 10.16 97.70
40003 2021-03-04 10:21:26 Terrasse 10.50 10.21 99.90
40002 2021-03-04 09:53:09 Terrasse 10.00 9.66 99.90
40001 2021-03-04 09:24:52 Terrasse 9.70 9.33 99.90
40000 2021-03-04 08:56:30 Terrasse 8.80 8.34 99.90
39999 2021-03-04 08:28:11 Terrasse 7.80 7.24 99.90
39998 2021-03-04 07:59:56 Terrasse 7.50 6.91 99.90
39997 2021-03-04 07:31:40 Terrasse 7.50 6.91 99.90
39996 2021-03-04 07:03:26 Terrasse 7.50 6.91 99.90
39995 2021-03-04 06:35:12 Terrasse 7.70 7.13 99.90
39994 2021-03-04 06:06:58 Terrasse 7.70 7.13 99.90
39993 2021-03-04 05:38:43 Terrasse 7.90 7.35 99.90
39992 2021-03-04 05:10:30 Terrasse 8.10 7.57 99.90
39991 2021-03-04 04:42:16 Terrasse 8.30 7.79 99.90
39990 2021-03-04 04:14:02 Terrasse 8.60 8.12 99.90
39989 2021-03-04 03:45:50 Terrasse 8.60 8.12 99.90
39988 2021-03-04 03:17:33 Terrasse 8.60 8.12 99.90
39987 2021-03-04 02:49:20 Terrasse 8.60 8.12 99.90
39986 2021-03-04 02:21:07 Terrasse 8.70 8.23 99.90
39985 2021-03-04 01:52:53 Terrasse 8.90 8.45 99.90
39984 2021-03-04 01:24:41 Terrasse 9.20 8.78 99.90
39983 2021-03-04 00:56:27 Terrasse 9.40 9.00 99.90
39982 2021-03-04 00:28:14 Terrasse 9.70 9.26 97.10
39981 2021-03-04 00:00:00 Terrasse 9.80 9.42 98.90
39980 2021-03-03 23:31:45 Terrasse 9.80 9.44 99.90
39979 2021-03-03 23:03:32 Terrasse 9.80 9.39 97.80
39978 2021-03-03 22:35:18 Terrasse 9.90 9.46 96.30
39977 2021-03-03 22:07:05 Terrasse 10.10 9.61 93.50
39976 2021-03-03 21:38:53 Terrasse 10.20 9.64 90.70
39975 2021-03-03 21:10:40 Terrasse 10.40 9.73 85.50
39974 2021-03-03 20:42:26 Terrasse 10.40 9.47 75.80
39973 2021-03-03 20:14:14 Terrasse 10.70 9.61 68.30
39972 2021-03-03 19:46:03 Terrasse 11.10 9.92 63.30
39971 2021-03-03 19:17:53 Terrasse 11.70 10.53 61.60
39970 2021-03-03 18:49:42 Terrasse 12.40 11.26 59.90
39969 2021-03-03 18:21:32 Terrasse 13.10 11.93 56.10
39968 2021-03-03 17:53:21 Terrasse 13.70 12.56 54.80
39967 2021-03-03 17:25:13 Terrasse 14.50 13.37 52.30
39966 2021-03-03 16:57:07 Terrasse 15.80 14.75 50.20
39965 2021-03-03 16:29:12 Terrasse 18.60 17.71 45.80
39964 2021-03-03 16:01:16 Terrasse 23.20 22.64 40.80
39963 2021-03-03 15:32:56 Terrasse 23.00 22.44 41.50
39962 2021-03-03 15:04:36 Terrasse 20.20 19.43 44.40
39961 2021-03-03 14:36:00 Terrasse 19.30 18.46 45.00
39960 2021-03-03 14:07:50 Terrasse 19.50 18.72 46.40
39959 2021-03-03 13:39:20 Terrasse 17.80 16.94 50.00
39958 2021-03-03 13:11:13 Terrasse 18.10 17.28 50.50
39957 2021-03-03 12:42:47 Terrasse 17.60 16.79 52.60
39956 2021-03-03 12:14:43 Terrasse 17.30 16.48 53.60
39955 2021-03-03 11:45:58 Terrasse 14.70 13.75 58.50
39954 2021-03-03 11:17:21 Terrasse 11.50 10.53 69.70
39953 2021-03-03 10:49:03 Terrasse 10.70 9.72 72.50
39952 2021-03-03 10:20:39 Terrasse 9.50 8.88 90.80
39951 2021-03-03 09:52:16 Terrasse 8.30 7.74 97.80
39950 2021-03-03 09:24:00 Terrasse 7.90 7.35 99.90
39949 2021-03-03 08:55:39 Terrasse 7.10 6.47 99.90
39948 2021-03-03 08:27:21 Terrasse 6.40 5.70 99.90
39947 2021-03-03 07:59:04 Terrasse 5.90 5.15 99.90
39946 2021-03-03 07:30:48 Terrasse 5.60 4.82 99.90
39945 2021-03-03 07:02:36 Terrasse 5.80 4.93 95.60
39944 2021-03-03 06:34:22 Terrasse 5.90 5.07 96.80
39943 2021-03-03 06:06:17 Terrasse 6.00 5.26 99.90
39942 2021-03-03 05:38:01 Terrasse 6.30 5.51 96.70
39941 2021-03-03 05:09:48 Terrasse 6.30 5.59 99.90
39940 2021-03-03 04:41:34 Terrasse 6.50 5.75 97.30
39939 2021-03-03 04:13:22 Terrasse 6.70 5.83 92.10
39938 2021-03-03 03:45:09 Terrasse 7.10 6.27 92.00
39937 2021-03-03 03:16:56 Terrasse 7.20 6.42 93.60
39936 2021-03-03 02:48:44 Terrasse 7.30 6.47 91.30
39935 2021-03-03 02:20:30 Terrasse 7.50 6.56 86.30
39934 2021-03-03 01:52:17 Terrasse 7.60 6.56 82.30
39933 2021-03-03 01:24:04 Terrasse 7.70 6.48 74.70
39932 2021-03-03 00:55:50 Terrasse 7.80 6.45 69.40
39931 2021-03-03 00:27:37 Terrasse 8.00 6.54 64.70
39930 2021-03-02 23:59:25 Terrasse 8.30 6.78 60.90
39929 2021-03-02 23:31:11 Terrasse 8.50 6.95 59.20
39928 2021-03-02 23:02:58 Terrasse 8.70 7.14 58.10
39927 2021-03-02 22:34:45 Terrasse 8.90 7.35 57.80
39926 2021-03-02 22:06:31 Terrasse 9.10 7.56 57.30
39925 2021-03-02 21:38:19 Terrasse 9.60 8.10 57.00
39924 2021-03-02 21:10:05 Terrasse 9.90 8.41 56.10
39923 2021-03-02 20:41:55 Terrasse 10.20 8.70 54.60
39922 2021-03-02 20:13:41 Terrasse 10.60 9.13 54.00
39921 2021-03-02 19:45:30 Terrasse 11.20 9.75 52.50
39920 2021-03-02 19:17:20 Terrasse 11.70 10.27 51.50
39919 2021-03-02 18:49:09 Terrasse 12.70 11.34 50.50
39918 2021-03-02 18:21:02 Terrasse 13.90 12.57 46.90
39917 2021-03-02 17:52:55 Terrasse 15.90 14.70 44.40
39916 2021-03-02 17:24:48 Terrasse 17.40 16.29 42.10
39915 2021-03-02 16:56:57 Terrasse 20.70 19.81 37.80
39914 2021-03-02 16:28:58 Terrasse 27.20 26.65 32.50
39913 2021-03-02 16:00:58 Terrasse 31.40 30.06 29.00
39912 2021-03-02 15:32:30 Terrasse 30.10 28.91 30.90
39911 2021-03-02 15:03:51 Terrasse 23.20 22.57 38.00
39910 2021-03-02 14:34:58 Terrasse 22.30 21.61 39.20
39909 2021-03-02 14:06:51 Terrasse 22.60 21.99 41.10
39908 2021-03-02 13:38:08 Terrasse 19.20 18.32 43.80
39907 2021-03-02 13:10:10 Terrasse 19.90 19.06 42.80
39906 2021-03-02 12:41:39 Terrasse 19.70 18.87 43.70
39905 2021-03-02 12:13:53 Terrasse 20.50 19.75 43.90
39904 2021-03-02 11:44:53 Terrasse 16.70 15.69 48.30
39903 2021-03-02 11:16:07 Terrasse 12.40 11.08 52.90
39902 2021-03-02 10:47:50 Terrasse 11.50 10.13 54.50
39901 2021-03-02 10:19:36 Terrasse 10.90 9.48 55.10
39900 2021-03-02 09:51:06 Terrasse 9.20 7.72 59.10
39899 2021-03-02 09:22:46 Terrasse 8.30 6.79 61.60
39898 2021-03-02 08:54:27 Terrasse 7.60 6.08 63.60
39897 2021-03-02 08:26:10 Terrasse 7.10 5.58 65.50
39896 2021-03-02 07:57:55 Terrasse 7.00 5.46 65.30
39895 2021-03-02 07:29:40 Terrasse 6.90 5.30 63.50
39894 2021-03-02 07:01:26 Terrasse 7.10 5.49 62.10
39893 2021-03-02 06:33:11 Terrasse 7.20 5.56 60.60
39892 2021-03-02 06:04:58 Terrasse 7.40 5.75 59.60
39891 2021-03-02 05:36:44 Terrasse 7.50 5.86 59.40
39890 2021-03-02 05:08:31 Terrasse 7.60 5.95 58.70
39889 2021-03-02 04:40:18 Terrasse 7.90 6.25 57.60
39888 2021-03-02 04:12:05 Terrasse 8.10 6.47 57.80
39887 2021-03-02 03:43:53 Terrasse 8.30 6.67 56.90
39886 2021-03-02 03:15:38 Terrasse 8.50 6.89 56.70
39885 2021-03-02 02:47:26 Terrasse 8.70 7.09 55.90
39884 2021-03-02 02:19:13 Terrasse 8.80 7.18 55.50
39883 2021-03-02 01:50:59 Terrasse 9.00 7.40 55.40
39882 2021-03-02 01:22:45 Terrasse 9.20 7.62 55.50
39881 2021-03-02 00:54:31 Terrasse 9.40 7.83 55.00
39880 2021-03-02 00:26:18 Terrasse 9.60 8.04 54.70
39879 2021-03-01 23:58:05 Terrasse 9.80 8.26 54.40
39878 2021-03-01 23:29:50 Terrasse 10.00 8.43 52.50
39877 2021-03-01 23:01:37 Terrasse 10.20 8.63 51.80
39876 2021-03-01 22:33:22 Terrasse 10.20 8.61 51.10
39875 2021-03-01 22:05:09 Terrasse 10.40 8.82 50.70
39874 2021-03-01 21:38:37 Terrasse 10.40 8.82 50.70
39873 2021-03-01 21:07:14 Terrasse 10.80 9.25 50.50
39872 2021-03-01 20:39:03 Terrasse 11.30 9.81 50.70
39871 2021-03-01 19:42:55 Terrasse 12.20 10.72 47.80
39870 2021-03-01 19:14:43 Terrasse 12.60 11.12 46.20
39869 2021-03-01 18:46:34 Terrasse 13.10 11.67 46.10
39868 2021-03-01 18:18:26 Terrasse 14.10 12.73 44.60
39867 2021-03-01 17:50:20 Terrasse 15.60 14.33 42.70
39866 2021-03-01 17:22:18 Terrasse 17.60 16.45 39.50
39865 2021-03-01 16:54:35 Terrasse 22.20 21.37 34.40
39864 2021-03-01 16:26:52 Terrasse 32.60 31.20 27.40
39863 2021-03-01 15:58:38 Terrasse 33.50 32.36 28.20
39862 2021-03-01 15:31:01 Terrasse 31.10 29.86 30.30
39861 2021-03-01 15:01:48 Terrasse 22.60 21.86 36.00
39860 2021-03-01 14:32:53 Terrasse 22.00 21.22 37.00
39859 2021-03-01 14:04:41 Terrasse 22.40 21.68 37.90
39858 2021-03-01 13:36:04 Terrasse 19.30 18.33 39.90
39857 2021-03-01 13:08:05 Terrasse 20.30 19.42 39.60
39856 2021-03-01 12:39:35 Terrasse 19.90 18.99 40.10
39855 2021-03-01 12:11:42 Terrasse 20.30 19.45 40.80
39854 2021-03-01 11:42:38 Terrasse 15.90 14.80 48.00
39853 2021-03-01 11:13:58 Terrasse 11.60 10.20 53.00
39852 2021-03-01 10:45:41 Terrasse 10.60 9.13 54.30
39851 2021-03-01 10:17:27 Terrasse 9.90 8.42 56.30
39850 2021-03-01 09:48:58 Terrasse 7.90 6.33 60.50
39849 2021-03-01 09:20:38 Terrasse 7.00 5.41 63.50
39848 2021-03-01 08:52:19 Terrasse 6.10 4.50 66.40
39847 2021-03-01 08:24:04 Terrasse 5.60 4.01 68.90
39846 2021-03-01 07:55:49 Terrasse 5.30 3.74 71.00
39845 2021-03-01 07:27:34 Terrasse 5.20 3.67 72.70
39844 2021-03-01 06:59:21 Terrasse 5.20 3.67 72.70
39843 2021-03-01 06:31:08 Terrasse 5.30 3.77 72.00
39842 2021-03-01 06:02:55 Terrasse 5.20 3.59 69.30
39841 2021-03-01 05:34:42 Terrasse 5.40 3.72 66.10
39840 2021-03-01 05:06:29 Terrasse 5.50 3.77 63.70
39839 2021-03-01 04:38:15 Terrasse 5.70 3.95 62.30
39838 2021-03-01 04:10:02 Terrasse 5.70 3.91 60.60
39837 2021-03-01 03:41:51 Terrasse 5.80 4.01 60.30
39836 2021-03-01 03:13:37 Terrasse 6.00 4.21 59.60
39835 2021-03-01 02:45:23 Terrasse 6.10 4.31 59.10
39834 2021-03-01 02:17:09 Terrasse 6.30 4.54 59.40
39833 2021-03-01 01:48:57 Terrasse 6.50 4.75 59.30
39832 2021-03-01 01:20:45 Terrasse 6.80 5.07 58.70
39831 2021-03-01 00:52:32 Terrasse 7.00 5.28 58.30
39830 2021-03-01 00:24:19 Terrasse 7.20 5.49 58.10
39829 2021-02-28 23:56:06 Terrasse 7.40 5.70 57.50
39828 2021-02-28 23:27:52 Terrasse 7.70 6.01 57.00
39827 2021-02-28 22:59:40 Terrasse 7.80 6.13 57.30
39826 2021-02-28 22:31:27 Terrasse 8.00 6.33 56.40
39825 2021-02-28 22:03:15 Terrasse 8.30 6.64 55.80
39824 2021-02-28 21:35:03 Terrasse 8.50 6.86 55.60
39823 2021-02-28 21:06:52 Terrasse 8.80 7.17 54.80
39822 2021-02-28 20:38:39 Terrasse 9.00 7.36 53.60
39821 2021-02-28 20:10:26 Terrasse 9.30 7.68 53.50
39820 2021-02-28 19:42:13 Terrasse 9.60 8.00 52.90
39819 2021-02-28 19:14:02 Terrasse 10.10 8.49 50.80
39818 2021-02-28 18:45:53 Terrasse 10.80 9.21 48.80
39817 2021-02-28 18:17:44 Terrasse 11.70 10.16 47.10
39816 2021-02-28 17:49:39 Terrasse 13.10 11.63 44.70
39815 2021-02-28 17:21:35 Terrasse 15.20 13.87 42.10
39814 2021-02-28 16:53:49 Terrasse 19.00 17.96 38.50
39813 2021-02-28 16:26:12 Terrasse 26.40 25.98 33.70
39812 2021-02-28 15:58:09 Terrasse 28.80 27.91 33.30
39811 2021-02-28 15:29:46 Terrasse 29.20 28.26 33.30
39810 2021-02-28 15:01:02 Terrasse 21.30 20.50 38.80
39809 2021-02-28 14:32:03 Terrasse 20.20 19.35 41.20
39808 2021-02-28 14:03:54 Terrasse 20.00 19.17 42.70
39807 2021-02-28 13:35:20 Terrasse 16.90 15.84 45.80
39806 2021-02-28 13:07:20 Terrasse 17.90 16.95 46.10
39805 2021-02-28 12:38:51 Terrasse 17.30 16.31 47.00
39804 2021-02-28 12:10:56 Terrasse 17.70 16.75 46.80
39803 2021-02-28 11:41:52 Terrasse 13.10 11.89 54.50
39802 2021-02-28 11:13:14 Terrasse 8.90 7.55 65.10
39801 2021-02-28 10:44:59 Terrasse 8.00 6.64 68.20
39800 2021-02-28 10:16:49 Terrasse 7.30 5.99 73.10
39799 2021-02-28 09:48:19 Terrasse 5.40 4.43 93.20
39798 2021-02-28 09:20:00 Terrasse 4.70 3.83 99.90
39797 2021-02-28 08:51:43 Terrasse 4.30 3.39 99.90
39796 2021-02-28 08:23:27 Terrasse 3.80 2.84 99.90
39795 2021-02-28 07:55:14 Terrasse 3.50 2.51 99.90
39794 2021-02-28 07:27:00 Terrasse 3.50 2.51 99.90
39793 2021-02-28 06:58:48 Terrasse 3.60 2.62 99.90
39792 2021-02-28 06:30:36 Terrasse 3.90 2.95 99.90
39791 2021-02-28 06:02:25 Terrasse 4.30 3.39 99.70
39790 2021-02-28 05:34:24 Terrasse 4.50 3.54 97.00
39789 2021-02-28 05:06:07 Terrasse 4.60 3.57 94.10
39788 2021-02-28 04:37:53 Terrasse 4.70 3.62 91.70
39787 2021-02-28 04:09:40 Terrasse 4.90 3.74 87.70
39786 2021-02-28 03:41:28 Terrasse 5.20 4.05 87.00
39785 2021-02-28 03:13:17 Terrasse 5.50 4.43 88.90
39784 2021-02-28 02:45:04 Terrasse 5.70 4.68 90.30
39783 2021-02-28 02:16:51 Terrasse 5.70 4.70 91.10
39782 2021-02-28 01:48:38 Terrasse 5.70 4.74 92.50
39781 2021-02-28 01:20:25 Terrasse 5.90 5.03 95.30
39780 2021-02-28 00:52:11 Terrasse 6.00 5.07 92.60
39779 2021-02-28 00:23:57 Terrasse 6.00 5.07 92.60
39778 2021-02-27 23:55:44 Terrasse 6.10 5.10 89.40
39777 2021-02-27 23:27:30 Terrasse 6.10 5.13 90.40
39776 2021-02-27 22:59:16 Terrasse 6.10 5.13 90.60
39775 2021-02-27 22:31:03 Terrasse 6.20 5.11 85.50
39774 2021-02-27 22:02:49 Terrasse 6.20 4.98 80.70
39773 2021-02-27 21:34:36 Terrasse 6.20 4.77 72.60
39772 2021-02-27 21:06:25 Terrasse 6.50 4.95 67.00
39771 2021-02-27 20:38:14 Terrasse 7.10 5.54 64.30
39770 2021-02-27 20:10:02 Terrasse 7.60 6.05 62.50
39769 2021-02-27 19:41:48 Terrasse 7.80 6.23 60.90
39768 2021-02-27 19:13:42 Terrasse 8.20 6.64 60.00
39767 2021-02-27 18:45:34 Terrasse 8.80 7.27 58.60
39766 2021-02-27 18:17:24 Terrasse 9.60 8.10 57.00
39765 2021-02-27 17:49:16 Terrasse 10.90 9.43 53.00
39764 2021-02-27 17:21:13 Terrasse 12.70 11.33 49.80
39763 2021-02-27 16:53:30 Terrasse 16.30 15.15 44.60
39762 2021-02-27 16:25:53 Terrasse 21.40 20.65 40.50
39761 2021-02-27 15:57:51 Terrasse 25.80 25.43 38.10
39760 2021-02-27 15:29:40 Terrasse 26.00 25.70 40.00
39759 2021-02-27 15:00:45 Terrasse 19.00 18.14 45.50
39758 2021-02-27 14:31:56 Terrasse 18.60 17.76 47.60
39757 2021-02-27 14:03:49 Terrasse 18.90 18.12 48.80
39756 2021-02-27 13:35:21 Terrasse 16.60 15.62 49.80
39755 2021-02-27 13:07:23 Terrasse 17.20 16.28 49.90
39754 2021-02-27 12:38:56 Terrasse 16.80 15.86 50.90
39753 2021-02-27 12:11:05 Terrasse 17.60 16.82 53.80
39752 2021-02-27 11:41:53 Terrasse 12.30 11.14 59.60
39751 2021-02-27 11:13:29 Terrasse 10.20 9.09 69.60
39750 2021-02-27 10:45:10 Terrasse 8.90 8.05 84.60
39749 2021-02-27 10:17:02 Terrasse 8.30 7.53 89.80
39748 2021-02-27 09:48:32 Terrasse 6.40 5.70 99.90
39747 2021-02-27 09:20:11 Terrasse 5.30 4.49 99.90
39746 2021-02-27 08:51:52 Terrasse 4.50 3.61 99.90
39745 2021-02-27 08:23:37 Terrasse 4.00 3.06 99.90
39744 2021-02-27 07:55:24 Terrasse 3.90 2.95 99.90
39743 2021-02-27 07:27:09 Terrasse 3.80 2.84 99.90
39742 2021-02-27 06:58:54 Terrasse 3.80 2.84 99.90
39741 2021-02-27 06:30:40 Terrasse 3.80 2.84 99.90
39740 2021-02-27 06:02:29 Terrasse 3.80 2.84 99.90
39739 2021-02-27 05:34:16 Terrasse 3.80 2.84 99.90
39738 2021-02-27 05:06:03 Terrasse 4.00 3.06 99.90
39737 2021-02-27 04:37:51 Terrasse 4.00 3.06 99.90
39736 2021-02-27 04:09:39 Terrasse 4.10 3.17 99.90
39735 2021-02-27 03:41:27 Terrasse 4.30 3.39 99.90
39734 2021-02-27 03:13:14 Terrasse 4.40 3.50 99.90
39733 2021-02-27 02:45:02 Terrasse 4.60 3.72 99.90
39732 2021-02-27 02:16:48 Terrasse 4.50 3.61 99.90
39731 2021-02-27 01:48:34 Terrasse 4.40 3.50 99.90
39730 2021-02-27 01:20:21 Terrasse 4.30 3.39 99.90
39729 2021-02-27 00:52:08 Terrasse 4.30 3.39 99.90
39728 2021-02-27 00:23:55 Terrasse 4.40 3.50 99.90
39727 2021-02-26 23:55:41 Terrasse 4.60 3.72 99.90
39726 2021-02-26 23:27:28 Terrasse 4.80 3.94 99.90
39725 2021-02-26 22:59:15 Terrasse 5.00 4.16 99.90
39724 2021-02-26 22:31:03 Terrasse 5.20 4.38 99.90
39723 2021-02-26 22:02:52 Terrasse 5.40 4.60 99.90
39722 2021-02-26 21:34:38 Terrasse 5.70 4.93 99.90
39721 2021-02-26 21:06:27 Terrasse 6.00 5.26 99.90
39720 2021-02-26 20:38:16 Terrasse 6.40 5.70 99.90
39719 2021-02-26 20:10:00 Terrasse 6.60 5.92 99.90
39718 2021-02-26 19:41:48 Terrasse 6.70 6.03 99.90
39717 2021-02-26 19:13:35 Terrasse 7.10 6.47 99.90
39716 2021-02-26 18:45:23 Terrasse 7.30 6.69 99.90
39715 2021-02-26 18:17:13 Terrasse 7.60 7.02 99.90
39714 2021-02-26 17:49:03 Terrasse 8.10 7.57 99.90
39713 2021-02-26 17:20:49 Terrasse 8.20 7.68 99.90
39712 2021-02-26 16:52:36 Terrasse 8.30 7.79 99.90
39711 2021-02-26 16:24:24 Terrasse 8.30 7.79 99.90
39710 2021-02-26 15:56:08 Terrasse 8.30 7.79 99.90
39709 2021-02-26 15:27:55 Terrasse 8.30 7.79 99.90
39708 2021-02-26 14:59:40 Terrasse 8.30 7.79 99.90
39707 2021-02-26 14:31:24 Terrasse 8.00 7.46 99.90
39706 2021-02-26 14:03:10 Terrasse 8.00 7.46 99.90
39705 2021-02-26 13:34:59 Terrasse 8.30 7.79 99.90
39704 2021-02-26 13:06:45 Terrasse 8.30 7.79 99.90
39703 2021-02-26 12:38:31 Terrasse 8.50 8.01 99.90
39702 2021-02-26 12:10:18 Terrasse 8.60 8.12 99.90
39701 2021-02-26 11:42:05 Terrasse 8.80 8.34 99.90
39700 2021-02-26 11:13:54 Terrasse 9.00 8.56 99.90
39699 2021-02-26 10:47:51 Terrasse 9.40 9.00 99.90
39698 2021-02-26 10:10:28 Terrasse 9.80 9.44 99.90
39697 2021-02-26 09:42:15 Terrasse 10.00 9.66 99.90
39696 2021-02-26 09:14:03 Terrasse 10.10 9.77 99.90
39695 2021-02-26 08:45:48 Terrasse 9.90 9.55 99.90
39694 2021-02-26 08:17:34 Terrasse 9.80 9.44 99.90
39693 2021-02-26 07:49:19 Terrasse 9.60 9.22 99.90
39692 2021-02-26 07:21:06 Terrasse 9.50 9.11 99.90
39691 2021-02-26 06:52:53 Terrasse 9.60 9.22 99.90
39690 2021-02-26 06:24:38 Terrasse 9.50 9.11 99.90
39689 2021-02-26 05:56:25 Terrasse 9.60 9.22 99.90
39688 2021-02-26 05:28:13 Terrasse 9.80 9.44 99.90
39687 2021-02-26 04:59:59 Terrasse 10.00 9.66 99.90
39686 2021-02-26 04:31:46 Terrasse 10.10 9.37 84.60
39685 2021-02-26 04:03:32 Terrasse 10.20 9.03 67.20
39684 2021-02-26 03:35:20 Terrasse 10.40 9.12 62.30
39683 2021-02-26 03:07:07 Terrasse 10.50 9.16 59.70
39682 2021-02-26 02:39:07 Terrasse 10.50 9.15 59.20
39681 2021-02-26 02:10:47 Terrasse 10.40 9.00 57.50
39680 2021-02-26 01:42:34 Terrasse 10.40 9.02 58.30
39679 2021-02-26 01:14:22 Terrasse 10.70 9.30 56.50
39678 2021-02-26 00:46:10 Terrasse 11.10 9.71 55.50
39677 2021-02-26 00:17:58 Terrasse 11.40 10.04 55.20
39676 2021-02-25 23:49:46 Terrasse 11.90 10.55 53.80
39675 2021-02-25 23:21:33 Terrasse 12.30 10.89 50.00
39674 2021-02-25 22:53:16 Terrasse 12.00 10.58 50.80
39673 2021-02-25 22:25:01 Terrasse 11.90 10.57 54.50
39672 2021-02-25 21:56:47 Terrasse 12.20 10.91 55.10
39671 2021-02-25 21:28:34 Terrasse 12.40 11.16 56.10
39670 2021-02-25 21:00:21 Terrasse 12.70 11.49 56.20
39669 2021-02-25 20:32:08 Terrasse 13.00 11.84 57.00
39668 2021-02-25 20:03:56 Terrasse 13.50 12.35 55.40
39667 2021-02-25 19:35:45 Terrasse 14.00 12.88 54.60
39666 2021-02-25 19:07:35 Terrasse 14.60 13.53 54.00
39665 2021-02-25 18:39:30 Terrasse 15.50 14.48 52.50
39664 2021-02-25 18:11:20 Terrasse 16.70 15.77 51.40
39663 2021-02-25 17:43:16 Terrasse 18.40 17.54 47.80
39662 2021-02-25 17:15:19 Terrasse 20.30 19.49 42.40
39661 2021-02-25 16:47:53 Terrasse 23.70 23.11 37.60
39660 2021-02-25 16:19:48 Terrasse 30.00 28.92 32.20
39659 2021-02-25 15:51:41 Terrasse 31.70 30.78 32.60
39658 2021-02-25 15:23:16 Terrasse 30.50 29.62 34.30
39657 2021-02-25 14:54:43 Terrasse 25.30 24.98 41.80
39656 2021-02-25 14:25:57 Terrasse 23.70 23.31 45.50
39655 2021-02-25 13:57:39 Terrasse 22.50 22.04 47.40
39654 2021-02-25 13:29:18 Terrasse 21.30 20.72 47.40
39653 2021-02-25 13:00:58 Terrasse 22.70 22.23 46.30
39652 2021-02-25 12:32:48 Terrasse 23.30 22.77 41.50
39651 2021-02-25 12:04:23 Terrasse 22.40 21.93 47.30
39650 2021-02-25 11:36:14 Terrasse 22.50 22.02 46.50
39649 2021-02-25 11:07:41 Terrasse 20.50 20.00 53.30
39648 2021-02-25 10:39:26 Terrasse 19.20 18.63 55.70
39647 2021-02-25 10:10:45 Terrasse 14.90 14.11 63.80
39646 2021-02-25 09:42:06 Terrasse 13.40 13.40 99.90
39645 2021-02-25 09:13:41 Terrasse 10.40 10.10 99.90
39644 2021-02-25 08:45:21 Terrasse 9.30 8.89 99.90
39643 2021-02-25 08:17:05 Terrasse 8.90 8.45 99.90
39642 2021-02-25 07:48:50 Terrasse 8.80 8.34 99.90
39641 2021-02-25 07:20:36 Terrasse 8.80 8.34 99.90
39640 2021-02-25 06:52:23 Terrasse 9.00 8.56 99.90
39639 2021-02-25 06:24:09 Terrasse 9.20 8.78 99.90
39638 2021-02-25 05:55:56 Terrasse 9.40 9.00 99.90
39637 2021-02-25 05:27:43 Terrasse 9.60 9.22 99.90
39636 2021-02-25 04:59:30 Terrasse 9.70 9.33 99.90
39635 2021-02-25 04:31:16 Terrasse 9.80 9.44 99.90
39634 2021-02-25 04:03:03 Terrasse 10.10 9.77 99.90
39633 2021-02-25 03:34:49 Terrasse 10.20 9.88 99.90
39632 2021-02-25 03:06:36 Terrasse 10.50 10.21 99.90
39631 2021-02-25 02:38:21 Terrasse 10.70 10.43 99.90
39630 2021-02-25 02:10:07 Terrasse 10.80 10.54 99.90
39629 2021-02-25 01:41:52 Terrasse 11.00 10.76 99.90
39628 2021-02-25 01:13:39 Terrasse 11.20 10.98 99.90
39627 2021-02-25 00:45:26 Terrasse 11.40 11.20 99.90
39626 2021-02-25 00:17:11 Terrasse 11.60 11.42 99.90
39625 2021-02-24 23:48:58 Terrasse 11.80 11.64 99.90
39624 2021-02-24 23:20:45 Terrasse 11.90 11.75 99.90
39623 2021-02-24 22:52:33 Terrasse 12.10 11.97 99.90
39622 2021-02-24 22:24:20 Terrasse 12.30 12.19 99.90
39621 2021-02-24 21:56:06 Terrasse 12.50 12.41 99.90
39620 2021-02-24 21:27:53 Terrasse 12.80 12.74 99.90
39619 2021-02-24 20:59:40 Terrasse 13.10 13.07 99.90
39618 2021-02-24 20:31:29 Terrasse 13.30 13.29 99.90
39617 2021-02-24 20:03:17 Terrasse 13.60 13.62 99.90
39616 2021-02-24 19:35:07 Terrasse 14.00 14.06 99.90
39615 2021-02-24 19:06:56 Terrasse 14.50 14.51 95.90
39614 2021-02-24 18:38:46 Terrasse 15.20 14.92 82.10
39613 2021-02-24 18:10:34 Terrasse 16.10 15.58 69.60
39612 2021-02-24 17:42:25 Terrasse 17.20 16.67 64.80
39611 2021-02-24 17:14:17 Terrasse 18.40 17.87 60.30
39610 2021-02-24 16:46:09 Terrasse 19.70 19.21 57.00
39609 2021-02-24 16:18:02 Terrasse 22.10 21.77 53.70
39608 2021-02-24 15:49:41 Terrasse 22.30 22.00 54.30
39607 2021-02-24 15:21:27 Terrasse 21.60 21.25 54.90
39606 2021-02-24 14:53:11 Terrasse 21.60 21.24 54.50
39605 2021-02-24 14:24:57 Terrasse 22.00 21.67 54.20
39604 2021-02-24 13:56:40 Terrasse 21.90 21.56 54.20
39603 2021-02-24 13:28:23 Terrasse 21.70 21.41 57.00
39602 2021-02-24 12:59:56 Terrasse 21.00 20.65 57.10
39601 2021-02-24 12:31:42 Terrasse 22.00 21.70 55.20
39600 2021-02-24 12:03:17 Terrasse 21.10 20.78 58.10
39599 2021-02-24 11:35:06 Terrasse 21.00 20.69 58.70
39598 2021-02-24 11:06:36 Terrasse 18.90 18.58 66.60
39597 2021-02-24 10:38:16 Terrasse 17.70 17.44 73.20
39596 2021-02-24 10:09:51 Terrasse 14.80 14.94 99.90
39595 2021-02-24 09:41:11 Terrasse 13.10 13.07 99.90
39594 2021-02-24 09:12:47 Terrasse 11.00 10.76 99.90
39593 2021-02-24 08:44:29 Terrasse 9.90 9.55 99.90
39592 2021-02-24 08:16:12 Terrasse 9.30 8.89 99.90
39591 2021-02-24 07:47:55 Terrasse 9.10 8.67 99.90
39590 2021-02-24 07:19:41 Terrasse 9.00 8.56 99.90
39589 2021-02-24 06:51:27 Terrasse 8.60 8.12 99.90
39588 2021-02-24 06:23:13 Terrasse 9.20 8.78 99.90
39587 2021-02-24 05:55:00 Terrasse 9.50 9.11 99.90
39586 2021-02-24 05:26:47 Terrasse 9.60 9.22 99.90
39585 2021-02-24 04:58:35 Terrasse 9.70 9.33 99.90
39584 2021-02-24 04:30:22 Terrasse 9.70 9.33 99.90
39583 2021-02-24 04:02:10 Terrasse 10.00 9.66 99.90
39582 2021-02-24 03:33:58 Terrasse 10.10 9.77 99.90
39581 2021-02-24 03:05:44 Terrasse 10.20 9.88 99.90
39580 2021-02-24 02:37:30 Terrasse 10.30 9.99 99.90
39579 2021-02-24 02:09:17 Terrasse 10.40 10.10 99.90
39578 2021-02-24 01:41:03 Terrasse 10.60 10.32 99.90
39577 2021-02-24 01:12:50 Terrasse 10.80 10.54 99.90
39576 2021-02-24 00:44:38 Terrasse 11.10 10.87 99.90
39575 2021-02-24 00:16:24 Terrasse 11.20 10.98 99.90
39574 2021-02-23 23:48:12 Terrasse 11.40 11.20 99.90
39573 2021-02-23 23:19:57 Terrasse 11.60 11.42 99.90
39572 2021-02-23 22:51:43 Terrasse 11.80 11.64 99.90
39571 2021-02-23 22:23:29 Terrasse 12.00 11.86 99.90
39570 2021-02-23 21:55:15 Terrasse 12.30 12.19 99.90
39569 2021-02-23 21:27:02 Terrasse 12.50 12.41 99.90
39568 2021-02-23 20:58:48 Terrasse 12.80 12.74 99.90
39567 2021-02-23 20:30:39 Terrasse 13.20 13.18 99.90
39566 2021-02-23 20:02:24 Terrasse 13.60 13.62 99.90
39565 2021-02-23 19:34:11 Terrasse 14.00 13.95 95.60
39564 2021-02-23 19:05:58 Terrasse 14.50 14.14 81.60
39563 2021-02-23 18:37:47 Terrasse 15.30 14.65 67.70
39562 2021-02-23 18:09:38 Terrasse 16.40 15.74 62.80
39561 2021-02-23 17:41:29 Terrasse 17.40 16.76 60.00
39560 2021-02-23 17:13:20 Terrasse 18.60 18.02 57.80
39559 2021-02-23 16:45:14 Terrasse 20.10 19.61 55.30
39558 2021-02-23 16:17:12 Terrasse 23.30 23.00 50.50
39557 2021-02-23 15:49:05 Terrasse 25.10 24.90 47.30
39556 2021-02-23 15:20:51 Terrasse 25.70 25.61 49.10
39555 2021-02-23 14:52:34 Terrasse 25.30 25.16 48.70
39554 2021-02-23 14:24:02 Terrasse 22.10 21.75 53.10
39553 2021-02-23 13:55:45 Terrasse 21.40 21.00 53.70
39552 2021-02-23 13:27:35 Terrasse 21.60 21.21 53.40
39551 2021-02-23 12:59:05 Terrasse 21.40 21.00 53.70
39550 2021-02-23 12:30:54 Terrasse 21.50 21.11 53.90
39549 2021-02-23 12:02:27 Terrasse 20.30 19.89 57.60
39548 2021-02-23 11:34:15 Terrasse 19.80 19.35 58.00
39547 2021-02-23 11:05:44 Terrasse 17.60 17.11 64.90
39546 2021-02-23 10:37:24 Terrasse 16.40 15.94 70.70
39545 2021-02-23 10:08:53 Terrasse 13.00 12.95 99.30
39544 2021-02-23 09:40:15 Terrasse 11.30 11.09 99.90
39543 2021-02-23 09:11:53 Terrasse 10.00 9.66 99.90
39542 2021-02-23 08:43:32 Terrasse 9.00 8.56 99.90
39541 2021-02-23 08:15:16 Terrasse 8.40 7.90 99.90
39540 2021-02-23 07:47:01 Terrasse 8.20 7.68 99.90
39539 2021-02-23 07:18:48 Terrasse 8.30 7.79 99.90
39538 2021-02-23 06:50:34 Terrasse 8.50 8.01 99.90
39537 2021-02-23 06:22:20 Terrasse 8.50 8.01 99.90
39536 2021-02-23 05:54:05 Terrasse 8.40 7.90 99.90
39535 2021-02-23 05:25:51 Terrasse 8.40 7.90 99.90
39534 2021-02-23 04:57:36 Terrasse 8.50 8.01 99.90
39533 2021-02-23 04:29:21 Terrasse 8.50 8.01 99.90
39532 2021-02-23 02:08:39 Terrasse 8.00 7.46 99.90
39531 2021-02-23 01:40:26 Terrasse 8.00 7.46 99.90
39530 2021-02-23 01:12:12 Terrasse 8.30 7.79 99.90
39529 2021-02-23 00:43:57 Terrasse 7.80 7.24 99.90
39528 2021-02-23 00:15:43 Terrasse 7.70 7.13 99.90
39527 2021-02-22 23:47:29 Terrasse 8.00 7.46 99.90
39526 2021-02-22 23:19:16 Terrasse 8.00 7.46 99.90
39525 2021-02-22 22:51:02 Terrasse 8.20 7.68 99.90
39524 2021-02-22 22:22:50 Terrasse 8.40 7.90 99.90
39523 2021-02-22 21:54:37 Terrasse 8.50 8.01 99.90
39522 2021-02-22 21:26:23 Terrasse 8.60 8.12 99.90
39521 2021-02-22 20:58:10 Terrasse 8.50 8.01 99.90
39520 2021-02-22 20:29:57 Terrasse 8.80 8.34 99.90
39519 2021-02-22 20:01:44 Terrasse 9.10 8.67 99.90
39518 2021-02-22 19:33:33 Terrasse 9.40 9.00 99.90
39517 2021-02-22 19:05:22 Terrasse 9.90 9.55 99.90
39516 2021-02-22 18:37:12 Terrasse 10.50 9.82 84.70
39515 2021-02-22 18:09:03 Terrasse 11.40 10.39 68.70
39514 2021-02-22 17:40:53 Terrasse 12.30 11.26 64.30
39513 2021-02-22 17:12:45 Terrasse 13.40 12.39 61.10
39512 2021-02-22 16:44:39 Terrasse 14.50 13.53 58.30
39511 2021-02-22 16:16:22 Terrasse 14.40 13.42 58.30
39510 2021-02-22 15:48:17 Terrasse 15.60 14.68 55.90
39509 2021-02-22 15:20:02 Terrasse 16.70 15.88 55.80
39508 2021-02-22 14:51:39 Terrasse 13.90 12.87 58.30
39507 2021-02-22 14:23:29 Terrasse 14.60 13.60 56.80
39506 2021-02-22 13:55:18 Terrasse 15.30 14.32 55.00
39505 2021-02-22 13:27:21 Terrasse 17.50 16.70 53.50
39504 2021-02-22 12:58:57 Terrasse 18.00 17.25 53.30
39503 2021-02-22 12:30:40 Terrasse 17.10 16.29 54.60
39502 2021-02-22 12:02:20 Terrasse 16.60 15.79 56.60
39501 2021-02-22 11:34:01 Terrasse 15.00 14.11 59.40
39500 2021-02-22 11:05:42 Terrasse 13.10 12.11 62.90
39499 2021-02-22 10:37:24 Terrasse 13.30 12.38 64.90
39498 2021-02-22 10:08:49 Terrasse 9.90 9.38 93.20
39497 2021-02-22 09:40:25 Terrasse 8.80 8.34 99.90
39496 2021-02-22 09:12:09 Terrasse 8.20 7.68 99.90
39495 2021-02-22 08:43:51 Terrasse 7.60 7.02 99.90
39494 2021-02-22 08:15:33 Terrasse 7.00 6.36 99.90
39493 2021-02-22 07:47:17 Terrasse 6.70 6.03 99.90
39492 2021-02-22 07:19:02 Terrasse 6.50 5.81 99.90
39491 2021-02-22 06:50:51 Terrasse 6.40 5.70 99.90
39490 2021-02-22 06:22:38 Terrasse 6.60 5.92 99.90
39489 2021-02-22 05:54:27 Terrasse 6.90 6.25 99.90
39488 2021-02-22 05:26:15 Terrasse 7.60 7.02 99.90
39487 2021-02-22 04:58:04 Terrasse 7.80 7.24 99.90
39486 2021-02-22 04:29:53 Terrasse 8.30 7.71 96.50
39485 2021-02-22 04:01:40 Terrasse 8.50 7.84 93.10
39484 2021-02-22 03:33:26 Terrasse 8.60 7.88 90.50
39483 2021-02-22 03:05:15 Terrasse 9.10 8.30 85.70
39482 2021-02-22 02:37:02 Terrasse 9.50 8.73 85.10
39481 2021-02-22 02:08:50 Terrasse 9.60 8.72 80.60
39480 2021-02-22 01:40:38 Terrasse 10.10 9.10 73.90
39479 2021-02-22 01:12:26 Terrasse 10.30 9.24 71.10
39478 2021-02-22 00:44:13 Terrasse 10.60 9.54 70.00
39477 2021-02-22 00:16:00 Terrasse 10.80 9.78 70.50
39476 2021-02-21 23:47:45 Terrasse 11.00 10.00 70.60
39475 2021-02-21 23:19:33 Terrasse 11.30 10.29 69.30
39474 2021-02-21 22:51:21 Terrasse 11.70 10.69 67.70
39473 2021-02-21 22:23:07 Terrasse 11.90 10.88 66.30
39472 2021-02-21 21:54:52 Terrasse 12.10 11.03 63.60
39471 2021-02-21 21:26:39 Terrasse 12.30 11.19 61.30
39470 2021-02-21 20:58:28 Terrasse 12.70 11.58 59.50
39469 2021-02-21 20:30:14 Terrasse 13.10 11.97 57.70
39468 2021-02-21 20:02:01 Terrasse 13.40 12.26 55.90
39467 2021-02-21 19:33:48 Terrasse 13.90 12.74 53.60
39466 2021-02-21 19:05:41 Terrasse 14.20 13.04 52.40
39465 2021-02-21 18:37:28 Terrasse 14.40 13.24 51.50
39464 2021-02-21 18:09:20 Terrasse 15.70 14.64 50.50
39463 2021-02-21 17:41:13 Terrasse 17.40 16.42 47.00
39462 2021-02-21 17:13:08 Terrasse 19.10 18.23 44.70
39461 2021-02-21 16:45:13 Terrasse 21.40 20.62 39.30
39460 2021-02-21 16:17:21 Terrasse 27.90 27.15 32.60
39459 2021-02-21 15:49:05 Terrasse 29.00 28.07 33.10
39458 2021-02-21 15:20:26 Terrasse 27.30 26.97 37.70
39457 2021-02-21 14:52:00 Terrasse 22.50 21.83 39.40
39456 2021-02-21 14:23:44 Terrasse 21.90 21.24 42.00
39455 2021-02-21 13:55:25 Terrasse 21.20 20.58 46.10
39454 2021-02-21 13:27:23 Terrasse 21.80 21.25 46.50
39453 2021-02-21 12:58:47 Terrasse 21.40 20.88 49.30
39452 2021-02-21 12:30:41 Terrasse 22.20 21.76 49.20
39451 2021-02-21 12:02:20 Terrasse 21.00 20.51 51.80
39450 2021-02-21 11:34:15 Terrasse 21.80 21.40 52.40
39449 2021-02-21 11:05:33 Terrasse 18.60 18.00 56.70
39448 2021-02-21 10:37:10 Terrasse 16.90 16.28 62.60
39447 2021-02-21 10:08:35 Terrasse 12.10 11.51 82.20
39446 2021-02-21 09:39:42 Terrasse 9.10 8.67 99.90
39445 2021-02-21 09:11:18 Terrasse 7.50 6.91 99.90
39444 2021-02-21 08:43:00 Terrasse 6.50 5.81 99.90
39443 2021-02-21 08:14:46 Terrasse 6.30 5.59 99.90
39442 2021-02-21 07:46:32 Terrasse 6.30 5.59 99.90
39441 2021-02-21 07:18:21 Terrasse 6.50 5.81 99.90
39440 2021-02-21 06:50:07 Terrasse 6.50 5.81 99.90
39439 2021-02-21 06:21:53 Terrasse 6.60 5.92 99.90
39438 2021-02-21 05:53:40 Terrasse 6.80 6.14 99.90
39437 2021-02-21 05:25:26 Terrasse 6.90 6.25 99.90
39436 2021-02-21 04:57:13 Terrasse 7.10 6.47 99.90
39435 2021-02-21 04:29:01 Terrasse 7.30 6.69 99.90
39434 2021-02-21 04:00:49 Terrasse 7.50 6.91 99.90
39433 2021-02-21 03:32:36 Terrasse 7.60 7.02 99.90
39432 2021-02-21 03:04:22 Terrasse 7.80 7.24 99.90
39431 2021-02-21 02:36:09 Terrasse 8.00 7.46 99.90
39430 2021-02-21 02:07:56 Terrasse 8.20 7.68 99.90
39429 2021-02-21 01:39:42 Terrasse 8.40 7.90 99.90
39428 2021-02-21 01:11:28 Terrasse 8.50 8.01 99.90
39427 2021-02-21 00:43:15 Terrasse 8.70 8.23 99.90
39426 2021-02-21 00:15:02 Terrasse 8.80 8.34 99.90
39425 2021-02-20 23:46:48 Terrasse 9.00 8.56 99.90
39424 2021-02-20 23:18:34 Terrasse 9.20 8.78 99.90
39423 2021-02-20 22:50:21 Terrasse 9.40 9.00 99.90
39422 2021-02-20 21:23:22 Terrasse 10.10 9.77 99.90
39421 2021-02-20 20:55:09 Terrasse 10.40 10.10 99.90
39420 2021-02-20 20:26:57 Terrasse 10.90 10.65 99.90
39419 2021-02-20 19:58:46 Terrasse 11.10 10.87 99.90
39418 2021-02-20 19:30:34 Terrasse 11.50 11.13 92.90
39417 2021-02-20 19:02:23 Terrasse 12.00 11.40 82.00
39416 2021-02-20 18:34:11 Terrasse 12.70 11.82 68.60
39415 2021-02-20 18:06:01 Terrasse 13.70 12.80 64.20
39414 2021-02-20 17:37:54 Terrasse 15.10 14.22 59.60
39413 2021-02-20 17:09:46 Terrasse 16.20 15.37 57.30
39412 2021-02-20 16:41:44 Terrasse 18.10 17.37 53.90
39411 2021-02-20 16:13:40 Terrasse 21.70 21.21 49.10
39410 2021-02-20 15:45:27 Terrasse 23.90 23.63 49.30
39409 2021-02-20 15:16:54 Terrasse 20.20 19.76 56.80
39408 2021-02-20 14:48:33 Terrasse 18.10 17.50 58.90
39407 2021-02-20 14:20:19 Terrasse 18.20 17.64 59.80
39406 2021-02-20 13:51:50 Terrasse 17.60 17.03 61.80
39405 2021-02-20 12:55:30 Terrasse 18.10 17.55 60.80
39404 2021-02-20 12:27:13 Terrasse 18.10 17.60 62.70
39403 2021-02-20 11:58:56 Terrasse 18.40 17.96 63.80
39402 2021-02-20 11:30:40 Terrasse 17.80 17.33 65.00
39401 2021-02-20 11:02:02 Terrasse 15.40 15.22 85.10
39400 2021-02-20 10:33:39 Terrasse 13.60 13.62 99.90
39399 2021-02-20 10:05:13 Terrasse 11.50 11.31 99.90
39398 2021-02-20 09:36:27 Terrasse 8.50 8.01 99.90
39397 2021-02-20 09:08:11 Terrasse 7.50 6.91 99.90
39396 2021-02-20 08:39:53 Terrasse 6.70 6.03 99.90
39395 2021-02-20 08:11:36 Terrasse 6.30 5.59 99.90
39394 2021-02-20 07:43:22 Terrasse 6.10 5.37 99.90
39393 2021-02-20 07:15:07 Terrasse 6.00 5.26 99.90
39392 2021-02-20 06:46:54 Terrasse 6.00 5.26 99.90
39391 2021-02-20 06:18:41 Terrasse 6.10 5.37 99.90
39390 2021-02-20 05:50:27 Terrasse 6.30 5.59 99.90
39389 2021-02-20 05:22:12 Terrasse 6.30 5.59 99.90
39388 2021-02-20 04:54:01 Terrasse 6.60 5.92 99.90
39387 2021-02-20 04:25:48 Terrasse 7.00 6.36 99.90
39386 2021-02-20 03:57:33 Terrasse 7.20 6.58 99.90
39385 2021-02-20 03:29:21 Terrasse 7.10 6.47 99.90
39384 2021-02-20 03:01:08 Terrasse 7.20 6.58 99.90
39383 2021-02-20 02:32:53 Terrasse 7.20 6.58 99.90
39382 2021-02-20 02:04:40 Terrasse 7.20 6.58 99.90
39381 2021-02-20 01:36:27 Terrasse 7.40 6.80 99.90
39380 2021-02-20 01:08:12 Terrasse 7.40 6.80 99.90
39379 2021-02-20 00:39:59 Terrasse 7.40 6.80 99.90
39378 2021-02-19 23:41:07 Terrasse 7.20 6.58 99.90
39377 2021-02-19 23:12:53 Terrasse 6.90 6.25 99.90
39376 2021-02-19 22:44:40 Terrasse 7.00 6.36 99.90
39375 2021-02-19 22:16:25 Terrasse 7.10 6.47 99.90
39374 2021-02-19 21:48:13 Terrasse 7.20 6.58 99.90
39373 2021-02-19 21:20:00 Terrasse 7.40 6.80 99.90
39372 2021-02-19 20:51:47 Terrasse 7.50 6.91 99.90
39371 2021-02-19 20:23:35 Terrasse 7.70 7.13 99.90
39370 2021-02-19 19:55:23 Terrasse 7.80 7.24 99.90
39369 2021-02-19 19:27:11 Terrasse 8.20 7.68 99.90
39368 2021-02-19 18:58:59 Terrasse 8.70 8.23 99.90
39367 2021-02-19 18:30:47 Terrasse 9.10 8.67 99.90
39366 2021-02-19 18:02:39 Terrasse 10.20 9.88 99.90
39365 2021-02-19 17:34:29 Terrasse 11.10 10.87 99.90
39364 2021-02-19 17:06:19 Terrasse 11.90 11.30 82.50
39363 2021-02-19 16:38:13 Terrasse 13.10 12.20 66.30
39362 2021-02-19 16:10:05 Terrasse 15.20 14.40 62.40
39361 2021-02-19 15:42:01 Terrasse 16.30 15.54 59.40
39360 2021-02-19 15:13:33 Terrasse 14.10 13.19 62.30
39359 2021-02-19 14:45:31 Terrasse 18.10 17.47 57.80
39358 2021-02-19 14:17:23 Terrasse 19.20 18.65 56.40
39357 2021-02-19 13:48:46 Terrasse 15.40 14.54 59.30
39356 2021-02-19 13:20:40 Terrasse 17.80 17.15 57.90
39355 2021-02-19 12:51:47 Terrasse 13.30 12.74 78.50
39354 2021-02-19 12:23:28 Terrasse 11.20 10.73 90.10
39353 2021-02-19 11:55:13 Terrasse 12.90 12.23 76.00
39352 2021-02-19 11:26:30 Terrasse 9.20 8.78 99.90
39351 2021-02-19 10:58:12 Terrasse 8.00 7.46 99.90
39350 2021-02-19 10:29:57 Terrasse 7.20 6.58 99.90
39349 2021-02-19 10:01:41 Terrasse 6.00 5.26 99.90
39348 2021-02-19 09:33:20 Terrasse 4.90 4.05 99.90
39347 2021-02-19 09:05:03 Terrasse 4.20 3.28 99.90
39346 2021-02-19 08:36:46 Terrasse 3.40 2.40 99.90
39345 2021-02-19 08:08:33 Terrasse 3.30 2.29 99.90
39344 2021-02-19 07:40:18 Terrasse 3.60 2.62 99.90
39343 2021-02-19 07:12:04 Terrasse 3.70 2.73 99.90
39342 2021-02-19 06:43:50 Terrasse 3.60 2.62 99.90
39341 2021-02-19 06:15:38 Terrasse 3.70 2.73 99.90
39340 2021-02-19 05:47:24 Terrasse 3.80 2.84 99.90
39339 2021-02-19 05:19:11 Terrasse 3.50 2.51 99.90
39338 2021-02-19 04:50:58 Terrasse 3.70 2.73 99.90
39337 2021-02-19 04:22:48 Terrasse 4.20 3.28 99.90
39336 2021-02-19 03:54:37 Terrasse 4.70 3.83 99.90
39335 2021-02-19 03:26:27 Terrasse 5.20 4.38 99.90
39334 2021-02-19 02:58:13 Terrasse 5.50 4.71 99.90
39333 2021-02-19 02:30:01 Terrasse 5.70 4.93 99.90
39332 2021-02-19 02:01:48 Terrasse 5.80 5.04 99.90
39331 2021-02-19 01:33:35 Terrasse 6.10 5.37 99.90
39330 2021-02-19 01:05:23 Terrasse 6.40 5.70 99.90
39329 2021-02-19 00:37:11 Terrasse 7.00 6.36 99.90
39328 2021-02-19 00:08:58 Terrasse 7.20 6.58 99.90
39327 2021-02-18 23:40:46 Terrasse 7.40 6.80 99.90
39326 2021-02-18 23:12:33 Terrasse 7.60 7.02 99.90
39325 2021-02-18 22:44:20 Terrasse 7.80 7.24 99.90
39324 2021-02-18 22:16:06 Terrasse 7.90 7.35 99.90
39323 2021-02-18 21:47:50 Terrasse 7.70 7.13 99.90
39322 2021-02-18 21:19:34 Terrasse 7.40 6.80 99.90
39321 2021-02-18 20:51:18 Terrasse 7.20 6.58 99.90
39320 2021-02-18 20:23:05 Terrasse 7.10 6.47 99.90
39319 2021-02-18 19:55:02 Terrasse 7.20 6.58 99.90
39318 2021-02-18 19:26:46 Terrasse 7.50 6.91 99.90
39317 2021-02-18 18:58:33 Terrasse 7.80 7.24 99.90
39316 2021-02-18 18:30:20 Terrasse 8.00 7.46 99.90
39315 2021-02-18 18:02:06 Terrasse 8.20 7.68 99.90
39314 2021-02-18 17:33:54 Terrasse 8.70 8.23 99.90
39313 2021-02-18 17:05:51 Terrasse 9.20 8.78 99.90
39312 2021-02-18 16:37:33 Terrasse 9.00 8.56 99.90
39311 2021-02-18 16:09:19 Terrasse 9.20 8.78 99.90
39310 2021-02-18 15:41:08 Terrasse 9.60 9.22 99.90
39309 2021-02-18 15:12:56 Terrasse 9.80 9.44 99.90
39308 2021-02-18 14:44:44 Terrasse 10.10 9.54 90.80
39307 2021-02-18 14:16:29 Terrasse 10.00 9.65 99.30
39306 2021-02-18 13:48:16 Terrasse 10.00 9.37 88.60
39305 2021-02-18 13:20:05 Terrasse 10.70 9.96 81.70
39304 2021-02-18 12:51:50 Terrasse 10.60 9.93 84.70
39303 2021-02-18 12:23:38 Terrasse 10.90 10.11 79.20
39302 2021-02-18 11:55:10 Terrasse 9.20 8.78 99.90
39301 2021-02-18 11:26:53 Terrasse 8.50 8.01 99.90
39300 2021-02-18 10:58:37 Terrasse 8.10 7.57 99.90
39299 2021-02-18 10:30:21 Terrasse 7.80 7.24 99.90
39298 2021-02-18 10:02:07 Terrasse 7.60 7.02 99.90
39297 2021-02-18 09:33:46 Terrasse 6.50 5.81 99.90
39296 2021-02-18 09:05:27 Terrasse 5.70 4.93 99.90
39295 2021-02-18 08:37:10 Terrasse 4.80 3.94 99.90
39294 2021-02-18 08:08:54 Terrasse 4.40 3.50 99.90
39293 2021-02-18 07:40:40 Terrasse 4.20 3.28 99.90
39292 2021-02-18 07:12:25 Terrasse 4.20 3.28 99.90
39291 2021-02-18 06:44:12 Terrasse 3.90 2.95 99.90
39290 2021-02-18 06:15:58 Terrasse 3.80 2.84 99.90
39289 2021-02-18 05:47:44 Terrasse 3.80 2.84 99.90
39288 2021-02-18 05:19:31 Terrasse 4.00 3.06 99.90
39287 2021-02-18 04:51:17 Terrasse 4.20 3.28 99.90
39286 2021-02-18 04:23:04 Terrasse 4.30 3.39 99.90
39285 2021-02-18 03:54:52 Terrasse 4.50 3.61 99.90
39284 2021-02-18 03:26:39 Terrasse 4.60 3.72 99.90
39283 2021-02-18 02:58:24 Terrasse 4.50 3.61 99.90
39282 2021-02-18 02:30:10 Terrasse 4.50 3.61 99.90
39281 2021-02-18 02:01:57 Terrasse 4.50 3.61 99.90
39280 2021-02-18 01:33:43 Terrasse 4.60 3.72 99.90
39279 2021-02-18 01:05:31 Terrasse 4.80 3.94 99.90
39278 2021-02-18 00:37:17 Terrasse 5.10 4.27 99.90
39277 2021-02-18 00:09:04 Terrasse 5.20 4.38 99.90
39276 2021-02-17 23:40:51 Terrasse 5.40 4.60 99.90
39275 2021-02-17 23:12:39 Terrasse 5.70 4.93 99.90
39274 2021-02-17 22:44:26 Terrasse 5.90 5.15 99.90
39273 2021-02-17 22:16:15 Terrasse 6.30 5.59 99.90
39272 2021-02-17 21:48:03 Terrasse 6.90 6.25 99.90
39271 2021-02-17 21:19:50 Terrasse 7.10 6.47 99.90
39270 2021-02-17 20:51:36 Terrasse 7.20 6.58 99.90
39269 2021-02-17 20:23:22 Terrasse 7.20 6.58 99.90
39268 2021-02-17 19:55:10 Terrasse 7.20 6.58 99.90
39267 2021-02-17 19:26:58 Terrasse 7.60 7.02 99.90
39266 2021-02-17 18:58:47 Terrasse 8.10 7.57 99.90
39265 2021-02-17 18:30:35 Terrasse 8.40 7.90 99.90
39264 2021-02-17 18:02:22 Terrasse 8.80 8.34 99.90
39263 2021-02-17 17:34:10 Terrasse 9.10 8.67 99.90
39262 2021-02-17 17:05:58 Terrasse 9.50 9.11 99.90
39261 2021-02-17 16:37:47 Terrasse 9.90 9.55 99.90
39260 2021-02-17 16:09:37 Terrasse 10.80 10.54 99.90
39259 2021-02-17 15:41:20 Terrasse 10.10 9.77 99.90
39258 2021-02-17 15:13:06 Terrasse 10.20 9.88 99.90
39257 2021-02-17 14:44:52 Terrasse 10.30 9.99 99.90
39256 2021-02-17 14:16:42 Terrasse 10.90 10.65 99.90
39255 2021-02-17 13:48:33 Terrasse 11.80 11.64 99.90
39254 2021-02-17 13:19:57 Terrasse 9.60 9.22 99.90
39253 2021-02-17 12:51:44 Terrasse 9.80 9.44 99.90
39252 2021-02-17 12:23:26 Terrasse 9.60 9.22 99.90
39251 2021-02-17 11:55:14 Terrasse 10.10 9.77 99.90
39250 2021-02-17 11:26:51 Terrasse 8.60 8.12 99.90
39249 2021-02-17 10:58:38 Terrasse 8.60 8.12 99.90
39248 2021-02-17 10:30:33 Terrasse 9.60 9.22 99.90
39247 2021-02-17 10:02:07 Terrasse 7.90 7.35 99.90
39246 2021-02-17 09:33:47 Terrasse 6.80 6.14 99.90
39245 2021-02-17 09:05:30 Terrasse 6.10 5.37 99.90
39244 2021-02-17 08:37:13 Terrasse 5.70 4.93 99.90
39243 2021-02-17 08:08:57 Terrasse 5.40 4.60 99.90
39242 2021-02-17 07:40:43 Terrasse 5.40 4.60 99.90
39241 2021-02-17 07:12:28 Terrasse 5.20 4.38 99.90
39240 2021-02-17 06:44:15 Terrasse 5.20 4.38 99.90
39239 2021-02-17 06:16:01 Terrasse 5.30 4.49 99.90
39238 2021-02-17 05:47:48 Terrasse 5.40 4.60 99.90
39237 2021-02-17 05:19:35 Terrasse 5.60 4.82 99.90
39236 2021-02-17 04:51:22 Terrasse 5.80 5.04 99.90
39235 2021-02-17 04:23:08 Terrasse 5.90 5.15 99.90
39234 2021-02-17 03:54:55 Terrasse 6.00 5.26 99.90
39233 2021-02-17 03:26:40 Terrasse 5.90 5.15 99.90
39232 2021-02-17 02:58:28 Terrasse 5.90 5.15 99.90
39231 2021-02-17 02:30:13 Terrasse 5.90 5.15 99.90
39230 2021-02-17 02:01:59 Terrasse 5.80 5.04 99.90
39229 2021-02-17 01:33:46 Terrasse 5.70 4.93 99.90
39228 2021-02-17 01:05:32 Terrasse 5.70 4.93 99.90
39227 2021-02-17 00:37:20 Terrasse 5.80 5.04 99.90
39226 2021-02-17 00:09:06 Terrasse 5.90 5.15 99.90
39225 2021-02-16 23:40:55 Terrasse 6.00 5.26 99.90
39224 2021-02-16 23:12:40 Terrasse 6.00 5.26 99.90
39223 2021-02-16 22:44:25 Terrasse 5.80 5.04 99.90
39222 2021-02-16 22:16:08 Terrasse 5.20 4.38 99.90
39221 2021-02-16 21:47:53 Terrasse 5.10 4.27 99.90
39220 2021-02-16 21:19:40 Terrasse 5.00 4.16 99.90
39219 2021-02-16 20:51:31 Terrasse 5.20 4.38 99.90
39218 2021-02-16 20:23:16 Terrasse 5.20 4.38 99.90
39217 2021-02-16 19:55:04 Terrasse 5.20 4.38 99.90
39216 2021-02-16 19:26:52 Terrasse 5.60 4.82 99.90
39215 2021-02-16 18:58:41 Terrasse 6.00 5.26 99.90
39214 2021-02-16 18:30:32 Terrasse 6.50 5.81 99.90
39213 2021-02-16 18:02:20 Terrasse 7.10 6.47 99.90
39212 2021-02-16 17:34:11 Terrasse 7.70 7.13 99.90
39211 2021-02-16 17:06:01 Terrasse 8.70 8.23 99.90
39210 2021-02-16 16:37:55 Terrasse 10.00 9.41 90.00
39209 2021-02-16 16:09:50 Terrasse 11.90 10.86 65.70
39208 2021-02-16 15:42:03 Terrasse 16.50 15.63 54.40
39207 2021-02-16 15:13:29 Terrasse 15.90 15.18 62.50
39206 2021-02-16 14:45:17 Terrasse 13.10 12.26 68.70
39205 2021-02-16 14:16:56 Terrasse 10.80 10.02 80.00
39204 2021-02-16 13:48:51 Terrasse 12.90 12.03 68.30
39203 2021-02-16 13:20:26 Terrasse 11.70 11.06 81.80
39202 2021-02-16 12:52:09 Terrasse 10.20 9.82 97.50
39201 2021-02-16 12:23:54 Terrasse 8.60 8.12 99.90
39200 2021-02-16 11:55:30 Terrasse 8.10 7.57 99.90
39199 2021-02-16 11:27:16 Terrasse 7.10 6.47 99.90
39198 2021-02-16 10:59:00 Terrasse 6.40 5.70 99.90
39197 2021-02-16 10:30:30 Terrasse 5.00 4.16 99.90
39196 2021-02-16 10:02:12 Terrasse 4.40 3.50 99.90
39195 2021-02-16 09:34:06 Terrasse 3.80 2.84 99.90
39194 2021-02-16 09:05:46 Terrasse 3.40 2.40 99.90
39193 2021-02-16 08:37:29 Terrasse 2.90 1.85 99.90
39192 2021-02-16 08:09:15 Terrasse 2.90 1.85 99.90
39191 2021-02-16 07:41:00 Terrasse 2.80 1.74 99.90
39190 2021-02-16 07:12:46 Terrasse 2.70 1.63 99.90
39189 2021-02-16 06:44:31 Terrasse 2.70 1.63 99.90
39188 2021-02-16 06:16:18 Terrasse 2.60 1.52 99.90
39187 2021-02-16 05:48:05 Terrasse 2.60 1.52 99.90
39186 2021-02-16 05:19:51 Terrasse 2.60 1.52 99.90
39185 2021-02-16 04:51:38 Terrasse 2.50 1.41 99.90
39184 2021-02-16 04:23:25 Terrasse 2.50 1.41 99.90
39183 2021-02-16 03:55:12 Terrasse 2.40 1.30 99.90
39182 2021-02-16 03:26:58 Terrasse 2.40 1.30 99.90
39181 2021-02-16 02:58:44 Terrasse 2.30 1.19 99.90
39180 2021-02-16 02:30:31 Terrasse 2.40 1.30 99.90
39179 2021-02-16 02:02:17 Terrasse 2.40 1.30 99.90
39178 2021-02-16 01:34:03 Terrasse 2.30 1.19 99.90
39177 2021-02-16 01:05:49 Terrasse 2.20 1.08 99.90
39176 2021-02-16 00:37:36 Terrasse 2.10 0.97 99.90
39175 2021-02-16 00:09:24 Terrasse 2.00 0.86 99.90
39174 2021-02-15 23:41:10 Terrasse 1.90 0.75 99.90
39173 2021-02-15 23:12:55 Terrasse 1.70 0.53 99.90
39172 2021-02-15 22:44:42 Terrasse 1.60 0.42 99.90
39171 2021-02-15 22:16:31 Terrasse 1.40 0.20 99.90
39170 2021-02-15 21:48:19 Terrasse 1.40 0.20 99.90
39169 2021-02-15 21:20:06 Terrasse 1.40 0.20 99.90
39168 2021-02-15 20:51:54 Terrasse 1.40 0.20 99.90
39167 2021-02-15 20:23:41 Terrasse 1.30 0.09 99.90
39166 2021-02-15 19:55:28 Terrasse 1.20 -0.02 99.90
39165 2021-02-15 19:27:16 Terrasse 1.10 -0.13 99.90
39164 2021-02-15 18:59:03 Terrasse 1.10 -0.13 99.90
39163 2021-02-15 18:30:50 Terrasse 1.00 -0.24 99.90
39162 2021-02-15 18:02:35 Terrasse 0.80 -0.46 99.90
39161 2021-02-15 17:34:24 Terrasse 0.90 -0.35 99.90
39160 2021-02-15 17:06:11 Terrasse 0.90 -0.35 99.90
39159 2021-02-15 16:38:00 Terrasse 0.90 -0.35 99.90
39158 2021-02-15 16:09:50 Terrasse 1.00 -0.24 99.90
39157 2021-02-15 15:41:37 Terrasse 0.80 -0.62 93.70
39156 2021-02-15 15:13:25 Terrasse 1.10 -1.06 64.10
39155 2021-02-15 14:45:14 Terrasse 1.40 -0.88 58.50
39154 2021-02-15 14:17:04 Terrasse 1.60 -0.75 55.00
39153 2021-02-15 13:48:54 Terrasse 1.90 -0.52 51.20
39152 2021-02-15 13:20:44 Terrasse 2.50 -0.02 45.10
39151 2021-02-15 12:52:24 Terrasse 2.40 -0.22 41.40
39150 2021-02-15 12:24:07 Terrasse 2.00 -0.67 41.00
39149 2021-02-15 11:55:52 Terrasse 1.70 -1.04 39.60
39148 2021-02-15 11:27:36 Terrasse 1.20 -1.60 39.20
39147 2021-02-15 10:59:21 Terrasse 0.90 -1.90 40.50
39146 2021-02-15 10:31:05 Terrasse 0.50 -2.31 41.60
39145 2021-02-15 10:02:51 Terrasse 0.20 -2.66 40.80
39144 2021-02-15 09:34:38 Terrasse -0.10 -2.96 42.00
39143 2021-02-15 09:06:24 Terrasse -0.30 -3.15 43.00
39142 2021-02-15 08:38:10 Terrasse -0.40 -3.28 42.20
39141 2021-02-15 08:09:56 Terrasse -0.60 -3.49 42.60
39140 2021-02-15 07:41:43 Terrasse -1.00 -3.91 43.30
39139 2021-02-15 07:13:30 Terrasse -1.10 -4.02 43.30
39138 2021-02-15 06:45:16 Terrasse -1.10 -4.02 43.50
39137 2021-02-15 06:17:04 Terrasse -1.10 -4.02 43.30
39136 2021-02-15 05:48:51 Terrasse -1.20 -4.13 43.60
39135 2021-02-15 05:20:38 Terrasse -1.30 -4.23 44.00
39134 2021-02-15 04:52:27 Terrasse -1.20 -4.12 43.70
39133 2021-02-15 04:24:15 Terrasse -1.20 -4.12 44.00
39132 2021-02-15 03:56:03 Terrasse -1.20 -4.11 44.40
39131 2021-02-15 03:27:52 Terrasse -1.00 -3.88 44.50
39130 2021-02-15 02:59:42 Terrasse -1.00 -3.88 44.50
39129 2021-02-15 02:31:32 Terrasse -0.60 -3.46 43.90
39128 2021-02-15 02:03:21 Terrasse -0.40 -3.23 44.20
39127 2021-02-15 01:35:08 Terrasse -0.20 -2.99 44.80
39126 2021-02-15 01:06:57 Terrasse 0.00 -2.77 45.00
39125 2021-02-15 00:38:47 Terrasse 0.10 -2.66 44.90
39124 2021-02-15 00:10:36 Terrasse 0.30 -2.46 44.30
39123 2021-02-14 23:42:24 Terrasse 0.50 -2.25 44.00
39122 2021-02-14 23:14:14 Terrasse 0.60 -2.17 42.80
39121 2021-02-14 22:46:02 Terrasse 0.60 -2.16 42.90
39120 2021-02-14 22:17:51 Terrasse 0.70 -2.00 44.90
39119 2021-02-14 21:49:40 Terrasse 0.80 -1.90 44.60
39118 2021-02-14 21:21:29 Terrasse 1.00 -1.70 44.00
39117 2021-02-14 20:53:18 Terrasse 1.10 -1.60 43.40
39116 2021-02-14 20:25:08 Terrasse 1.30 -1.40 42.50
39115 2021-02-14 19:56:58 Terrasse 1.60 -1.10 41.40
39114 2021-02-14 19:28:49 Terrasse 2.10 -0.58 40.50
39113 2021-02-14 19:00:38 Terrasse 2.50 -0.16 39.70
39112 2021-02-14 18:32:28 Terrasse 2.80 0.11 37.20
39111 2021-02-14 18:04:27 Terrasse 3.30 0.65 36.80
39110 2021-02-14 17:36:15 Terrasse 4.00 1.38 35.40
39109 2021-02-14 17:08:11 Terrasse 5.00 2.45 34.20
39108 2021-02-14 16:40:11 Terrasse 7.00 4.64 33.90
39107 2021-02-14 16:12:25 Terrasse 11.00 8.92 29.40
39106 2021-02-14 15:44:33 Terrasse 16.10 14.50 28.20
39105 2021-02-14 15:16:27 Terrasse 19.20 17.86 26.10
39104 2021-02-14 14:48:13 Terrasse 19.20 17.86 26.40
39103 2021-02-14 14:19:55 Terrasse 19.70 18.44 27.30
39102 2021-02-14 13:51:11 Terrasse 17.00 15.50 28.60
39101 2021-02-14 13:23:05 Terrasse 12.10 10.18 31.20
39100 2021-02-14 12:54:27 Terrasse 10.50 8.48 33.60
39099 2021-02-14 12:26:20 Terrasse 9.50 7.44 35.70
39098 2021-02-14 11:57:58 Terrasse 8.50 6.36 36.60
39097 2021-02-14 11:29:52 Terrasse 8.70 6.59 37.10
39096 2021-02-14 11:01:12 Terrasse 4.80 2.43 42.00
39095 2021-02-14 10:32:42 Terrasse 3.70 1.26 43.30
39094 2021-02-14 10:03:59 Terrasse -0.10 -2.75 49.90
39093 2021-02-14 09:35:36 Terrasse -2.40 -5.18 53.90
39092 2021-02-14 09:07:21 Terrasse -3.20 -6.03 54.90
39091 2021-02-14 08:39:09 Terrasse -3.40 -6.26 54.60
39090 2021-02-14 08:10:56 Terrasse -3.60 -6.47 54.90
39089 2021-02-14 07:42:45 Terrasse -3.60 -6.48 54.70
39088 2021-02-14 07:14:35 Terrasse -3.50 -6.37 54.40
39087 2021-02-14 06:46:23 Terrasse -3.50 -6.38 54.00
39086 2021-02-14 06:18:10 Terrasse -3.50 -6.38 54.30
39085 2021-02-14 05:50:00 Terrasse -3.50 -6.36 55.10
39084 2021-02-14 05:21:48 Terrasse -3.50 -6.33 56.10
39083 2021-02-14 04:53:37 Terrasse -3.40 -6.19 57.40
39082 2021-02-14 04:25:26 Terrasse -3.40 -6.18 57.70
39081 2021-02-14 03:57:16 Terrasse -3.40 -6.20 57.00
39080 2021-02-14 03:29:04 Terrasse -3.30 -6.10 56.50
39079 2021-02-14 03:00:53 Terrasse -3.30 -6.11 55.90
39078 2021-02-14 02:32:44 Terrasse -3.10 -5.91 55.40
39077 2021-02-14 02:04:33 Terrasse -2.80 -5.59 54.80
39076 2021-02-14 01:36:22 Terrasse -2.70 -5.49 54.50
39075 2021-02-14 01:08:12 Terrasse -2.70 -5.51 53.90
39074 2021-02-14 00:39:59 Terrasse -2.60 -5.40 53.80
39073 2021-02-14 00:11:49 Terrasse -2.50 -5.31 53.10
39072 2021-02-13 23:43:39 Terrasse -2.40 -5.23 52.00
39071 2021-02-13 23:15:28 Terrasse -2.00 -4.80 51.30
39070 2021-02-13 22:47:17 Terrasse -1.60 -4.37 51.00
39069 2021-02-13 22:19:07 Terrasse -1.70 -4.51 50.10
39068 2021-02-13 21:50:57 Terrasse -1.50 -4.31 49.10
39067 2021-02-13 21:22:47 Terrasse -1.30 -4.10 48.90
39066 2021-02-13 20:54:35 Terrasse -1.10 -3.89 48.50
39065 2021-02-13 20:26:26 Terrasse -0.80 -3.58 47.70
39064 2021-02-13 19:58:17 Terrasse -0.40 -3.15 47.10
39063 2021-02-13 19:30:07 Terrasse -0.10 -2.87 45.40
39062 2021-02-13 19:02:05 Terrasse 0.50 -2.25 43.70
39061 2021-02-13 18:33:55 Terrasse 1.00 -1.73 42.50
39060 2021-02-13 18:05:46 Terrasse 1.70 -1.03 40.00
39059 2021-02-13 17:37:41 Terrasse 2.70 0.02 38.10
39058 2021-02-13 17:09:35 Terrasse 3.90 1.28 35.60
39057 2021-02-13 16:41:40 Terrasse 6.00 3.53 33.50
39056 2021-02-13 16:14:01 Terrasse 13.80 11.97 28.10
39055 2021-02-13 15:45:52 Terrasse 15.70 14.03 26.90
39054 2021-02-13 15:17:39 Terrasse 16.80 15.24 27.00
39053 2021-02-13 14:49:22 Terrasse 17.20 15.68 27.00
39052 2021-02-13 14:21:10 Terrasse 17.70 16.21 26.20
39051 2021-02-13 13:52:31 Terrasse 15.50 13.86 28.80
39050 2021-02-13 13:24:22 Terrasse 10.40 8.31 31.20
39049 2021-02-13 12:55:44 Terrasse 9.00 6.88 35.30
39048 2021-02-13 12:27:42 Terrasse 8.10 5.90 35.80
39047 2021-02-13 11:59:21 Terrasse 7.20 4.94 36.80
39046 2021-02-13 11:31:13 Terrasse 7.10 4.87 38.40
39045 2021-02-13 11:02:30 Terrasse 3.60 1.16 43.90
39044 2021-02-13 10:34:04 Terrasse 2.60 0.17 48.00
39043 2021-02-13 10:05:20 Terrasse -0.90 -3.47 56.00
39042 2021-02-13 09:36:58 Terrasse -3.70 -6.40 62.00
39041 2021-02-13 09:08:40 Terrasse -4.70 -7.42 65.00
39040 2021-02-13 08:40:28 Terrasse -5.10 -7.85 65.30
39039 2021-02-13 08:12:14 Terrasse -5.30 -8.08 64.70
39038 2021-02-13 07:44:01 Terrasse -5.40 -8.21 64.00
39037 2021-02-13 07:15:48 Terrasse -5.50 -8.35 63.00
39036 2021-02-13 06:47:35 Terrasse -5.60 -8.50 61.50
39035 2021-02-13 06:19:22 Terrasse -5.70 -8.66 59.40
39034 2021-02-13 05:51:11 Terrasse -5.60 -8.58 58.40
39033 2021-02-13 05:23:01 Terrasse -5.60 -8.62 57.00
39032 2021-02-13 04:54:49 Terrasse -5.60 -8.64 56.00
39031 2021-02-13 04:26:36 Terrasse -5.50 -8.54 55.70
39030 2021-02-13 03:58:22 Terrasse -5.40 -8.44 55.50
39029 2021-02-13 03:30:10 Terrasse -5.40 -8.43 55.60
39028 2021-02-13 03:01:58 Terrasse -5.30 -8.33 55.20
39027 2021-02-13 02:33:46 Terrasse -5.20 -8.23 54.90
39026 2021-02-13 02:05:32 Terrasse -5.20 -8.23 54.80
39025 2021-02-13 01:37:19 Terrasse -5.20 -8.23 55.10
39024 2021-02-13 01:09:08 Terrasse -5.10 -8.11 55.50
39023 2021-02-13 00:40:55 Terrasse -5.00 -8.00 55.30
39022 2021-02-13 00:12:45 Terrasse -4.80 -7.79 54.80
39021 2021-02-12 23:44:34 Terrasse -4.60 -7.59 54.30
39020 2021-02-12 23:16:23 Terrasse -4.20 -7.16 53.70
39019 2021-02-12 22:48:15 Terrasse -3.80 -6.72 53.60
39018 2021-02-12 22:20:08 Terrasse -3.10 -5.97 53.20
39017 2021-02-12 21:52:34 Terrasse 1.40 -1.22 45.30
39016 2021-02-12 21:23:46 Terrasse 9.70 9.29 98.10
39015 2021-02-12 19:24:19 Terrasse -2.00 -4.76 53.20
39014 2021-02-12 18:26:04 Terrasse -0.70 -3.36 51.70
39013 2021-02-12 15:56:05 Terrasse 16.00 14.45 30.60
39012 2021-02-12 15:27:55 Terrasse 13.60 11.90 33.80
39011 2021-02-12 14:59:49 Terrasse 18.30 17.02 32.10
39010 2021-02-12 12:28:35 Terrasse 8.70 6.81 45.20
39009 2021-02-12 11:30:35 Terrasse 1.40 -0.94 56.00
39008 2021-02-12 10:57:48 Terrasse -1.30 -3.82 59.70
39007 2021-02-12 08:57:13 Terrasse -5.00 -7.40 78.30
39006 2021-02-12 07:58:59 Terrasse -5.50 -8.11 72.20
39005 2021-02-12 05:19:42 Terrasse -4.20 -5.96 99.90
39004 2021-02-12 04:47:32 Terrasse -4.30 -6.07 99.90
39003 2021-02-12 04:19:34 Terrasse -4.30 -6.18 95.60
39002 2021-02-12 03:52:07 Terrasse -4.30 -6.18 95.70
39001 2021-02-12 03:24:01 Terrasse -4.30 -6.07 99.90
39000 2021-02-12 02:56:13 Terrasse -4.70 -6.51 99.80
38999 2021-02-12 02:28:20 Terrasse -4.60 -6.78 85.20
38998 2021-02-12 01:29:47 Terrasse -4.80 -7.35 71.80
38997 2021-02-12 00:32:16 Terrasse -4.00 -6.60 66.80
38996 2021-02-12 00:03:16 Terrasse -3.40 -5.96 66.10
38995 2021-02-11 22:00:34 Terrasse -3.30 -5.82 67.00
38994 2021-02-11 21:32:36 Terrasse -3.10 -5.57 68.50
38993 2021-02-11 21:04:20 Terrasse -2.90 -5.24 72.60
38992 2021-02-11 20:36:29 Terrasse -2.70 -5.02 72.40
38991 2021-02-11 20:08:33 Terrasse -2.70 -5.04 71.60
38990 2021-02-11 19:40:32 Terrasse -2.40 -4.93 63.50
38989 2021-02-11 19:13:52 Terrasse -1.90 -4.45 60.70
38988 2021-02-11 18:45:36 Terrasse -1.20 -3.71 59.40
38987 2021-02-11 18:09:21 Terrasse -0.50 -2.98 58.00
38986 2021-02-11 17:40:01 Terrasse 0.60 -1.86 54.60
38985 2021-02-11 17:11:58 Terrasse 2.10 -0.27 52.30
38984 2021-02-11 16:42:05 Terrasse 5.40 3.24 47.50
38983 2021-02-11 16:13:50 Terrasse 18.00 16.72 33.10
38982 2021-02-11 15:15:20 Terrasse 2.30 0.03 55.30
38981 2021-02-11 14:43:20 Terrasse 4.60 2.49 52.60
38980 2021-02-11 14:16:05 Terrasse 12.00 10.40 43.80
38979 2021-02-11 13:48:27 Terrasse 9.60 7.88 48.60
38978 2021-02-11 13:19:46 Terrasse 6.00 4.21 59.40
38977 2021-02-11 12:51:34 Terrasse 2.70 0.72 64.80
38976 2021-02-11 12:23:41 Terrasse 1.20 -0.71 73.30
38975 2021-02-11 11:55:45 Terrasse 0.30 -1.25 90.50
38974 2021-02-11 09:55:27 Terrasse -2.70 -4.31 99.90
38973 2021-02-11 08:56:58 Terrasse -3.80 -5.52 99.90
38972 2021-02-11 07:58:15 Terrasse -4.90 -6.73 99.90
38971 2021-02-11 07:29:52 Terrasse -4.70 -6.51 99.90
38970 2021-02-11 07:01:43 Terrasse -4.50 -6.29 99.90
38969 2021-02-11 06:33:34 Terrasse -4.00 -5.74 99.90
38968 2021-02-11 05:35:29 Terrasse -3.40 -5.08 99.90
38967 2021-02-11 05:07:43 Terrasse -3.40 -5.08 99.90
38966 2021-02-11 04:09:25 Terrasse -3.30 -4.97 99.90
38965 2021-02-11 03:41:37 Terrasse -3.30 -4.97 99.90
38964 2021-02-11 03:13:53 Terrasse -3.30 -4.97 99.90
38963 2021-02-11 02:46:03 Terrasse -3.30 -4.97 99.90
38962 2021-02-11 02:18:13 Terrasse -3.30 -4.97 99.90
38961 2021-02-11 01:51:54 Terrasse -3.30 -4.97 99.90
38960 2021-02-11 01:16:36 Terrasse -3.40 -5.08 99.90
38959 2021-02-11 00:48:48 Terrasse -3.40 -5.08 99.90
38958 2021-02-11 00:21:53 Terrasse -3.50 -5.19 99.90
38957 2021-02-10 23:51:37 Terrasse -3.90 -5.63 99.90
38956 2021-02-10 23:23:56 Terrasse -3.70 -5.41 99.90
38955 2021-02-10 22:25:43 Terrasse -4.10 -5.85 99.90
38954 2021-02-10 21:58:42 Terrasse -4.10 -5.85 99.90
38953 2021-02-10 21:26:54 Terrasse -4.60 -6.40 99.90
38952 2021-02-10 20:59:00 Terrasse -4.00 -5.94 92.00
38951 2021-02-10 19:30:15 Terrasse -3.40 -5.97 65.50
38950 2021-02-10 19:02:20 Terrasse -3.20 -5.87 60.90
38949 2021-02-10 18:34:13 Terrasse -2.70 -5.38 58.80
38948 2021-02-10 18:07:15 Terrasse -2.30 -4.98 57.40
38947 2021-02-10 17:37:42 Terrasse -1.20 -3.81 55.80
38946 2021-02-10 17:09:52 Terrasse 0.20 -2.36 52.40
38945 2021-02-10 16:42:46 Terrasse 3.40 1.03 47.20
38944 2021-02-10 16:15:31 Terrasse 13.80 12.12 34.00
38943 2021-02-10 15:47:26 Terrasse 14.40 12.80 34.50
38942 2021-02-10 15:19:11 Terrasse 16.70 15.32 34.20
38941 2021-02-10 14:50:26 Terrasse 11.20 9.46 41.70
38940 2021-02-10 14:22:46 Terrasse 1.50 -0.80 57.30
38939 2021-02-10 13:53:27 Terrasse -0.90 -3.31 62.40
38938 2021-02-10 13:25:52 Terrasse -1.70 -4.09 66.20
38937 2021-02-10 12:57:22 Terrasse -2.30 -4.72 67.30
38936 2021-02-10 12:29:12 Terrasse -2.90 -5.38 67.10
38935 2021-02-10 12:01:32 Terrasse -3.50 -6.04 67.00
38934 2021-02-10 11:34:36 Terrasse -4.00 -6.63 65.70
38933 2021-02-10 11:04:06 Terrasse -4.40 -7.07 65.60
38932 2021-02-10 10:05:33 Terrasse -5.70 -8.43 68.50
38931 2021-02-10 09:37:43 Terrasse -6.10 -8.86 68.80
38930 2021-02-10 08:38:51 Terrasse -6.90 -9.83 65.30
38929 2021-02-10 08:10:28 Terrasse -7.10 -10.04 65.60
38928 2021-02-10 07:42:28 Terrasse -7.40 -10.33 67.30
38927 2021-02-10 07:14:15 Terrasse -7.50 -10.33 71.30
38926 2021-02-10 06:46:08 Terrasse -7.60 -10.44 71.50
38925 2021-02-10 06:18:33 Terrasse -7.60 -10.31 76.50
38924 2021-02-10 05:50:29 Terrasse -7.70 -10.41 76.90
38923 2021-02-10 05:22:16 Terrasse -7.80 -10.64 72.10
38922 2021-02-10 04:54:08 Terrasse -7.70 -10.60 69.40
38921 2021-02-10 04:26:21 Terrasse -7.60 -10.41 72.50
38920 2021-02-10 03:58:23 Terrasse -7.70 -10.50 73.50
38919 2021-02-10 03:30:06 Terrasse -7.70 -10.44 75.50
38918 2021-02-10 03:01:57 Terrasse -7.80 -10.17 90.00
38917 2021-02-10 02:33:52 Terrasse -7.50 -9.98 84.70
38916 2021-02-10 02:05:46 Terrasse -7.70 -10.38 77.90
38915 2021-02-10 01:37:42 Terrasse -7.50 -10.17 77.40
38914 2021-02-10 01:09:37 Terrasse -7.30 -9.85 81.30
38913 2021-02-10 00:41:32 Terrasse -7.40 -10.06 77.60
38912 2021-02-10 00:13:42 Terrasse -7.40 -10.05 78.00
38911 2021-02-09 23:45:24 Terrasse -7.30 -9.99 75.90
38910 2021-02-09 23:17:13 Terrasse -7.30 -9.94 77.90
38909 2021-02-09 22:49:03 Terrasse -7.20 -9.72 82.30
38908 2021-02-09 22:20:53 Terrasse -7.10 -9.68 79.40
38907 2021-02-09 21:52:42 Terrasse -7.00 -9.63 77.20
38906 2021-02-09 21:24:33 Terrasse -6.70 -9.23 79.80
38905 2021-02-09 20:56:22 Terrasse -6.70 -9.19 81.20
38904 2021-02-09 20:28:13 Terrasse -6.50 -8.98 80.90
38903 2021-02-09 20:00:03 Terrasse -6.20 -8.62 82.20
38902 2021-02-09 19:31:55 Terrasse -5.70 -8.12 80.40
38901 2021-02-09 19:03:47 Terrasse -5.50 -7.71 87.30
38900 2021-02-09 18:35:39 Terrasse -4.90 -7.26 79.50
38899 2021-02-09 18:07:28 Terrasse -4.70 -7.09 77.70
38898 2021-02-09 17:39:19 Terrasse -4.30 -6.78 72.70
38897 2021-02-09 17:11:08 Terrasse -4.00 -6.44 72.90
38896 2021-02-09 16:42:59 Terrasse -3.80 -6.33 68.70
38895 2021-02-09 16:14:48 Terrasse -3.40 -5.90 68.30
38894 2021-02-09 15:46:41 Terrasse -2.80 -5.31 65.70
38893 2021-02-09 15:18:38 Terrasse -1.70 -4.23 60.70
38892 2021-02-09 14:50:46 Terrasse 1.90 -0.42 55.10
38891 2021-02-09 14:22:20 Terrasse -1.30 -3.78 61.10
38890 2021-02-09 13:54:02 Terrasse -1.80 -4.25 64.30
38889 2021-02-09 13:25:48 Terrasse -2.60 -5.03 67.80
38888 2021-02-09 12:57:36 Terrasse -2.90 -5.28 71.10
38887 2021-02-09 12:29:25 Terrasse -3.10 -5.57 68.30
38886 2021-02-09 12:01:15 Terrasse -2.80 -5.20 69.70
38885 2021-02-09 11:33:02 Terrasse -2.70 -4.97 74.40
38884 2021-02-09 11:04:44 Terrasse -3.60 -5.98 73.70
38883 2021-02-09 10:36:36 Terrasse -4.40 -6.95 70.30
38882 2021-02-09 10:08:16 Terrasse -5.40 -7.80 80.00
38881 2021-02-09 09:40:13 Terrasse -5.40 -7.84 78.30
38880 2021-02-09 09:11:58 Terrasse -5.40 -7.63 86.20
38879 2021-02-09 08:43:44 Terrasse -5.60 -7.70 92.00
38878 2021-02-09 08:15:34 Terrasse -5.50 -7.44 97.80
38877 2021-02-09 07:47:25 Terrasse -5.30 -7.28 95.70
38876 2021-02-09 07:19:15 Terrasse -5.30 -7.17 99.90
38875 2021-02-09 06:51:25 Terrasse -5.10 -6.95 99.90
38874 2021-02-09 06:23:27 Terrasse -5.00 -6.84 99.90
38873 2021-02-09 05:55:11 Terrasse -5.00 -6.84 99.90
38872 2021-02-09 05:27:16 Terrasse -4.90 -6.73 99.90
38871 2021-02-09 04:59:12 Terrasse -4.90 -6.73 99.90
38870 2021-02-09 04:31:05 Terrasse -4.90 -6.73 99.90
38869 2021-02-09 04:03:05 Terrasse -4.80 -6.62 99.90
38868 2021-02-09 03:35:02 Terrasse -4.80 -6.62 99.90
38867 2021-02-09 03:07:05 Terrasse -4.50 -6.29 99.90
38866 2021-02-09 02:38:56 Terrasse -4.50 -6.29 99.90
38865 2021-02-09 02:10:59 Terrasse -4.50 -6.29 99.90
38864 2021-02-09 01:42:51 Terrasse -4.40 -6.18 99.90
38863 2021-02-09 01:14:51 Terrasse -4.30 -6.07 99.90
38862 2021-02-09 00:46:48 Terrasse -4.20 -5.96 99.90
38861 2021-02-09 00:18:47 Terrasse -4.10 -5.85 99.90
38860 2021-02-08 23:50:35 Terrasse -4.10 -5.85 99.90
38859 2021-02-08 23:22:25 Terrasse -3.90 -5.63 99.90
38858 2021-02-08 22:54:16 Terrasse -3.70 -5.41 99.90
38857 2021-02-08 22:26:04 Terrasse -3.70 -5.41 99.90
38856 2021-02-08 21:57:55 Terrasse -3.60 -5.30 99.90
38855 2021-02-08 21:29:44 Terrasse -3.40 -5.08 99.90
38854 2021-02-08 21:01:31 Terrasse -3.40 -5.08 99.90
38853 2021-02-08 20:33:22 Terrasse -3.20 -4.86 99.90
38852 2021-02-08 20:05:12 Terrasse -3.10 -4.75 99.90
38851 2021-02-08 19:37:01 Terrasse -2.90 -4.53 99.90
38850 2021-02-08 19:09:00 Terrasse -2.80 -4.42 99.90
38849 2021-02-08 18:40:45 Terrasse -2.70 -4.31 99.90
38848 2021-02-08 18:12:34 Terrasse -2.60 -4.20 99.90
38847 2021-02-08 17:44:24 Terrasse -2.40 -3.98 99.90
38846 2021-02-08 17:17:07 Terrasse -2.20 -3.76 99.90
38845 2021-02-08 16:48:54 Terrasse -2.20 -3.76 99.90
38844 2021-02-08 16:20:37 Terrasse -2.10 -3.65 99.90
38843 2021-02-08 15:52:20 Terrasse -1.90 -3.43 99.90
38842 2021-02-08 15:24:10 Terrasse -1.80 -3.32 99.90
38841 2021-02-08 14:55:59 Terrasse -1.60 -3.10 99.90
38840 2021-02-08 14:27:48 Terrasse -1.60 -3.10 99.90
38839 2021-02-08 14:00:46 Terrasse -1.50 -2.99 99.90
38838 2021-02-08 13:32:06 Terrasse -1.40 -2.88 99.90
38837 2021-02-08 13:03:55 Terrasse -1.40 -2.88 99.90
38836 2021-02-08 12:35:39 Terrasse -1.50 -2.99 99.90
38835 2021-02-08 12:07:28 Terrasse -1.70 -3.21 99.90
38834 2021-02-08 11:39:17 Terrasse -1.60 -3.10 99.90
38833 2021-02-08 11:11:05 Terrasse -1.50 -2.99 99.90
38832 2021-02-08 10:42:53 Terrasse -1.70 -3.21 99.90
38831 2021-02-08 10:14:41 Terrasse -1.80 -3.32 99.90
38830 2021-02-08 09:46:31 Terrasse -1.80 -3.32 99.90
38829 2021-02-08 09:18:19 Terrasse -1.80 -3.32 99.90
38828 2021-02-08 08:50:06 Terrasse -1.80 -3.32 99.90
38827 2021-02-08 08:21:57 Terrasse -1.70 -3.21 99.90
38826 2021-02-08 07:53:49 Terrasse -1.60 -3.10 99.90
38825 2021-02-08 07:25:39 Terrasse -1.50 -2.99 99.90
38824 2021-02-08 06:58:55 Terrasse -1.60 -3.10 99.90
38823 2021-02-08 06:28:50 Terrasse -1.50 -2.99 99.90
38822 2021-02-08 06:00:43 Terrasse -1.50 -2.99 99.90
38821 2021-02-08 05:33:56 Terrasse -1.40 -2.88 99.90
38820 2021-02-08 05:04:08 Terrasse -1.40 -2.88 99.90
38819 2021-02-08 04:35:56 Terrasse -1.10 -2.55 99.90
38818 2021-02-08 04:07:50 Terrasse -0.80 -2.22 99.90
38817 2021-02-08 03:39:39 Terrasse -0.60 -2.00 99.90
38816 2021-02-08 03:11:31 Terrasse -0.60 -2.00 99.90
38815 2021-02-08 02:44:28 Terrasse -0.60 -2.00 99.90
38814 2021-02-08 02:15:21 Terrasse -0.30 -1.67 99.90
38813 2021-02-08 01:47:11 Terrasse 0.30 -1.01 99.90
38812 2021-02-08 01:18:59 Terrasse 0.50 -0.79 99.90
38811 2021-02-08 00:50:48 Terrasse 0.40 -0.90 99.90
38810 2021-02-08 00:22:37 Terrasse 0.50 -0.79 99.90
38809 2021-02-07 23:54:28 Terrasse 0.70 -0.57 99.90
38808 2021-02-07 23:26:24 Terrasse 0.90 -0.35 99.90
38807 2021-02-07 22:58:26 Terrasse 1.00 -0.24 99.90
38806 2021-02-07 22:30:14 Terrasse 1.40 0.20 99.90
38805 2021-02-07 22:02:01 Terrasse 1.60 0.42 99.90
38804 2021-02-07 21:33:48 Terrasse 1.60 0.42 99.90
38803 2021-02-07 21:05:38 Terrasse 1.80 0.64 99.90
38802 2021-02-07 20:37:26 Terrasse 1.90 0.75 99.90
38801 2021-02-07 20:09:13 Terrasse 2.00 0.86 99.90
38800 2021-02-07 19:41:01 Terrasse 2.10 0.97 99.90
38799 2021-02-07 19:12:49 Terrasse 2.10 0.97 99.90
38798 2021-02-07 18:44:37 Terrasse 2.10 0.97 99.90
38797 2021-02-07 18:16:26 Terrasse 2.30 1.19 99.90
38796 2021-02-07 17:48:13 Terrasse 2.40 1.30 99.90
38795 2021-02-07 17:20:02 Terrasse 2.50 1.41 99.90
38794 2021-02-07 16:51:49 Terrasse 2.60 1.52 99.90
38793 2021-02-07 16:23:37 Terrasse 2.70 1.63 99.90
38792 2021-02-07 15:55:24 Terrasse 2.70 1.63 99.90
38791 2021-02-07 15:27:23 Terrasse 2.70 1.63 99.90
38790 2021-02-07 14:59:12 Terrasse 2.60 1.52 99.90
38789 2021-02-07 14:30:59 Terrasse 2.60 1.52 99.90
38788 2021-02-07 14:02:55 Terrasse 2.70 1.63 99.90
38787 2021-02-07 13:34:43 Terrasse 2.80 1.74 99.90
38786 2021-02-07 13:06:31 Terrasse 2.80 1.74 99.90
38785 2021-02-07 12:38:20 Terrasse 2.90 1.85 99.90
38784 2021-02-07 12:10:07 Terrasse 2.80 1.74 99.90
38783 2021-02-07 11:41:53 Terrasse 2.80 1.74 99.90
38782 2021-02-07 11:13:41 Terrasse 2.70 1.63 99.90
38781 2021-02-07 10:45:27 Terrasse 2.50 1.41 99.90
38780 2021-02-07 10:17:13 Terrasse 2.50 1.41 99.90
38779 2021-02-07 09:49:05 Terrasse 2.50 1.41 99.90
38778 2021-02-07 09:20:53 Terrasse 2.60 1.52 99.90
38777 2021-02-07 08:52:39 Terrasse 2.50 1.41 99.90
38776 2021-02-07 08:24:25 Terrasse 2.50 1.41 99.90
38775 2021-02-07 07:56:13 Terrasse 2.50 1.41 99.90
38774 2021-02-07 07:28:00 Terrasse 2.60 1.52 99.90
38773 2021-02-07 06:59:49 Terrasse 2.80 1.74 99.90
38772 2021-02-07 06:31:36 Terrasse 2.80 1.74 99.90
38771 2021-02-07 06:03:24 Terrasse 2.90 1.85 99.90
38770 2021-02-07 00:28:33 Terrasse 3.80 2.84 99.90
38769 2021-02-06 23:46:47 Terrasse 3.60 2.62 99.90
38768 2021-02-06 23:18:35 Terrasse 3.70 2.73 99.90
38767 2021-02-06 22:50:31 Terrasse 3.70 2.73 99.90
38766 2021-02-06 22:22:15 Terrasse 3.70 2.73 99.90
38765 2021-02-06 21:54:05 Terrasse 3.80 2.84 99.90
38764 2021-02-06 21:25:53 Terrasse 3.90 2.95 99.90
38763 2021-02-06 20:57:40 Terrasse 4.00 3.06 99.90
38762 2021-02-06 20:29:29 Terrasse 4.10 3.17 99.90
38761 2021-02-06 20:01:19 Terrasse 4.30 3.39 99.90
38760 2021-02-06 19:33:09 Terrasse 4.60 3.72 99.90
38759 2021-02-06 19:07:21 Terrasse 5.10 4.27 99.90
38758 2021-02-06 17:24:16 Terrasse 4.90 4.05 99.90
38757 2021-02-06 16:55:39 Terrasse 5.10 4.27 99.90
38756 2021-02-06 16:27:27 Terrasse 5.20 4.38 99.90
38755 2021-02-06 15:59:13 Terrasse 5.30 4.49 99.90
38754 2021-02-06 15:31:01 Terrasse 5.50 4.71 99.90
38753 2021-02-06 15:02:49 Terrasse 5.60 4.82 99.90
38752 2021-02-06 14:34:36 Terrasse 5.70 4.93 99.90
38751 2021-02-06 14:06:24 Terrasse 5.70 4.93 99.90
38750 2021-02-06 13:38:13 Terrasse 5.90 5.15 99.90
38749 2021-02-06 13:10:01 Terrasse 6.10 5.37 99.90
38748 2021-02-06 12:41:48 Terrasse 6.40 5.70 99.90
38747 2021-02-06 12:13:33 Terrasse 6.00 5.26 99.90
38746 2021-02-06 11:45:20 Terrasse 6.10 5.37 99.90
38745 2021-02-06 11:17:07 Terrasse 6.20 5.48 99.90
38744 2021-02-06 10:48:55 Terrasse 6.30 5.59 99.90
38743 2021-02-06 10:20:45 Terrasse 6.60 5.92 99.90
38742 2021-02-06 09:52:44 Terrasse 8.20 7.68 99.90
38741 2021-02-06 09:26:07 Terrasse 6.60 5.92 99.90
38740 2021-02-06 07:18:05 Terrasse 5.70 4.93 99.90
38739 2021-02-06 06:49:55 Terrasse 5.80 5.04 99.90
38738 2021-02-06 06:21:42 Terrasse 5.80 5.04 99.90
38737 2021-02-06 05:53:31 Terrasse 5.80 5.04 99.90
38736 2021-02-06 05:25:20 Terrasse 5.90 5.15 99.90
38735 2021-02-06 04:57:09 Terrasse 5.90 5.15 99.90
38734 2021-02-06 04:28:56 Terrasse 5.90 5.15 99.90
38733 2021-02-06 04:00:45 Terrasse 6.00 5.26 99.90
38732 2021-02-06 03:32:32 Terrasse 6.10 5.37 99.90
38731 2021-02-06 03:04:20 Terrasse 6.10 5.37 99.90
38730 2021-02-06 02:36:09 Terrasse 6.20 5.48 99.90
38729 2021-02-06 02:07:58 Terrasse 6.30 5.59 99.90
38728 2021-02-06 01:39:46 Terrasse 6.30 5.59 99.90
38727 2021-02-06 01:11:33 Terrasse 6.40 5.70 99.90
38726 2021-02-06 00:43:20 Terrasse 6.40 5.70 99.90
38725 2021-02-06 00:15:08 Terrasse 6.40 5.70 99.90
38724 2021-02-05 23:46:56 Terrasse 6.50 5.81 99.90
38723 2021-02-05 23:18:45 Terrasse 6.50 5.81 99.90
38722 2021-02-05 22:50:32 Terrasse 6.50 5.81 99.90
38721 2021-02-05 22:22:20 Terrasse 6.50 5.81 99.90
38720 2021-02-05 21:54:09 Terrasse 6.40 5.70 99.90
38719 2021-02-05 21:25:58 Terrasse 6.60 5.92 99.90
38718 2021-02-05 20:57:47 Terrasse 6.70 6.03 99.90
38717 2021-02-05 20:29:34 Terrasse 6.70 6.03 99.90
38716 2021-02-05 20:01:21 Terrasse 6.70 6.03 99.90
38715 2021-02-05 19:33:09 Terrasse 6.80 6.14 99.90
38714 2021-02-05 19:04:57 Terrasse 6.80 6.14 99.90
38713 2021-02-05 18:36:46 Terrasse 6.80 6.14 99.90
38712 2021-02-05 18:08:36 Terrasse 6.90 6.25 99.90
38711 2021-02-05 17:40:24 Terrasse 7.00 6.36 99.90
38710 2021-02-05 17:12:12 Terrasse 7.10 6.47 99.90
38709 2021-02-05 16:44:02 Terrasse 7.20 6.58 99.90
38708 2021-02-05 16:15:51 Terrasse 7.40 6.80 99.90
38707 2021-02-05 15:47:40 Terrasse 7.70 7.13 99.90
38706 2021-02-05 15:19:28 Terrasse 7.90 7.35 99.90
38705 2021-02-05 14:51:14 Terrasse 7.70 7.13 99.90
38704 2021-02-05 14:23:03 Terrasse 7.70 7.13 99.90
38703 2021-02-05 13:54:50 Terrasse 7.60 7.02 99.90
38702 2021-02-05 13:26:38 Terrasse 7.40 6.80 99.90
38701 2021-02-05 12:58:24 Terrasse 7.20 6.58 99.90
38700 2021-02-05 12:30:10 Terrasse 6.90 6.25 99.90
38699 2021-02-05 12:01:57 Terrasse 6.90 6.25 99.90
38698 2021-02-05 11:33:44 Terrasse 6.70 6.03 99.90
38697 2021-02-05 11:05:32 Terrasse 6.60 5.92 99.90
38696 2021-02-05 10:37:20 Terrasse 6.50 5.81 99.90
38695 2021-02-05 10:09:08 Terrasse 6.30 5.59 99.90
38694 2021-02-05 09:40:55 Terrasse 6.20 5.48 99.90
38693 2021-02-05 09:12:42 Terrasse 6.10 5.37 99.90
38692 2021-02-05 08:44:31 Terrasse 5.90 5.15 99.90
38691 2021-02-05 08:16:18 Terrasse 6.00 5.26 99.90
38690 2021-02-05 07:48:06 Terrasse 5.80 5.04 99.90
38689 2021-02-05 07:19:54 Terrasse 5.70 4.93 99.90
38688 2021-02-05 06:51:41 Terrasse 5.60 4.82 99.90
38687 2021-02-05 06:23:29 Terrasse 5.50 4.71 99.90
38686 2021-02-05 05:55:17 Terrasse 5.60 4.82 99.90
38685 2021-02-05 05:27:06 Terrasse 5.80 5.04 99.90
38684 2021-02-05 04:58:54 Terrasse 5.90 5.15 99.90
38683 2021-02-05 04:30:43 Terrasse 6.10 5.37 99.90
38682 2021-02-05 04:02:36 Terrasse 6.20 5.48 99.90
38681 2021-02-05 03:34:23 Terrasse 6.20 5.48 99.90
38680 2021-02-05 03:06:12 Terrasse 6.40 5.70 99.90
38679 2021-02-05 02:38:01 Terrasse 6.30 5.59 99.90
38678 2021-02-05 02:09:49 Terrasse 6.20 5.48 99.90
38677 2021-02-05 01:41:37 Terrasse 6.20 5.48 99.90
38676 2021-02-05 01:13:25 Terrasse 6.10 5.37 99.90
38675 2021-02-05 00:45:12 Terrasse 6.10 5.37 99.90
38674 2021-02-05 00:17:02 Terrasse 6.10 5.37 99.90
38673 2021-02-04 23:48:50 Terrasse 6.20 5.48 99.90
38672 2021-02-04 23:20:38 Terrasse 6.20 5.48 99.90
38671 2021-02-04 22:52:28 Terrasse 6.30 5.59 99.90
38670 2021-02-04 22:24:16 Terrasse 6.50 5.81 99.90
38669 2021-02-04 21:56:04 Terrasse 6.50 5.81 99.90
38668 2021-02-04 21:27:52 Terrasse 6.80 6.14 99.90
38667 2021-02-04 20:59:41 Terrasse 6.90 6.25 99.90
38666 2021-02-04 20:31:29 Terrasse 6.80 6.14 99.90
38665 2021-02-04 20:03:17 Terrasse 6.70 6.03 99.90
38664 2021-02-04 19:35:06 Terrasse 6.80 6.14 99.90
38663 2021-02-04 19:06:55 Terrasse 7.10 6.47 99.90
38662 2021-02-04 18:38:44 Terrasse 7.40 6.80 99.90
38661 2021-02-04 18:10:36 Terrasse 7.80 7.24 99.90
38660 2021-02-04 17:42:28 Terrasse 8.60 8.12 99.90
38659 2021-02-04 17:14:22 Terrasse 9.60 9.22 99.90
38658 2021-02-04 16:46:16 Terrasse 10.80 10.54 99.90
38657 2021-02-04 16:18:24 Terrasse 13.60 12.77 67.20
38656 2021-02-04 15:50:36 Terrasse 17.40 16.69 57.30
38655 2021-02-04 15:22:13 Terrasse 16.70 15.96 58.90
38654 2021-02-04 14:53:56 Terrasse 16.50 15.84 62.70
38653 2021-02-04 14:25:21 Terrasse 14.10 13.53 75.40
38652 2021-02-04 13:56:58 Terrasse 12.40 12.06 90.60
38651 2021-02-04 13:28:41 Terrasse 10.90 10.65 99.90
38650 2021-02-04 13:00:26 Terrasse 9.20 8.78 99.90
38649 2021-02-04 12:32:12 Terrasse 9.60 9.22 99.90
38648 2021-02-04 12:03:59 Terrasse 9.80 9.44 99.90
38647 2021-02-04 11:35:48 Terrasse 9.20 8.78 99.90
38646 2021-02-04 11:07:27 Terrasse 8.10 7.57 99.90
38645 2021-02-04 10:39:10 Terrasse 7.40 6.80 99.90
38644 2021-02-04 10:10:51 Terrasse 6.60 5.92 99.90
38643 2021-02-04 09:42:33 Terrasse 5.90 5.15 99.90
38642 2021-02-04 09:14:19 Terrasse 5.50 4.71 99.90
38641 2021-02-04 08:46:06 Terrasse 5.30 4.49 99.90
38640 2021-02-04 08:17:55 Terrasse 5.30 4.49 99.90
38639 2021-02-04 07:49:43 Terrasse 5.30 4.49 99.90
38638 2021-02-04 07:21:32 Terrasse 5.30 4.49 99.90
38637 2021-02-04 06:53:21 Terrasse 5.60 4.82 99.90
38636 2021-02-04 06:25:10 Terrasse 5.60 4.82 99.90
38635 2021-02-04 05:56:59 Terrasse 5.80 5.04 99.90
38634 2021-02-04 05:28:47 Terrasse 6.00 5.26 99.90
38633 2021-02-04 05:00:37 Terrasse 6.40 5.70 99.90
38632 2021-02-04 04:32:26 Terrasse 6.70 6.03 99.90
38631 2021-02-04 04:04:14 Terrasse 6.80 6.14 99.90
38630 2021-02-04 03:36:03 Terrasse 7.00 6.36 99.90
38629 2021-02-04 03:07:51 Terrasse 7.10 6.47 99.90
38628 2021-02-04 02:39:41 Terrasse 7.20 6.58 99.90
38627 2021-02-04 02:11:29 Terrasse 7.20 6.58 99.90
38626 2021-02-04 01:43:18 Terrasse 7.40 6.80 99.90
38625 2021-02-04 01:15:06 Terrasse 7.50 6.91 99.90
38624 2021-02-04 00:46:55 Terrasse 7.60 7.02 99.90
38623 2021-02-04 00:18:44 Terrasse 7.90 7.35 99.90
38622 2021-02-03 23:50:32 Terrasse 8.10 7.57 99.90
38621 2021-02-03 23:22:22 Terrasse 8.20 7.68 99.90
38620 2021-02-03 22:54:10 Terrasse 8.30 7.79 99.90
38619 2021-02-03 22:25:57 Terrasse 8.30 7.79 99.90
38618 2021-02-03 21:57:45 Terrasse 8.30 7.79 99.90
38617 2021-02-03 21:29:33 Terrasse 8.30 7.79 99.90
38616 2021-02-03 21:01:21 Terrasse 8.40 7.90 99.90
38615 2021-02-03 20:33:10 Terrasse 8.40 7.90 99.90
38614 2021-02-03 20:04:59 Terrasse 8.40 7.90 99.90
38613 2021-02-03 19:36:48 Terrasse 8.50 8.01 99.90
38612 2021-02-03 19:08:37 Terrasse 8.60 8.12 99.90
38611 2021-02-03 18:40:27 Terrasse 8.80 8.34 99.90
38610 2021-02-03 18:12:17 Terrasse 9.00 8.56 99.90
38609 2021-02-03 17:44:07 Terrasse 9.30 8.89 99.90
38608 2021-02-03 17:15:57 Terrasse 9.40 9.00 99.90
38607 2021-02-03 16:47:46 Terrasse 9.50 9.11 99.90
38606 2021-02-03 16:19:32 Terrasse 9.60 9.22 99.90
38605 2021-02-03 15:51:22 Terrasse 9.60 9.22 99.90
38604 2021-02-03 15:23:11 Terrasse 9.60 9.22 99.90
38603 2021-02-03 14:54:57 Terrasse 9.10 8.67 99.90
38602 2021-02-03 14:26:45 Terrasse 8.90 8.45 99.90
38601 2021-02-03 13:58:35 Terrasse 8.80 8.34 99.90
38600 2021-02-03 13:30:23 Terrasse 8.70 8.23 99.90
38599 2021-02-03 13:02:12 Terrasse 8.60 8.12 99.90
38598 2021-02-03 12:34:01 Terrasse 8.60 8.12 99.90
38597 2021-02-03 12:05:49 Terrasse 8.60 8.12 99.90
38596 2021-02-03 11:37:36 Terrasse 8.40 7.90 99.90
38595 2021-02-03 11:09:25 Terrasse 8.30 7.79 99.90
38594 2021-02-03 10:41:14 Terrasse 8.20 7.68 99.90
38593 2021-02-03 10:13:02 Terrasse 8.10 7.57 99.90
38592 2021-02-03 09:44:50 Terrasse 8.00 7.46 99.90
38591 2021-02-03 09:16:46 Terrasse 7.90 7.35 99.90
38590 2021-02-03 08:48:31 Terrasse 7.90 7.35 99.90
38589 2021-02-03 08:20:20 Terrasse 7.80 7.24 99.90
38588 2021-02-03 07:52:08 Terrasse 7.80 7.24 99.90
38587 2021-02-03 07:23:57 Terrasse 7.80 7.24 99.90
38586 2021-02-03 06:55:45 Terrasse 7.90 7.35 99.90
38585 2021-02-03 06:27:34 Terrasse 7.90 7.35 99.90
38584 2021-02-03 05:59:22 Terrasse 7.90 7.35 99.90
38583 2021-02-03 05:31:09 Terrasse 7.80 7.24 99.90
38582 2021-02-03 05:02:57 Terrasse 7.70 7.13 99.90
38581 2021-02-03 04:34:45 Terrasse 7.60 7.02 99.90
38580 2021-02-03 04:06:33 Terrasse 7.60 7.02 99.90
38579 2021-02-03 03:38:22 Terrasse 7.50 6.91 99.90
38578 2021-02-03 03:10:09 Terrasse 7.40 6.80 99.90
38577 2021-02-03 02:41:58 Terrasse 7.50 6.91 99.90
38576 2021-02-03 02:13:48 Terrasse 7.60 7.02 99.90
38575 2021-02-03 01:45:37 Terrasse 7.70 7.13 99.90
38574 2021-02-03 01:17:25 Terrasse 7.60 7.02 99.90
38573 2021-02-03 00:49:12 Terrasse 7.60 7.02 99.90
38572 2021-02-03 00:21:02 Terrasse 7.60 7.02 99.90
38571 2021-02-02 23:52:52 Terrasse 7.60 7.02 99.90
38570 2021-02-02 23:24:42 Terrasse 7.60 7.02 99.90
38569 2021-02-02 22:56:40 Terrasse 7.60 7.02 99.90
38568 2021-02-02 22:28:25 Terrasse 7.50 6.91 99.90
38567 2021-02-02 22:00:16 Terrasse 7.50 6.91 99.90
38566 2021-02-02 21:32:04 Terrasse 7.50 6.91 99.90
38565 2021-02-02 21:03:53 Terrasse 7.50 6.91 99.90
38564 2021-02-02 20:35:42 Terrasse 7.50 6.91 99.90
38563 2021-02-02 20:07:30 Terrasse 7.50 6.91 99.90
38562 2021-02-02 19:39:18 Terrasse 7.50 6.91 99.90
38561 2021-02-02 19:11:06 Terrasse 7.40 6.80 99.90
38560 2021-02-02 18:42:53 Terrasse 7.20 6.58 99.90
38559 2021-02-02 18:14:41 Terrasse 7.20 6.58 99.90
38558 2021-02-02 17:46:31 Terrasse 7.10 6.47 99.90
38557 2021-02-02 17:18:19 Terrasse 6.90 6.25 99.90
38556 2021-02-02 16:50:06 Terrasse 6.70 6.03 99.90
38555 2021-02-02 16:21:53 Terrasse 6.60 5.92 99.90
38554 2021-02-02 15:53:41 Terrasse 6.50 5.81 99.90
38553 2021-02-02 15:25:29 Terrasse 6.30 5.59 99.90
38552 2021-02-02 14:57:17 Terrasse 6.00 5.26 99.90
38551 2021-02-02 14:29:05 Terrasse 6.00 5.26 99.90
38550 2021-02-02 14:00:51 Terrasse 5.70 4.93 99.90
38549 2021-02-02 13:32:37 Terrasse 5.40 4.60 99.90
38548 2021-02-02 13:04:24 Terrasse 5.10 4.27 99.90
38547 2021-02-02 12:36:12 Terrasse 5.00 4.16 99.90
38546 2021-02-02 12:08:00 Terrasse 4.80 3.94 99.90
38545 2021-02-02 11:39:48 Terrasse 4.60 3.72 99.90
38544 2021-02-02 11:11:36 Terrasse 4.50 3.61 99.90
38543 2021-02-02 10:43:25 Terrasse 4.30 3.39 99.90
38542 2021-02-02 10:15:14 Terrasse 4.30 3.39 99.90
38541 2021-02-02 09:47:02 Terrasse 4.20 3.28 99.90
38540 2021-02-02 09:18:50 Terrasse 4.10 3.17 99.90
38539 2021-02-02 08:50:41 Terrasse 4.00 3.06 99.90
38538 2021-02-02 08:22:29 Terrasse 4.00 3.06 99.90
38537 2021-02-02 07:54:18 Terrasse 3.90 2.95 99.90
38536 2021-02-02 07:26:07 Terrasse 4.00 3.06 99.90
38535 2021-02-02 06:57:57 Terrasse 4.00 3.06 99.90
38534 2021-02-02 06:29:46 Terrasse 4.10 3.17 99.90
38533 2021-02-02 06:01:36 Terrasse 4.20 3.28 99.90
38532 2021-02-02 05:33:25 Terrasse 4.20 3.28 99.90
38531 2021-02-02 05:05:15 Terrasse 4.20 3.28 99.90
38530 2021-02-02 04:37:04 Terrasse 4.20 3.28 99.90
38529 2021-02-02 04:09:04 Terrasse 4.20 3.28 99.90
38528 2021-02-02 03:40:49 Terrasse 4.20 3.28 99.90
38527 2021-02-02 03:12:37 Terrasse 4.20 3.28 99.90
38526 2021-02-02 02:44:29 Terrasse 4.20 3.28 99.90
38525 2021-02-02 02:16:26 Terrasse 4.10 3.17 99.90
38524 2021-02-02 01:48:12 Terrasse 4.10 3.17 99.90
38523 2021-02-02 01:20:00 Terrasse 4.10 3.17 99.90
38522 2021-02-02 00:51:48 Terrasse 4.10 3.17 99.90
38521 2021-02-02 00:23:37 Terrasse 4.10 3.17 99.90
38520 2021-02-01 23:55:26 Terrasse 4.10 3.17 99.90
38519 2021-02-01 23:27:14 Terrasse 4.10 3.17 99.90
38518 2021-02-01 22:59:07 Terrasse 4.00 3.06 99.90
38517 2021-02-01 22:30:57 Terrasse 3.90 2.95 99.90
38516 2021-02-01 22:02:45 Terrasse 3.80 2.84 99.90
38515 2021-02-01 21:34:33 Terrasse 3.80 2.84 99.90
38514 2021-02-01 21:06:21 Terrasse 3.60 2.62 99.90
38513 2021-02-01 20:38:08 Terrasse 3.60 2.62 99.90
38512 2021-02-01 20:10:03 Terrasse 3.50 2.51 99.90
38511 2021-02-01 19:41:50 Terrasse 3.50 2.51 99.90
38510 2021-02-01 19:13:38 Terrasse 3.50 2.51 99.90
38509 2021-02-01 18:45:28 Terrasse 3.50 2.51 99.90
38508 2021-02-01 18:17:19 Terrasse 3.40 2.40 99.90
38507 2021-02-01 17:49:09 Terrasse 3.40 2.40 99.90
38506 2021-02-01 17:21:06 Terrasse 3.50 2.51 99.90
38505 2021-02-01 16:52:59 Terrasse 3.50 2.51 99.90
38504 2021-02-01 16:24:48 Terrasse 3.50 2.51 99.90
38503 2021-02-01 15:56:37 Terrasse 3.50 2.51 99.90
38502 2021-02-01 15:28:28 Terrasse 3.50 2.51 99.90
38501 2021-02-01 15:00:16 Terrasse 3.40 2.40 99.90
38500 2021-02-01 14:32:04 Terrasse 3.20 2.18 99.90
38499 2021-02-01 14:03:52 Terrasse 3.10 2.07 99.90
38498 2021-02-01 13:35:43 Terrasse 2.90 1.85 99.90
38497 2021-02-01 13:07:30 Terrasse 2.80 1.74 99.90
38496 2021-02-01 12:39:18 Terrasse 2.50 1.41 99.90
38495 2021-02-01 12:11:07 Terrasse 2.40 1.30 99.90
38494 2021-02-01 11:42:56 Terrasse 2.30 1.19 99.90
38493 2021-02-01 11:14:43 Terrasse 2.10 0.97 99.90
38492 2021-02-01 10:46:33 Terrasse 2.00 0.86 99.90
38491 2021-02-01 10:18:43 Terrasse 1.90 0.75 99.90
38490 2021-02-01 09:51:10 Terrasse 1.90 0.75 99.90
38489 2021-02-01 08:14:58 Terrasse 1.50 0.31 99.90
38488 2021-02-01 07:46:45 Terrasse 1.50 0.31 99.90
38487 2021-02-01 07:18:34 Terrasse 1.50 0.31 99.90
38486 2021-02-01 06:50:27 Terrasse 1.40 0.20 99.90
38485 2021-02-01 06:22:15 Terrasse 1.40 0.20 99.90
38484 2021-02-01 05:54:04 Terrasse 1.40 0.20 99.90
38483 2021-02-01 05:25:53 Terrasse 1.40 0.20 99.90
38482 2021-02-01 04:57:47 Terrasse 1.40 0.20 99.90
38481 2021-02-01 04:29:36 Terrasse 1.30 0.09 99.90
38480 2021-02-01 04:01:27 Terrasse 1.30 0.09 99.90
38479 2021-02-01 03:33:18 Terrasse 1.30 0.09 99.90
38478 2021-02-01 03:05:08 Terrasse 1.30 0.09 99.90
38477 2021-02-01 02:36:59 Terrasse 1.30 0.09 99.90
38476 2021-02-01 02:08:49 Terrasse 1.30 0.09 99.90
38475 2021-02-01 01:40:38 Terrasse 1.30 0.09 99.90
38474 2021-02-01 01:12:28 Terrasse 1.20 -0.02 99.90
38473 2021-02-01 00:44:19 Terrasse 1.20 -0.02 99.90
38472 2021-02-01 00:16:11 Terrasse 1.20 -0.02 99.90
38471 2021-01-31 23:48:01 Terrasse 1.20 -0.02 99.90
38470 2021-01-31 23:19:52 Terrasse 1.10 -0.13 99.90
38469 2021-01-31 22:51:41 Terrasse 1.20 -0.02 99.90
38468 2021-01-31 22:23:31 Terrasse 1.10 -0.13 99.90
38467 2021-01-31 21:55:20 Terrasse 1.10 -0.13 99.90
38466 2021-01-31 21:27:09 Terrasse 1.10 -0.13 99.90
38465 2021-01-31 20:58:59 Terrasse 1.10 -0.13 99.90
38464 2021-01-31 20:30:48 Terrasse 1.00 -0.24 99.90
38463 2021-01-31 20:02:37 Terrasse 1.00 -0.24 99.90
38462 2021-01-31 19:34:27 Terrasse 1.00 -0.24 99.90
38461 2021-01-31 19:06:17 Terrasse 1.10 -0.13 99.90
38460 2021-01-31 18:38:06 Terrasse 1.10 -0.13 99.90
38459 2021-01-31 18:09:56 Terrasse 1.00 -0.24 99.90
38458 2021-01-31 17:41:47 Terrasse 1.10 -0.13 99.90
38457 2021-01-31 17:13:37 Terrasse 1.00 -0.24 99.90
38456 2021-01-31 16:45:26 Terrasse 1.10 -0.13 99.90
38455 2021-01-31 16:17:17 Terrasse 1.20 -0.02 99.90
38454 2021-01-31 15:49:07 Terrasse 1.30 0.09 99.90
38453 2021-01-31 15:20:57 Terrasse 1.20 -0.02 99.90
38452 2021-01-31 14:52:47 Terrasse 1.20 -0.02 99.90
38451 2021-01-31 14:24:37 Terrasse 1.40 0.20 99.90
38450 2021-01-31 13:56:28 Terrasse 1.40 0.20 99.90
38449 2021-01-31 13:28:18 Terrasse 1.40 0.20 99.90
38448 2021-01-31 13:00:07 Terrasse 1.30 0.09 99.90
38447 2021-01-31 12:31:56 Terrasse 1.10 -0.13 99.90
38446 2021-01-31 12:03:45 Terrasse 1.00 -0.24 99.90
38445 2021-01-31 11:35:35 Terrasse 0.90 -0.35 99.90
38444 2021-01-31 11:07:23 Terrasse 0.80 -0.46 99.90
38443 2021-01-31 10:39:13 Terrasse 0.70 -0.57 99.90
38442 2021-01-31 10:11:02 Terrasse 0.70 -0.57 99.90
38441 2021-01-31 09:42:52 Terrasse 0.50 -0.79 99.90
38440 2021-01-31 08:46:40 Terrasse 0.30 -1.01 99.90
38439 2021-01-31 08:18:29 Terrasse 0.30 -1.01 99.90
38438 2021-01-31 07:50:19 Terrasse 0.30 -1.01 99.90
38437 2021-01-31 07:22:09 Terrasse 0.30 -1.01 99.90
38436 2021-01-31 06:53:59 Terrasse 0.40 -0.90 99.90
38435 2021-01-31 06:25:50 Terrasse 0.40 -0.90 99.90
38434 2021-01-31 05:57:54 Terrasse 0.50 -0.79 99.90
38433 2021-01-31 05:29:42 Terrasse 0.60 -0.68 99.90
38432 2021-01-31 05:01:35 Terrasse 0.60 -0.68 99.90
38431 2021-01-31 04:33:25 Terrasse 0.60 -0.68 99.90
38430 2021-01-31 04:05:43 Terrasse 0.70 -0.57 99.90
38429 2021-01-31 03:37:33 Terrasse 0.80 -0.46 99.90
38428 2021-01-31 03:09:23 Terrasse 0.80 -0.46 99.90
38427 2021-01-31 02:41:25 Terrasse 0.90 -0.35 99.90
38426 2021-01-31 02:13:23 Terrasse 0.90 -0.35 99.90
38425 2021-01-31 01:44:59 Terrasse 1.00 -0.24 99.90
38424 2021-01-31 01:17:06 Terrasse 1.00 -0.24 99.90
38423 2021-01-31 00:49:06 Terrasse 1.10 -0.13 99.90
38422 2021-01-31 00:20:51 Terrasse 1.10 -0.13 99.90
38421 2021-01-30 23:52:40 Terrasse 1.20 -0.02 99.90
38420 2021-01-30 23:24:30 Terrasse 1.20 -0.02 99.90
38419 2021-01-30 22:56:19 Terrasse 1.30 0.09 99.90
38418 2021-01-30 22:28:09 Terrasse 1.30 0.09 99.90
38417 2021-01-30 21:59:59 Terrasse 1.40 0.20 99.90
38416 2021-01-30 21:31:49 Terrasse 1.40 0.20 99.90
38415 2021-01-30 21:03:40 Terrasse 1.50 0.31 99.90
38414 2021-01-30 20:35:31 Terrasse 1.50 0.31 99.90
38413 2021-01-30 20:07:22 Terrasse 1.70 0.53 99.90
38412 2021-01-30 19:39:12 Terrasse 1.80 0.64 99.90
38411 2021-01-30 19:11:03 Terrasse 1.80 0.64 99.90
38410 2021-01-30 18:42:53 Terrasse 2.00 0.86 99.90
38409 2021-01-30 18:14:42 Terrasse 2.10 0.97 99.90
38408 2021-01-30 17:46:32 Terrasse 2.20 1.08 99.90
38407 2021-01-30 17:18:22 Terrasse 2.30 1.19 99.90
38406 2021-01-30 16:50:14 Terrasse 2.40 1.30 99.90
38405 2021-01-30 16:22:05 Terrasse 2.70 1.63 99.90
38404 2021-01-30 15:53:55 Terrasse 2.80 1.74 99.90
38403 2021-01-30 15:25:46 Terrasse 3.00 1.96 99.90
38402 2021-01-30 14:57:38 Terrasse 3.30 2.29 99.90
38401 2021-01-30 14:29:31 Terrasse 3.70 2.73 99.90
38400 2021-01-30 14:01:23 Terrasse 4.20 3.28 99.90
38399 2021-01-30 13:33:12 Terrasse 4.40 3.50 99.90
38398 2021-01-30 13:04:58 Terrasse 4.20 3.28 99.90
38397 2021-01-30 12:36:46 Terrasse 4.10 3.17 99.90
38396 2021-01-30 12:08:35 Terrasse 4.20 3.28 99.90
38395 2021-01-30 11:40:25 Terrasse 4.40 3.50 99.90
38394 2021-01-30 11:12:15 Terrasse 4.60 3.72 99.90
38393 2021-01-30 10:44:05 Terrasse 4.90 4.05 99.90
38392 2021-01-30 10:15:56 Terrasse 5.20 4.38 99.90
38391 2021-01-30 09:47:49 Terrasse 5.80 5.04 99.90
38390 2021-01-30 09:19:39 Terrasse 5.90 5.15 99.90
38389 2021-01-30 08:51:28 Terrasse 5.80 5.04 99.90
38388 2021-01-30 08:24:04 Terrasse 5.80 5.04 99.90
38387 2021-01-30 07:55:37 Terrasse 5.80 5.04 99.90
38386 2021-01-30 07:27:24 Terrasse 5.80 5.04 99.90
38385 2021-01-30 06:59:14 Terrasse 5.90 5.15 99.90
38384 2021-01-30 06:31:03 Terrasse 5.90 5.15 99.90
38383 2021-01-30 06:02:52 Terrasse 5.90 5.15 99.90
38382 2021-01-30 05:34:42 Terrasse 6.00 5.26 99.90
38381 2021-01-30 05:06:33 Terrasse 6.00 5.26 99.90
38380 2021-01-30 04:38:22 Terrasse 6.20 5.48 99.90
38379 2021-01-30 04:10:11 Terrasse 6.30 5.59 99.90
38378 2021-01-30 03:42:01 Terrasse 6.30 5.59 99.90
38377 2021-01-30 03:13:51 Terrasse 6.50 5.81 99.90
38376 2021-01-30 02:45:41 Terrasse 6.50 5.81 99.90
38375 2021-01-30 02:17:31 Terrasse 6.60 5.92 99.90
38374 2021-01-30 01:49:20 Terrasse 6.60 5.92 99.90
38373 2021-01-30 01:21:08 Terrasse 6.50 5.81 99.90
38372 2021-01-30 00:52:58 Terrasse 6.50 5.81 99.90
38371 2021-01-30 00:24:47 Terrasse 6.50 5.81 99.90
38370 2021-01-29 23:56:37 Terrasse 6.50 5.81 99.90
38369 2021-01-29 23:28:27 Terrasse 6.60 5.92 99.90
38368 2021-01-29 23:00:16 Terrasse 6.60 5.92 99.90
38367 2021-01-29 22:32:04 Terrasse 6.50 5.81 99.90
38366 2021-01-29 22:03:53 Terrasse 6.50 5.81 99.90
38365 2021-01-29 21:35:43 Terrasse 6.50 5.81 99.90
38364 2021-01-29 21:07:32 Terrasse 6.70 6.03 99.90
38363 2021-01-29 20:39:22 Terrasse 6.80 6.14 99.90
38362 2021-01-29 20:11:11 Terrasse 6.90 6.25 99.90
38361 2021-01-29 19:43:00 Terrasse 6.90 6.25 99.90
38360 2021-01-29 19:14:48 Terrasse 7.00 6.36 99.90
38359 2021-01-29 18:46:39 Terrasse 7.10 6.47 99.90
38358 2021-01-29 18:19:41 Terrasse 7.20 6.58 99.90
38357 2021-01-29 17:50:34 Terrasse 7.30 6.69 99.90
38356 2021-01-29 17:22:33 Terrasse 7.40 6.80 99.90
38355 2021-01-29 16:54:55 Terrasse 7.70 7.13 99.90
38354 2021-01-29 16:26:37 Terrasse 8.00 7.46 99.90
38353 2021-01-29 15:58:29 Terrasse 8.50 8.01 99.90
38352 2021-01-29 15:30:20 Terrasse 8.00 7.46 99.90
38351 2021-01-29 15:02:06 Terrasse 8.10 7.57 99.90
38350 2021-01-29 14:33:54 Terrasse 7.80 7.24 99.90
38349 2021-01-29 14:05:46 Terrasse 8.10 7.57 99.90
38348 2021-01-29 13:37:37 Terrasse 8.20 7.68 99.90
38347 2021-01-29 13:09:26 Terrasse 8.10 7.57 99.90
38346 2021-01-29 12:41:17 Terrasse 8.40 7.90 99.90
38345 2021-01-29 12:13:09 Terrasse 8.60 8.12 99.90
38344 2021-01-29 11:44:52 Terrasse 8.00 7.46 99.90
38343 2021-01-29 11:17:01 Terrasse 7.60 7.02 99.90
38342 2021-01-29 10:48:51 Terrasse 7.50 6.91 99.90
38341 2021-01-29 10:20:37 Terrasse 7.20 6.58 99.90
38340 2021-01-29 09:52:41 Terrasse 7.00 6.36 99.90
38339 2021-01-29 09:25:00 Terrasse 7.00 6.36 99.90
38338 2021-01-29 08:56:37 Terrasse 6.90 6.25 99.90
38337 2021-01-29 08:28:26 Terrasse 6.90 6.25 99.90
38336 2021-01-29 08:00:15 Terrasse 6.90 6.25 99.90
38335 2021-01-29 07:32:02 Terrasse 6.60 5.92 99.90
38334 2021-01-29 07:03:50 Terrasse 6.40 5.70 99.90
38333 2021-01-29 06:35:40 Terrasse 6.30 5.59 99.90
38332 2021-01-29 06:07:28 Terrasse 6.20 5.48 99.90
38331 2021-01-29 05:39:15 Terrasse 6.00 5.26 99.90
38330 2021-01-29 05:11:03 Terrasse 5.90 5.15 99.90
38329 2021-01-29 04:42:52 Terrasse 5.80 5.04 99.90
38328 2021-01-29 04:14:42 Terrasse 5.70 4.93 99.90
38327 2021-01-29 03:46:32 Terrasse 5.80 5.04 99.90
38326 2021-01-29 03:18:22 Terrasse 5.80 5.04 99.90
38325 2021-01-29 02:50:13 Terrasse 5.90 5.15 99.90
38324 2021-01-29 02:22:03 Terrasse 5.90 5.15 99.90
38323 2021-01-29 01:53:54 Terrasse 6.10 5.37 99.90
38322 2021-01-29 01:25:53 Terrasse 6.30 5.59 99.90
38321 2021-01-29 00:57:38 Terrasse 6.40 5.70 99.90
38320 2021-01-29 00:29:29 Terrasse 6.40 5.70 99.90
38319 2021-01-29 00:01:18 Terrasse 6.40 5.70 99.90
38318 2021-01-28 23:33:07 Terrasse 6.30 5.59 99.90
38317 2021-01-28 23:04:57 Terrasse 6.30 5.59 99.90
38316 2021-01-28 22:36:47 Terrasse 6.30 5.59 99.90
38315 2021-01-28 22:08:36 Terrasse 6.40 5.70 99.90
38314 2021-01-28 21:40:27 Terrasse 6.40 5.70 99.90
38313 2021-01-28 21:12:17 Terrasse 6.50 5.81 99.90
38312 2021-01-28 20:44:07 Terrasse 6.80 6.14 99.90
38311 2021-01-28 20:15:58 Terrasse 6.90 6.25 99.90
38310 2021-01-28 19:47:49 Terrasse 7.10 6.47 99.90
38309 2021-01-28 19:19:38 Terrasse 7.10 6.47 99.90
38308 2021-01-28 18:51:27 Terrasse 7.10 6.47 99.90
38307 2021-01-28 18:23:17 Terrasse 7.00 6.36 99.90
38306 2021-01-28 17:55:06 Terrasse 6.80 6.14 99.90
38305 2021-01-28 17:26:53 Terrasse 6.60 5.92 99.90
38304 2021-01-28 16:58:40 Terrasse 6.10 5.37 99.90
38303 2021-01-28 16:30:24 Terrasse 5.20 4.38 99.90
38302 2021-01-28 16:02:06 Terrasse 3.90 2.95 99.90
38301 2021-01-28 15:33:54 Terrasse 3.20 2.18 99.90
38300 2021-01-28 15:05:44 Terrasse 3.00 1.96 99.90
38299 2021-01-28 14:37:35 Terrasse 2.90 1.85 99.90
38298 2021-01-28 14:09:25 Terrasse 2.70 1.63 99.90
38297 2021-01-28 13:41:15 Terrasse 2.60 1.52 99.90
38296 2021-01-28 13:13:04 Terrasse 2.50 1.41 99.90
38295 2021-01-28 12:44:53 Terrasse 2.40 1.30 99.90
38294 2021-01-28 12:16:42 Terrasse 2.30 1.19 99.90
38293 2021-01-28 11:48:34 Terrasse 2.20 1.08 99.90
38292 2021-01-28 11:20:24 Terrasse 2.20 1.08 99.90
38291 2021-01-28 10:52:14 Terrasse 2.10 0.97 99.90
38290 2021-01-28 10:24:05 Terrasse 2.00 0.86 99.90
38289 2021-01-28 09:55:55 Terrasse 1.90 0.75 99.90
38288 2021-01-28 09:27:45 Terrasse 1.90 0.75 99.90
38287 2021-01-28 08:59:36 Terrasse 1.80 0.64 99.90
38286 2021-01-28 08:31:26 Terrasse 1.70 0.53 99.90
38285 2021-01-28 08:03:17 Terrasse 1.70 0.53 99.90
38284 2021-01-28 07:35:08 Terrasse 1.70 0.53 99.90
38283 2021-01-28 07:06:59 Terrasse 1.60 0.42 99.90
38282 2021-01-28 06:38:48 Terrasse 1.60 0.42 99.90
38281 2021-01-28 06:10:39 Terrasse 1.60 0.42 99.90
38280 2021-01-28 05:42:30 Terrasse 1.60 0.42 99.90
38279 2021-01-28 05:14:20 Terrasse 1.60 0.42 99.90
38278 2021-01-28 04:46:12 Terrasse 1.60 0.42 99.90
38277 2021-01-28 04:18:02 Terrasse 1.60 0.42 99.90
38276 2021-01-28 03:49:54 Terrasse 1.50 0.31 99.90
38275 2021-01-28 03:21:44 Terrasse 1.50 0.31 99.90
38274 2021-01-28 02:53:34 Terrasse 1.50 0.31 99.90
38273 2021-01-28 02:25:23 Terrasse 1.50 0.31 99.90
38272 2021-01-28 01:57:14 Terrasse 1.50 0.31 99.90
38271 2021-01-28 01:29:05 Terrasse 1.40 0.20 99.90
38270 2021-01-28 01:00:54 Terrasse 1.40 0.20 99.90
38269 2021-01-28 00:32:45 Terrasse 1.40 0.20 99.90
38268 2021-01-28 00:04:35 Terrasse 1.40 0.20 99.90
38267 2021-01-27 23:36:26 Terrasse 1.30 0.09 99.90
38266 2021-01-27 23:08:16 Terrasse 1.30 0.09 99.90
38265 2021-01-27 22:40:07 Terrasse 1.30 0.09 99.90
38264 2021-01-27 22:11:58 Terrasse 1.20 -0.02 99.90
38263 2021-01-27 21:43:49 Terrasse 1.20 -0.02 99.90
38262 2021-01-27 21:15:39 Terrasse 1.20 -0.02 99.90
38261 2021-01-27 20:47:28 Terrasse 1.10 -0.13 99.90
38260 2021-01-27 20:19:19 Terrasse 1.10 -0.13 99.90
38259 2021-01-27 19:51:09 Terrasse 1.10 -0.13 99.90
38258 2021-01-27 19:22:59 Terrasse 1.00 -0.24 99.90
38257 2021-01-27 18:54:51 Terrasse 1.00 -0.24 99.90
38256 2021-01-27 18:26:53 Terrasse 1.00 -0.24 99.90
38255 2021-01-27 17:59:56 Terrasse 1.00 -0.24 99.90
38254 2021-01-27 17:31:59 Terrasse 0.90 -0.35 99.90
38253 2021-01-27 17:02:30 Terrasse 0.90 -0.35 99.90
38252 2021-01-27 16:34:34 Terrasse 0.90 -0.35 99.90
38251 2021-01-27 16:06:22 Terrasse 0.90 -0.35 99.90
38250 2021-01-27 15:38:13 Terrasse 0.90 -0.35 99.90
38249 2021-01-27 15:10:05 Terrasse 0.90 -0.35 99.90
38248 2021-01-27 14:41:57 Terrasse 0.90 -0.35 99.90
38247 2021-01-27 14:13:47 Terrasse 0.80 -0.46 99.90
38246 2021-01-27 13:45:38 Terrasse 0.70 -0.57 99.90
38245 2021-01-27 13:17:29 Terrasse 0.70 -0.57 99.90
38244 2021-01-27 12:49:20 Terrasse 0.70 -0.57 99.90
38243 2021-01-27 12:21:11 Terrasse 0.70 -0.57 99.90
38242 2021-01-27 11:53:01 Terrasse 0.60 -0.68 99.90
38241 2021-01-27 11:24:52 Terrasse 0.60 -0.68 99.90
38240 2021-01-27 10:56:44 Terrasse 0.60 -0.68 99.90
38239 2021-01-27 10:28:34 Terrasse 0.50 -0.79 99.90
38238 2021-01-27 10:01:47 Terrasse 0.50 -0.79 99.90
38237 2021-01-27 09:32:15 Terrasse 0.50 -0.79 99.90
38236 2021-01-27 09:04:06 Terrasse 0.40 -0.90 99.90
38235 2021-01-27 08:35:56 Terrasse 0.40 -0.90 99.90
38234 2021-01-27 08:07:47 Terrasse 0.30 -1.01 99.90
38233 2021-01-27 07:39:38 Terrasse 0.40 -0.90 99.90
38232 2021-01-27 07:11:30 Terrasse 0.40 -0.90 99.90
38231 2021-01-27 06:43:22 Terrasse 0.40 -0.90 99.90
38230 2021-01-27 06:15:13 Terrasse 0.50 -0.79 99.90
38229 2021-01-27 05:47:05 Terrasse 0.50 -0.79 99.90
38228 2021-01-27 05:18:57 Terrasse 0.60 -0.68 99.90
38227 2021-01-27 04:50:49 Terrasse 0.70 -0.57 99.90
38226 2021-01-27 04:22:40 Terrasse 0.70 -0.57 99.90
38225 2021-01-27 03:24:13 Terrasse 0.80 -0.46 99.90
38224 2021-01-27 02:56:05 Terrasse 0.80 -0.46 99.90
38223 2021-01-27 02:27:57 Terrasse 0.80 -0.46 99.90
38222 2021-01-27 01:59:48 Terrasse 0.90 -0.35 99.90
38221 2021-01-27 01:31:40 Terrasse 0.90 -0.35 99.90
38220 2021-01-27 01:03:31 Terrasse 0.90 -0.35 99.90
38219 2021-01-27 00:05:04 Terrasse 0.90 -0.35 99.90
38218 2021-01-26 23:36:56 Terrasse 1.00 -0.24 99.90
38217 2021-01-26 23:08:48 Terrasse 1.00 -0.24 99.90
38216 2021-01-26 22:40:40 Terrasse 1.00 -0.24 99.90
38215 2021-01-26 22:12:32 Terrasse 1.20 -0.02 99.90
38214 2021-01-26 21:44:26 Terrasse 1.40 0.20 99.90
38213 2021-01-26 21:16:41 Terrasse 1.50 0.31 99.90
38212 2021-01-26 20:49:23 Terrasse 1.50 0.31 99.90
38211 2021-01-26 20:20:45 Terrasse 1.70 0.53 99.90
38210 2021-01-26 19:52:46 Terrasse 1.80 0.64 99.90
38209 2021-01-26 19:24:37 Terrasse 2.00 0.86 99.90
38208 2021-01-26 18:56:32 Terrasse 2.20 1.08 99.90
38207 2021-01-26 18:28:31 Terrasse 2.70 1.63 99.90
38206 2021-01-26 18:00:40 Terrasse 4.60 3.72 99.90
38205 2021-01-26 17:33:44 Terrasse 19.00 18.55 60.90
38204 2021-01-26 10:22:11 Terrasse 1.40 0.20 99.90
38203 2021-01-26 09:52:27 Terrasse 1.30 0.09 99.90
38202 2021-01-26 09:23:02 Terrasse 1.20 -0.02 99.90
38201 2021-01-26 08:53:22 Terrasse 1.20 -0.02 99.90
38200 2021-01-26 07:55:20 Terrasse 1.00 -0.24 99.90
38199 2021-01-26 06:54:34 Terrasse 0.70 -0.57 99.90
38198 2021-01-25 21:37:36 Terrasse 0.70 -0.57 99.90
38197 2021-01-25 17:30:50 Terrasse 1.60 0.42 99.90
38196 2021-01-25 17:01:51 Terrasse 1.60 0.42 99.90
38195 2021-01-25 16:29:55 Terrasse 1.70 0.53 99.90
38194 2021-01-25 16:01:52 Terrasse 1.80 0.64 99.90
38193 2021-01-25 15:33:58 Terrasse 1.80 0.64 99.90
38192 2021-01-25 15:01:23 Terrasse 1.80 0.64 99.90
38191 2021-01-25 13:58:41 Terrasse 1.80 0.64 99.90
38190 2021-01-25 13:30:24 Terrasse 1.70 0.53 99.90
38189 2021-01-25 13:03:23 Terrasse 2.40 1.30 99.90
38188 2021-01-25 12:35:02 Terrasse 1.30 0.09 99.90
38187 2021-01-25 12:07:13 Terrasse 1.10 -0.13 99.90
38186 2021-01-25 11:36:13 Terrasse 1.00 -0.24 99.90
38185 2021-01-25 11:07:54 Terrasse 0.90 -0.35 99.90
38184 2021-01-25 10:39:35 Terrasse 0.80 -0.46 99.90
38183 2021-01-25 10:11:16 Terrasse 0.70 -0.57 99.90
38182 2021-01-25 09:42:57 Terrasse 0.70 -0.57 99.90
38181 2021-01-25 09:14:40 Terrasse 0.60 -0.68 99.90
38180 2021-01-25 08:46:31 Terrasse 0.60 -0.68 99.90
38179 2021-01-25 06:44:14 Terrasse 0.60 -0.68 99.90
38178 2021-01-25 05:45:37 Terrasse 0.70 -0.57 99.90
38177 2021-01-25 05:08:35 Terrasse -0.60 -2.00 99.90
38176 2021-01-25 04:40:03 Terrasse 0.70 -0.57 99.90
38175 2021-01-24 23:38:59 Terrasse 0.50 -0.79 99.90
38174 2021-01-24 23:10:44 Terrasse 0.50 -0.79 99.90
38173 2021-01-24 22:42:28 Terrasse 0.50 -0.79 99.90
38172 2021-01-24 22:14:13 Terrasse 0.70 -0.57 99.90
38171 2021-01-24 21:45:57 Terrasse 0.80 -0.46 99.90
38170 2021-01-24 21:18:15 Terrasse 0.80 -0.46 99.90
38169 2021-01-24 20:50:03 Terrasse 0.90 -0.35 99.90
38168 2021-01-24 20:21:57 Terrasse 0.90 -0.35 99.90
38167 2021-01-24 19:53:48 Terrasse 0.90 -0.35 99.90
38166 2021-01-24 19:25:43 Terrasse 1.10 -0.13 99.90
38165 2021-01-24 18:57:29 Terrasse 1.30 0.09 99.90
38164 2021-01-24 18:29:13 Terrasse 1.30 0.09 99.90
38163 2021-01-24 18:01:03 Terrasse 1.50 0.31 99.90
38162 2021-01-24 17:32:46 Terrasse 1.40 0.20 99.90
38161 2021-01-24 17:04:30 Terrasse 1.60 0.42 99.90
38160 2021-01-24 16:36:16 Terrasse 1.70 0.53 99.90
38159 2021-01-24 16:08:01 Terrasse 1.70 0.53 99.90
38158 2021-01-24 15:39:45 Terrasse 1.90 0.75 99.90
38157 2021-01-24 15:11:31 Terrasse 2.00 0.86 99.90
38156 2021-01-24 14:43:21 Terrasse 2.90 1.85 99.90
38155 2021-01-24 14:15:00 Terrasse 1.80 0.64 99.90
38154 2021-01-24 13:46:41 Terrasse 1.50 0.31 99.90
38153 2021-01-24 13:18:23 Terrasse 1.20 -0.02 99.90
38152 2021-01-24 12:50:09 Terrasse 1.10 -0.13 99.90
38151 2021-01-24 12:21:54 Terrasse 1.00 -0.24 99.90
38150 2021-01-24 11:53:38 Terrasse 0.90 -0.35 99.90
38149 2021-01-24 11:25:26 Terrasse 0.90 -0.35 99.90
38148 2021-01-24 10:57:19 Terrasse 0.90 -0.35 99.90
38147 2021-01-24 10:29:00 Terrasse 0.80 -0.46 99.90
38146 2021-01-24 10:00:44 Terrasse 0.80 -0.46 99.90
38145 2021-01-24 09:32:32 Terrasse 0.70 -0.57 99.90
38144 2021-01-24 09:04:16 Terrasse 0.80 -0.46 99.90
38143 2021-01-24 08:36:00 Terrasse 0.80 -0.46 99.90
38142 2021-01-24 08:07:44 Terrasse 0.80 -0.46 99.90
38141 2021-01-24 07:39:30 Terrasse 0.90 -0.35 99.90
38140 2021-01-24 07:11:15 Terrasse 0.90 -0.35 99.90
38139 2021-01-24 06:43:00 Terrasse 1.00 -0.24 99.90
38138 2021-01-24 06:14:46 Terrasse 1.00 -0.24 99.90
38137 2021-01-24 05:46:31 Terrasse 1.10 -0.13 99.90
38136 2021-01-24 05:18:16 Terrasse 1.30 0.09 99.90
38135 2021-01-24 04:50:00 Terrasse 1.40 0.20 99.90
38134 2021-01-24 04:21:45 Terrasse 1.60 0.42 99.90
38133 2021-01-24 03:53:30 Terrasse 1.70 0.53 99.90
38132 2021-01-24 03:25:17 Terrasse 1.90 0.75 99.90
38131 2021-01-24 02:57:02 Terrasse 1.90 0.75 99.90
38130 2021-01-24 02:28:46 Terrasse 2.00 0.86 99.90
38129 2021-01-24 02:00:30 Terrasse 2.10 0.97 99.90
38128 2021-01-24 01:32:15 Terrasse 2.30 1.19 99.90
38127 2021-01-24 01:04:00 Terrasse 2.30 1.19 99.90
38126 2021-01-24 00:35:45 Terrasse 2.50 1.41 99.90
38125 2021-01-24 00:07:31 Terrasse 2.70 1.63 99.90
38124 2021-01-23 23:39:46 Terrasse 2.90 1.85 99.90
38123 2021-01-23 23:11:23 Terrasse 3.00 1.96 99.90
38122 2021-01-23 22:43:05 Terrasse 3.00 1.96 99.90
38121 2021-01-23 22:14:50 Terrasse 3.20 2.18 99.90
38120 2021-01-23 21:46:34 Terrasse 3.30 2.29 99.90
38119 2021-01-23 21:19:06 Terrasse 3.40 2.40 99.90
38118 2021-01-23 20:50:38 Terrasse 3.50 2.51 99.90
38117 2021-01-23 20:22:43 Terrasse 3.40 2.40 99.90
38116 2021-01-23 19:54:15 Terrasse 3.40 2.40 99.90
38115 2021-01-23 19:25:58 Terrasse 3.60 2.62 99.90
38114 2021-01-23 18:57:43 Terrasse 3.70 2.73 99.90
38113 2021-01-23 18:29:25 Terrasse 3.70 2.73 99.90
38112 2021-01-23 18:01:08 Terrasse 3.60 2.62 99.90
38111 2021-01-23 17:32:52 Terrasse 3.60 2.62 99.90
38110 2021-01-23 17:04:37 Terrasse 3.70 2.73 99.90
38109 2021-01-23 16:36:20 Terrasse 3.80 2.84 99.90
38108 2021-01-23 15:07:30 Terrasse 3.50 2.51 99.90
38107 2021-01-23 14:39:03 Terrasse 3.30 2.29 99.90
38106 2021-01-23 14:10:45 Terrasse 3.30 2.29 99.90
38105 2021-01-23 13:42:45 Terrasse 3.10 2.07 99.90
38104 2021-01-23 13:14:53 Terrasse 3.10 2.07 99.90
38103 2021-01-23 12:46:54 Terrasse 3.10 2.07 99.90
38102 2021-01-23 12:18:20 Terrasse 3.00 1.96 99.90
38101 2021-01-23 11:50:03 Terrasse 2.80 1.74 99.90
38100 2021-01-23 11:21:46 Terrasse 2.70 1.63 99.90
38099 2021-01-23 10:53:29 Terrasse 2.60 1.52 99.90
38098 2021-01-23 10:25:13 Terrasse 2.70 1.63 99.90
38097 2021-01-23 09:56:58 Terrasse 2.70 1.63 99.90
38096 2021-01-23 09:28:45 Terrasse 2.50 1.41 99.90
38095 2021-01-23 09:00:26 Terrasse 2.50 1.41 99.90
38094 2021-01-23 08:32:07 Terrasse 2.20 1.08 99.90
38093 2021-01-23 08:03:50 Terrasse 1.80 0.64 99.90
38092 2021-01-23 07:35:34 Terrasse 2.10 0.97 99.90
38091 2021-01-23 07:07:20 Terrasse 2.40 1.30 99.90
38090 2021-01-23 06:39:05 Terrasse 2.70 1.63 99.90
38089 2021-01-23 06:10:51 Terrasse 3.00 1.96 99.90
38088 2021-01-23 05:42:45 Terrasse 3.30 2.29 99.90
38087 2021-01-23 05:14:31 Terrasse 3.40 2.40 99.90
38086 2021-01-23 04:46:40 Terrasse 3.50 2.51 99.90
38085 2021-01-23 04:18:32 Terrasse 3.50 2.51 99.90
38084 2021-01-23 03:50:10 Terrasse 3.60 2.62 99.90
38083 2021-01-23 03:22:39 Terrasse 3.60 2.62 99.90
38082 2021-01-23 02:54:03 Terrasse 3.60 2.62 99.90
38081 2021-01-23 02:26:31 Terrasse 3.60 2.62 99.90
38080 2021-01-23 01:58:04 Terrasse 3.60 2.62 99.90
38079 2021-01-23 01:29:49 Terrasse 3.70 2.73 99.90
38078 2021-01-23 01:01:39 Terrasse 3.70 2.73 99.90
38077 2021-01-23 00:33:31 Terrasse 3.70 2.73 99.90
38076 2021-01-23 00:05:20 Terrasse 3.70 2.73 99.90
38075 2021-01-22 23:37:03 Terrasse 3.70 2.73 99.90
38074 2021-01-22 23:08:46 Terrasse 3.60 2.62 99.90
38073 2021-01-22 22:40:30 Terrasse 3.60 2.62 99.90
38072 2021-01-22 22:12:13 Terrasse 3.50 2.51 99.90
38071 2021-01-22 21:43:57 Terrasse 3.50 2.51 99.90
38070 2021-01-22 21:15:42 Terrasse 3.60 2.62 99.90
38069 2021-01-22 20:47:26 Terrasse 3.70 2.73 99.90
38068 2021-01-22 20:19:10 Terrasse 4.00 3.06 99.90
38067 2021-01-22 19:50:54 Terrasse 4.00 3.06 99.90
38066 2021-01-22 19:22:38 Terrasse 4.20 3.28 99.90
38065 2021-01-22 18:54:22 Terrasse 4.30 3.39 99.90
38064 2021-01-22 18:26:05 Terrasse 4.30 3.39 99.90
38063 2021-01-22 17:57:49 Terrasse 4.40 3.50 99.90
38062 2021-01-22 17:29:34 Terrasse 4.70 3.83 99.90
38061 2021-01-22 17:01:16 Terrasse 4.80 3.94 99.90
38060 2021-01-22 16:33:03 Terrasse 5.30 4.49 99.90
38059 2021-01-22 16:04:51 Terrasse 6.30 5.59 99.90
38058 2021-01-22 15:36:25 Terrasse 5.60 4.82 99.90
38057 2021-01-22 15:08:11 Terrasse 4.90 4.05 99.90
38056 2021-01-22 14:39:56 Terrasse 4.80 3.94 99.90
38055 2021-01-22 14:11:43 Terrasse 4.90 4.05 99.90
38054 2021-01-22 13:43:28 Terrasse 4.90 4.05 99.90
38053 2021-01-22 13:15:11 Terrasse 4.80 3.94 99.90
38052 2021-01-22 12:46:55 Terrasse 4.80 3.94 99.90
38051 2021-01-22 12:18:39 Terrasse 4.80 3.94 99.90
38050 2021-01-22 11:50:20 Terrasse 4.80 3.94 99.90
38049 2021-01-22 11:22:04 Terrasse 4.80 3.94 99.90
38048 2021-01-22 10:53:48 Terrasse 4.80 3.94 99.90
38047 2021-01-22 10:25:32 Terrasse 4.90 4.05 99.90
38046 2021-01-22 09:57:14 Terrasse 5.00 4.16 99.90
38045 2021-01-22 09:28:58 Terrasse 5.00 4.16 99.90
38044 2021-01-22 09:00:42 Terrasse 5.00 4.16 99.90
38043 2021-01-22 08:32:36 Terrasse 5.10 4.27 99.90
38042 2021-01-22 08:04:21 Terrasse 5.50 4.71 99.90
38041 2021-01-22 07:36:07 Terrasse 6.20 5.48 99.90
38040 2021-01-22 07:07:58 Terrasse 7.30 6.69 99.90
38039 2021-01-22 06:39:42 Terrasse 7.80 7.24 99.90
38038 2021-01-22 06:11:26 Terrasse 8.00 7.46 99.90
38037 2021-01-22 05:43:10 Terrasse 8.10 7.57 99.90
38036 2021-01-22 05:14:54 Terrasse 8.00 7.46 99.90
38035 2021-01-22 04:46:37 Terrasse 7.90 7.35 99.90
38034 2021-01-22 04:18:20 Terrasse 7.80